<?xml version="1.0" encoding="UTF-8" standalone="no" ?>
<gpx xmlns="http://www.topografix.com/GPX/1/1" xmlns:xsi="http://www.w3.org/2001/XMLSchema-instance" xsi:schemaLocation="http://www.topografix.com/GPX/1/1 http://www.topografix.com/GPX/1/1/gpx.xsd" version="1.1" creator="VisuGPX - https://www.visugpx.com">
  <metadata>
    <name>Côté Etang du Roi</name>
    <desc><![CDATA[cette fois, on le démarre en sens inverse.
quelques beaux chemins, mais certains restent à éviter s\'il a plu
]]></desc>
  </metadata>
  <trk>
    <name><![CDATA[Untitled]]></name>
    <trkseg>
      <trkpt lat="48.7031" lon="1.76427">
        <ele>174.80000305176</ele>
        <time>2014-10-24T08:56:50.000Z</time>
      </trkpt>
      <trkpt lat="48.7032" lon="1.76434">
        <ele>175.19999694824</ele>
        <time>2014-10-24T08:56:51.000Z</time>
      </trkpt>
      <trkpt lat="48.70322" lon="1.76442">
        <ele>175.60000610352</ele>
        <time>2014-10-24T08:56:54.000Z</time>
      </trkpt>
      <trkpt lat="48.70321" lon="1.76442">
        <ele>175.60000610352</ele>
        <time>2014-10-24T08:56:55.000Z</time>
      </trkpt>
      <trkpt lat="48.70317" lon="1.76445">
        <ele>175.60000610352</ele>
        <time>2014-10-24T08:57:00.000Z</time>
      </trkpt>
      <trkpt lat="48.70318" lon="1.76448">
        <ele>175.80000305176</ele>
        <time>2014-10-24T08:57:05.000Z</time>
      </trkpt>
      <trkpt lat="48.70319" lon="1.76448">
        <ele>175.80000305176</ele>
        <time>2014-10-24T08:57:06.000Z</time>
      </trkpt>
      <trkpt lat="48.70322" lon="1.76445">
        <ele>175.80000305176</ele>
        <time>2014-10-24T08:57:12.000Z</time>
      </trkpt>
      <trkpt lat="48.70322" lon="1.76452">
        <ele>176</ele>
        <time>2014-10-24T08:57:19.000Z</time>
      </trkpt>
      <trkpt lat="48.70321" lon="1.76452">
        <ele>176</ele>
        <time>2014-10-24T08:57:20.000Z</time>
      </trkpt>
      <trkpt lat="48.70314" lon="1.76442">
        <ele>175.39999389648</ele>
        <time>2014-10-24T08:57:25.000Z</time>
      </trkpt>
      <trkpt lat="48.703" lon="1.76432">
        <ele>174.80000305176</ele>
        <time>2014-10-24T08:57:35.000Z</time>
      </trkpt>
      <trkpt lat="48.70295" lon="1.76431">
        <ele>174.60000610352</ele>
        <time>2014-10-24T08:57:39.000Z</time>
      </trkpt>
      <trkpt lat="48.70288" lon="1.76428">
        <ele>174.19999694824</ele>
        <time>2014-10-24T08:57:45.000Z</time>
      </trkpt>
      <trkpt lat="48.7028" lon="1.76428">
        <ele>174</ele>
        <time>2014-10-24T08:57:51.000Z</time>
      </trkpt>
      <trkpt lat="48.70274" lon="1.76427">
        <ele>174</ele>
        <time>2014-10-24T08:57:55.000Z</time>
      </trkpt>
      <trkpt lat="48.7027" lon="1.76429">
        <ele>173.80000305176</ele>
        <time>2014-10-24T08:57:59.000Z</time>
      </trkpt>
      <trkpt lat="48.70265" lon="1.76428">
        <ele>173.80000305176</ele>
        <time>2014-10-24T08:58:04.000Z</time>
      </trkpt>
      <trkpt lat="48.70263" lon="1.76422">
        <ele>173.60000610352</ele>
        <time>2014-10-24T08:58:08.000Z</time>
      </trkpt>
      <trkpt lat="48.7026" lon="1.76419">
        <ele>173.60000610352</ele>
        <time>2014-10-24T08:58:13.000Z</time>
      </trkpt>
      <trkpt lat="48.70255" lon="1.76421">
        <ele>173.60000610352</ele>
        <time>2014-10-24T08:58:17.000Z</time>
      </trkpt>
      <trkpt lat="48.70251" lon="1.76425">
        <ele>173.80000305176</ele>
        <time>2014-10-24T08:58:21.000Z</time>
      </trkpt>
      <trkpt lat="48.70251" lon="1.76417">
        <ele>173.39999389648</ele>
        <time>2014-10-24T08:58:24.000Z</time>
      </trkpt>
      <trkpt lat="48.70242" lon="1.76399">
        <ele>172.80000305176</ele>
        <time>2014-10-24T08:58:31.000Z</time>
      </trkpt>
      <trkpt lat="48.70235" lon="1.76389">
        <ele>172.39999389648</ele>
        <time>2014-10-24T08:58:37.000Z</time>
      </trkpt>
      <trkpt lat="48.70229" lon="1.76385">
        <ele>172.39999389648</ele>
        <time>2014-10-24T08:58:43.000Z</time>
      </trkpt>
      <trkpt lat="48.70223" lon="1.76375">
        <ele>172</ele>
        <time>2014-10-24T08:58:48.000Z</time>
      </trkpt>
      <trkpt lat="48.70217" lon="1.76369">
        <ele>171.80000305176</ele>
        <time>2014-10-24T08:58:54.000Z</time>
      </trkpt>
      <trkpt lat="48.70212" lon="1.76365">
        <ele>171.60000610352</ele>
        <time>2014-10-24T08:58:59.000Z</time>
      </trkpt>
      <trkpt lat="48.70206" lon="1.76359">
        <ele>171.39999389648</ele>
        <time>2014-10-24T08:59:05.000Z</time>
      </trkpt>
      <trkpt lat="48.70202" lon="1.76355">
        <ele>171.19999694824</ele>
        <time>2014-10-24T08:59:09.000Z</time>
      </trkpt>
      <trkpt lat="48.70196" lon="1.76353">
        <ele>171.19999694824</ele>
        <time>2014-10-24T08:59:13.000Z</time>
      </trkpt>
      <trkpt lat="48.70184" lon="1.76352">
        <ele>171</ele>
        <time>2014-10-24T08:59:20.000Z</time>
      </trkpt>
      <trkpt lat="48.7018" lon="1.76353">
        <ele>171</ele>
        <time>2014-10-24T08:59:24.000Z</time>
      </trkpt>
      <trkpt lat="48.70168" lon="1.76352">
        <ele>170.80000305176</ele>
        <time>2014-10-24T08:59:30.000Z</time>
      </trkpt>
      <trkpt lat="48.70156" lon="1.76347">
        <ele>170.60000610352</ele>
        <time>2014-10-24T08:59:37.000Z</time>
      </trkpt>
      <trkpt lat="48.70148" lon="1.76346">
        <ele>170.39999389648</ele>
        <time>2014-10-24T08:59:43.000Z</time>
      </trkpt>
      <trkpt lat="48.70148" lon="1.76347">
        <ele>170.39999389648</ele>
        <time>2014-10-24T08:59:44.000Z</time>
      </trkpt>
      <trkpt lat="48.70145" lon="1.7634">
        <ele>170.19999694824</ele>
        <time>2014-10-24T08:59:49.000Z</time>
      </trkpt>
      <trkpt lat="48.70142" lon="1.76338">
        <ele>170</ele>
        <time>2014-10-24T08:59:53.000Z</time>
      </trkpt>
      <trkpt lat="48.70134" lon="1.76339">
        <ele>170</ele>
        <time>2014-10-24T08:59:58.000Z</time>
      </trkpt>
      <trkpt lat="48.70125" lon="1.76339">
        <ele>169.80000305176</ele>
        <time>2014-10-24T09:00:04.000Z</time>
      </trkpt>
      <trkpt lat="48.70121" lon="1.76334">
        <ele>169.60000610352</ele>
        <time>2014-10-24T09:00:09.000Z</time>
      </trkpt>
      <trkpt lat="48.70119" lon="1.76328">
        <ele>169.39999389648</ele>
        <time>2014-10-24T09:00:14.000Z</time>
      </trkpt>
      <trkpt lat="48.70113" lon="1.7632">
        <ele>169</ele>
        <time>2014-10-24T09:00:18.000Z</time>
      </trkpt>
      <trkpt lat="48.70107" lon="1.76312">
        <ele>169</ele>
        <time>2014-10-24T09:00:23.000Z</time>
      </trkpt>
      <trkpt lat="48.70102" lon="1.76304">
        <ele>168.80000305176</ele>
        <time>2014-10-24T09:00:27.000Z</time>
      </trkpt>
      <trkpt lat="48.70098" lon="1.76297">
        <ele>168.80000305176</ele>
        <time>2014-10-24T09:00:30.000Z</time>
      </trkpt>
      <trkpt lat="48.70095" lon="1.7629">
        <ele>168.60000610352</ele>
        <time>2014-10-24T09:00:34.000Z</time>
      </trkpt>
      <trkpt lat="48.70093" lon="1.76282">
        <ele>168.60000610352</ele>
        <time>2014-10-24T09:00:39.000Z</time>
      </trkpt>
      <trkpt lat="48.70092" lon="1.7628">
        <ele>168.60000610352</ele>
        <time>2014-10-24T09:00:40.000Z</time>
      </trkpt>
      <trkpt lat="48.7009" lon="1.76272">
        <ele>168.39999389648</ele>
        <time>2014-10-24T09:00:44.000Z</time>
      </trkpt>
      <trkpt lat="48.70086" lon="1.76262">
        <ele>168.19999694824</ele>
        <time>2014-10-24T09:00:50.000Z</time>
      </trkpt>
      <trkpt lat="48.70082" lon="1.76254">
        <ele>168.19999694824</ele>
        <time>2014-10-24T09:00:56.000Z</time>
      </trkpt>
      <trkpt lat="48.7008" lon="1.76248">
        <ele>168.19999694824</ele>
        <time>2014-10-24T09:01:01.000Z</time>
      </trkpt>
      <trkpt lat="48.70074" lon="1.76243">
        <ele>168</ele>
        <time>2014-10-24T09:01:05.000Z</time>
      </trkpt>
      <trkpt lat="48.7007" lon="1.7624">
        <ele>168</ele>
        <time>2014-10-24T09:01:09.000Z</time>
      </trkpt>
      <trkpt lat="48.70062" lon="1.76239">
        <ele>168</ele>
        <time>2014-10-24T09:01:14.000Z</time>
      </trkpt>
      <trkpt lat="48.70056" lon="1.76233">
        <ele>167.80000305176</ele>
        <time>2014-10-24T09:01:18.000Z</time>
      </trkpt>
      <trkpt lat="48.70048" lon="1.76227">
        <ele>167.80000305176</ele>
        <time>2014-10-24T09:01:23.000Z</time>
      </trkpt>
      <trkpt lat="48.7004" lon="1.76223">
        <ele>167.60000610352</ele>
        <time>2014-10-24T09:01:28.000Z</time>
      </trkpt>
      <trkpt lat="48.70036" lon="1.76217">
        <ele>167.60000610352</ele>
        <time>2014-10-24T09:01:32.000Z</time>
      </trkpt>
      <trkpt lat="48.70029" lon="1.76216">
        <ele>167.39999389648</ele>
        <time>2014-10-24T09:01:38.000Z</time>
      </trkpt>
      <trkpt lat="48.70027" lon="1.76213">
        <ele>167.39999389648</ele>
        <time>2014-10-24T09:01:41.000Z</time>
      </trkpt>
      <trkpt lat="48.70017" lon="1.76206">
        <ele>167.39999389648</ele>
        <time>2014-10-24T09:01:47.000Z</time>
      </trkpt>
      <trkpt lat="48.70009" lon="1.76202">
        <ele>167.60000610352</ele>
        <time>2014-10-24T09:01:53.000Z</time>
      </trkpt>
      <trkpt lat="48.70007" lon="1.76198">
        <ele>167.60000610352</ele>
        <time>2014-10-24T09:01:55.000Z</time>
      </trkpt>
      <trkpt lat="48.70003" lon="1.7619">
        <ele>167.60000610352</ele>
        <time>2014-10-24T09:02:00.000Z</time>
      </trkpt>
      <trkpt lat="48.69995" lon="1.76183">
        <ele>168</ele>
        <time>2014-10-24T09:02:05.000Z</time>
      </trkpt>
      <trkpt lat="48.69991" lon="1.7617">
        <ele>167.80000305176</ele>
        <time>2014-10-24T09:02:15.000Z</time>
      </trkpt>
      <trkpt lat="48.69987" lon="1.76164">
        <ele>167.80000305176</ele>
        <time>2014-10-24T09:02:18.000Z</time>
      </trkpt>
      <trkpt lat="48.6998" lon="1.76154">
        <ele>168</ele>
        <time>2014-10-24T09:02:23.000Z</time>
      </trkpt>
      <trkpt lat="48.69967" lon="1.76135">
        <ele>167.60000610352</ele>
        <time>2014-10-24T09:02:38.000Z</time>
      </trkpt>
      <trkpt lat="48.69963" lon="1.76129">
        <ele>167.60000610352</ele>
        <time>2014-10-24T09:02:42.000Z</time>
      </trkpt>
      <trkpt lat="48.69955" lon="1.76121">
        <ele>167.39999389648</ele>
        <time>2014-10-24T09:02:46.000Z</time>
      </trkpt>
      <trkpt lat="48.6995" lon="1.76114">
        <ele>167.39999389648</ele>
        <time>2014-10-24T09:02:52.000Z</time>
      </trkpt>
      <trkpt lat="48.69946" lon="1.76107">
        <ele>167.19999694824</ele>
        <time>2014-10-24T09:02:58.000Z</time>
      </trkpt>
      <trkpt lat="48.69941" lon="1.76101">
        <ele>167.19999694824</ele>
        <time>2014-10-24T09:03:04.000Z</time>
      </trkpt>
      <trkpt lat="48.69934" lon="1.76093">
        <ele>167.19999694824</ele>
        <time>2014-10-24T09:03:08.000Z</time>
      </trkpt>
      <trkpt lat="48.69927" lon="1.76089">
        <ele>167.60000610352</ele>
        <time>2014-10-24T09:03:15.000Z</time>
      </trkpt>
      <trkpt lat="48.6992" lon="1.76082">
        <ele>167.80000305176</ele>
        <time>2014-10-24T09:03:20.000Z</time>
      </trkpt>
      <trkpt lat="48.69918" lon="1.76079">
        <ele>167.80000305176</ele>
        <time>2014-10-24T09:03:24.000Z</time>
      </trkpt>
      <trkpt lat="48.69908" lon="1.76073">
        <ele>168.19999694824</ele>
        <time>2014-10-24T09:03:30.000Z</time>
      </trkpt>
      <trkpt lat="48.69905" lon="1.76067">
        <ele>168</ele>
        <time>2014-10-24T09:03:33.000Z</time>
      </trkpt>
      <trkpt lat="48.69896" lon="1.76056">
        <ele>168</ele>
        <time>2014-10-24T09:03:39.000Z</time>
      </trkpt>
      <trkpt lat="48.69892" lon="1.76048">
        <ele>167.80000305176</ele>
        <time>2014-10-24T09:03:43.000Z</time>
      </trkpt>
      <trkpt lat="48.69888" lon="1.76044">
        <ele>167.80000305176</ele>
        <time>2014-10-24T09:03:47.000Z</time>
      </trkpt>
      <trkpt lat="48.69886" lon="1.76039">
        <ele>167.80000305176</ele>
        <time>2014-10-24T09:03:51.000Z</time>
      </trkpt>
      <trkpt lat="48.69882" lon="1.76034">
        <ele>167.80000305176</ele>
        <time>2014-10-24T09:03:57.000Z</time>
      </trkpt>
      <trkpt lat="48.69875" lon="1.76031">
        <ele>168</ele>
        <time>2014-10-24T09:04:03.000Z</time>
      </trkpt>
      <trkpt lat="48.6987" lon="1.76026">
        <ele>168</ele>
        <time>2014-10-24T09:04:07.000Z</time>
      </trkpt>
      <trkpt lat="48.69864" lon="1.76021">
        <ele>168.19999694824</ele>
        <time>2014-10-24T09:04:15.000Z</time>
      </trkpt>
      <trkpt lat="48.69859" lon="1.76016">
        <ele>168.19999694824</ele>
        <time>2014-10-24T09:04:20.000Z</time>
      </trkpt>
      <trkpt lat="48.69853" lon="1.76013">
        <ele>168.60000610352</ele>
        <time>2014-10-24T09:04:26.000Z</time>
      </trkpt>
      <trkpt lat="48.69838" lon="1.76004">
        <ele>168.60000610352</ele>
        <time>2014-10-24T09:04:34.000Z</time>
      </trkpt>
      <trkpt lat="48.69834" lon="1.76003">
        <ele>168.60000610352</ele>
        <time>2014-10-24T09:04:39.000Z</time>
      </trkpt>
      <trkpt lat="48.69823" lon="1.75997">
        <ele>168.60000610352</ele>
        <time>2014-10-24T09:04:47.000Z</time>
      </trkpt>
      <trkpt lat="48.69811" lon="1.75991">
        <ele>168.80000305176</ele>
        <time>2014-10-24T09:04:53.000Z</time>
      </trkpt>
      <trkpt lat="48.69803" lon="1.75989">
        <ele>168.80000305176</ele>
        <time>2014-10-24T09:04:58.000Z</time>
      </trkpt>
      <trkpt lat="48.69796" lon="1.75987">
        <ele>169</ele>
        <time>2014-10-24T09:05:04.000Z</time>
      </trkpt>
      <trkpt lat="48.69788" lon="1.75985">
        <ele>169.19999694824</ele>
        <time>2014-10-24T09:05:08.000Z</time>
      </trkpt>
      <trkpt lat="48.69786" lon="1.75984">
        <ele>169.19999694824</ele>
        <time>2014-10-24T09:05:14.000Z</time>
      </trkpt>
      <trkpt lat="48.69785" lon="1.75984">
        <ele>169.19999694824</ele>
        <time>2014-10-24T09:05:15.000Z</time>
      </trkpt>
      <trkpt lat="48.69776" lon="1.75973">
        <ele>169</ele>
        <time>2014-10-24T09:05:23.000Z</time>
      </trkpt>
      <trkpt lat="48.69771" lon="1.75969">
        <ele>169</ele>
        <time>2014-10-24T09:05:26.000Z</time>
      </trkpt>
      <trkpt lat="48.69768" lon="1.75967">
        <ele>169</ele>
        <time>2014-10-24T09:05:30.000Z</time>
      </trkpt>
      <trkpt lat="48.69765" lon="1.75965">
        <ele>169</ele>
        <time>2014-10-24T09:05:33.000Z</time>
      </trkpt>
      <trkpt lat="48.69757" lon="1.75962">
        <ele>169</ele>
        <time>2014-10-24T09:05:38.000Z</time>
      </trkpt>
      <trkpt lat="48.69753" lon="1.75957">
        <ele>168.80000305176</ele>
        <time>2014-10-24T09:05:42.000Z</time>
      </trkpt>
      <trkpt lat="48.69745" lon="1.75954">
        <ele>168.60000610352</ele>
        <time>2014-10-24T09:05:47.000Z</time>
      </trkpt>
      <trkpt lat="48.69734" lon="1.75947">
        <ele>168.39999389648</ele>
        <time>2014-10-24T09:05:56.000Z</time>
      </trkpt>
      <trkpt lat="48.6973" lon="1.7595">
        <ele>168.80000305176</ele>
        <time>2014-10-24T09:06:02.000Z</time>
      </trkpt>
      <trkpt lat="48.69726" lon="1.75948">
        <ele>168.80000305176</ele>
        <time>2014-10-24T09:06:06.000Z</time>
      </trkpt>
      <trkpt lat="48.69725" lon="1.75942">
        <ele>168.39999389648</ele>
        <time>2014-10-24T09:06:13.000Z</time>
      </trkpt>
      <trkpt lat="48.69723" lon="1.75939">
        <ele>168.19999694824</ele>
        <time>2014-10-24T09:06:15.000Z</time>
      </trkpt>
      <trkpt lat="48.69716" lon="1.75934">
        <ele>168.19999694824</ele>
        <time>2014-10-24T09:06:20.000Z</time>
      </trkpt>
      <trkpt lat="48.69711" lon="1.7593">
        <ele>168</ele>
        <time>2014-10-24T09:06:23.000Z</time>
      </trkpt>
      <trkpt lat="48.69698" lon="1.75925">
        <ele>168.19999694824</ele>
        <time>2014-10-24T09:06:31.000Z</time>
      </trkpt>
      <trkpt lat="48.69693" lon="1.75922">
        <ele>168.19999694824</ele>
        <time>2014-10-24T09:06:36.000Z</time>
      </trkpt>
      <trkpt lat="48.69691" lon="1.75915">
        <ele>167.80000305176</ele>
        <time>2014-10-24T09:06:41.000Z</time>
      </trkpt>
      <trkpt lat="48.69685" lon="1.75914">
        <ele>167.80000305176</ele>
        <time>2014-10-24T09:06:45.000Z</time>
      </trkpt>
      <trkpt lat="48.69678" lon="1.75911">
        <ele>167.80000305176</ele>
        <time>2014-10-24T09:06:50.000Z</time>
      </trkpt>
      <trkpt lat="48.69673" lon="1.7591">
        <ele>167.80000305176</ele>
        <time>2014-10-24T09:06:53.000Z</time>
      </trkpt>
      <trkpt lat="48.69663" lon="1.75902">
        <ele>167.39999389648</ele>
        <time>2014-10-24T09:07:00.000Z</time>
      </trkpt>
      <trkpt lat="48.69655" lon="1.75902">
        <ele>167.60000610352</ele>
        <time>2014-10-24T09:07:06.000Z</time>
      </trkpt>
      <trkpt lat="48.6965" lon="1.75902">
        <ele>167.80000305176</ele>
        <time>2014-10-24T09:07:10.000Z</time>
      </trkpt>
      <trkpt lat="48.69644" lon="1.75894">
        <ele>167.60000610352</ele>
        <time>2014-10-24T09:07:15.000Z</time>
      </trkpt>
      <trkpt lat="48.69638" lon="1.7589">
        <ele>167.60000610352</ele>
        <time>2014-10-24T09:07:21.000Z</time>
      </trkpt>
      <trkpt lat="48.69628" lon="1.75886">
        <ele>167.80000305176</ele>
        <time>2014-10-24T09:07:29.000Z</time>
      </trkpt>
      <trkpt lat="48.69621" lon="1.75877">
        <ele>167.60000610352</ele>
        <time>2014-10-24T09:07:35.000Z</time>
      </trkpt>
      <trkpt lat="48.69613" lon="1.75874">
        <ele>167.60000610352</ele>
        <time>2014-10-24T09:07:40.000Z</time>
      </trkpt>
      <trkpt lat="48.69608" lon="1.75875">
        <ele>167.80000305176</ele>
        <time>2014-10-24T09:07:44.000Z</time>
      </trkpt>
      <trkpt lat="48.69602" lon="1.7587">
        <ele>167.80000305176</ele>
        <time>2014-10-24T09:07:49.000Z</time>
      </trkpt>
      <trkpt lat="48.69592" lon="1.75865">
        <ele>167.39999389648</ele>
        <time>2014-10-24T09:07:55.000Z</time>
      </trkpt>
      <trkpt lat="48.69581" lon="1.75861">
        <ele>167</ele>
        <time>2014-10-24T09:08:02.000Z</time>
      </trkpt>
      <trkpt lat="48.69578" lon="1.75858">
        <ele>166.80000305176</ele>
        <time>2014-10-24T09:08:05.000Z</time>
      </trkpt>
      <trkpt lat="48.69571" lon="1.75859">
        <ele>166.60000610352</ele>
        <time>2014-10-24T09:08:10.000Z</time>
      </trkpt>
      <trkpt lat="48.69565" lon="1.75861">
        <ele>166.60000610352</ele>
        <time>2014-10-24T09:08:15.000Z</time>
      </trkpt>
      <trkpt lat="48.69558" lon="1.75859">
        <ele>166.39999389648</ele>
        <time>2014-10-24T09:08:21.000Z</time>
      </trkpt>
      <trkpt lat="48.69553" lon="1.75861">
        <ele>166.60000610352</ele>
        <time>2014-10-24T09:08:25.000Z</time>
      </trkpt>
      <trkpt lat="48.6954" lon="1.75863">
        <ele>167</ele>
        <time>2014-10-24T09:08:33.000Z</time>
      </trkpt>
      <trkpt lat="48.69532" lon="1.75865">
        <ele>167.39999389648</ele>
        <time>2014-10-24T09:08:41.000Z</time>
      </trkpt>
      <trkpt lat="48.69528" lon="1.75862">
        <ele>167.19999694824</ele>
        <time>2014-10-24T09:08:45.000Z</time>
      </trkpt>
      <trkpt lat="48.69524" lon="1.7586">
        <ele>167.19999694824</ele>
        <time>2014-10-24T09:08:49.000Z</time>
      </trkpt>
      <trkpt lat="48.69519" lon="1.75858">
        <ele>167.19999694824</ele>
        <time>2014-10-24T09:08:55.000Z</time>
      </trkpt>
      <trkpt lat="48.69519" lon="1.75858">
        <ele>167.19999694824</ele>
        <time>2014-10-24T09:08:56.000Z</time>
      </trkpt>
      <trkpt lat="48.69517" lon="1.75858">
        <ele>167.19999694824</ele>
        <time>2014-10-24T09:09:00.000Z</time>
      </trkpt>
      <trkpt lat="48.69508" lon="1.75855">
        <ele>167.19999694824</ele>
        <time>2014-10-24T09:09:05.000Z</time>
      </trkpt>
      <trkpt lat="48.69499" lon="1.75853">
        <ele>167.39999389648</ele>
        <time>2014-10-24T09:09:11.000Z</time>
      </trkpt>
      <trkpt lat="48.69491" lon="1.75855">
        <ele>167.80000305176</ele>
        <time>2014-10-24T09:09:17.000Z</time>
      </trkpt>
      <trkpt lat="48.69485" lon="1.75855">
        <ele>168.19999694824</ele>
        <time>2014-10-24T09:09:21.000Z</time>
      </trkpt>
      <trkpt lat="48.69482" lon="1.75854">
        <ele>168.19999694824</ele>
        <time>2014-10-24T09:09:24.000Z</time>
      </trkpt>
      <trkpt lat="48.69475" lon="1.75857">
        <ele>168.60000610352</ele>
        <time>2014-10-24T09:09:29.000Z</time>
      </trkpt>
      <trkpt lat="48.6947" lon="1.7586">
        <ele>168.80000305176</ele>
        <time>2014-10-24T09:09:33.000Z</time>
      </trkpt>
      <trkpt lat="48.69463" lon="1.7586">
        <ele>168.60000610352</ele>
        <time>2014-10-24T09:09:37.000Z</time>
      </trkpt>
      <trkpt lat="48.6945" lon="1.75864">
        <ele>168.39999389648</ele>
        <time>2014-10-24T09:09:45.000Z</time>
      </trkpt>
      <trkpt lat="48.69441" lon="1.75866">
        <ele>168.19999694824</ele>
        <time>2014-10-24T09:09:50.000Z</time>
      </trkpt>
      <trkpt lat="48.69436" lon="1.75868">
        <ele>168.19999694824</ele>
        <time>2014-10-24T09:09:54.000Z</time>
      </trkpt>
      <trkpt lat="48.69428" lon="1.7586">
        <ele>167.80000305176</ele>
        <time>2014-10-24T09:10:00.000Z</time>
      </trkpt>
      <trkpt lat="48.69419" lon="1.75857">
        <ele>167.39999389648</ele>
        <time>2014-10-24T09:10:07.000Z</time>
      </trkpt>
      <trkpt lat="48.69415" lon="1.75859">
        <ele>167.39999389648</ele>
        <time>2014-10-24T09:10:11.000Z</time>
      </trkpt>
      <trkpt lat="48.6941" lon="1.75853">
        <ele>167.19999694824</ele>
        <time>2014-10-24T09:10:15.000Z</time>
      </trkpt>
      <trkpt lat="48.69402" lon="1.75849">
        <ele>166.80000305176</ele>
        <time>2014-10-24T09:10:21.000Z</time>
      </trkpt>
      <trkpt lat="48.69396" lon="1.75844">
        <ele>166.60000610352</ele>
        <time>2014-10-24T09:10:27.000Z</time>
      </trkpt>
      <trkpt lat="48.69395" lon="1.75844">
        <ele>166.60000610352</ele>
        <time>2014-10-24T09:10:28.000Z</time>
      </trkpt>
      <trkpt lat="48.69386" lon="1.7584">
        <ele>166.19999694824</ele>
        <time>2014-10-24T09:10:34.000Z</time>
      </trkpt>
      <trkpt lat="48.69382" lon="1.75842">
        <ele>166.19999694824</ele>
        <time>2014-10-24T09:10:39.000Z</time>
      </trkpt>
      <trkpt lat="48.69378" lon="1.75847">
        <ele>166.19999694824</ele>
        <time>2014-10-24T09:10:42.000Z</time>
      </trkpt>
      <trkpt lat="48.69364" lon="1.75847">
        <ele>166</ele>
        <time>2014-10-24T09:10:49.000Z</time>
      </trkpt>
      <trkpt lat="48.69363" lon="1.75846">
        <ele>166</ele>
        <time>2014-10-24T09:10:50.000Z</time>
      </trkpt>
      <trkpt lat="48.6935" lon="1.7584">
        <ele>165.60000610352</ele>
        <time>2014-10-24T09:10:59.000Z</time>
      </trkpt>
      <trkpt lat="48.6934" lon="1.75838">
        <ele>165.39999389648</ele>
        <time>2014-10-24T09:11:05.000Z</time>
      </trkpt>
      <trkpt lat="48.6933" lon="1.75838">
        <ele>165.39999389648</ele>
        <time>2014-10-24T09:11:11.000Z</time>
      </trkpt>
      <trkpt lat="48.69329" lon="1.75837">
        <ele>165.19999694824</ele>
        <time>2014-10-24T09:11:12.000Z</time>
      </trkpt>
      <trkpt lat="48.69323" lon="1.75835">
        <ele>165.19999694824</ele>
        <time>2014-10-24T09:11:16.000Z</time>
      </trkpt>
      <trkpt lat="48.69314" lon="1.75831">
        <ele>164.80000305176</ele>
        <time>2014-10-24T09:11:23.000Z</time>
      </trkpt>
      <trkpt lat="48.69308" lon="1.7583">
        <ele>164.80000305176</ele>
        <time>2014-10-24T09:11:29.000Z</time>
      </trkpt>
      <trkpt lat="48.69306" lon="1.75834">
        <ele>165</ele>
        <time>2014-10-24T09:11:34.000Z</time>
      </trkpt>
      <trkpt lat="48.69303" lon="1.75831">
        <ele>164.80000305176</ele>
        <time>2014-10-24T09:11:39.000Z</time>
      </trkpt>
      <trkpt lat="48.69298" lon="1.75829">
        <ele>164.60000610352</ele>
        <time>2014-10-24T09:11:43.000Z</time>
      </trkpt>
      <trkpt lat="48.6929" lon="1.75829">
        <ele>164.60000610352</ele>
        <time>2014-10-24T09:11:48.000Z</time>
      </trkpt>
      <trkpt lat="48.69287" lon="1.75826">
        <ele>164.39999389648</ele>
        <time>2014-10-24T09:11:51.000Z</time>
      </trkpt>
      <trkpt lat="48.69278" lon="1.75831">
        <ele>164.39999389648</ele>
        <time>2014-10-24T09:11:57.000Z</time>
      </trkpt>
      <trkpt lat="48.69267" lon="1.75835">
        <ele>164.80000305176</ele>
        <time>2014-10-24T09:12:04.000Z</time>
      </trkpt>
      <trkpt lat="48.69261" lon="1.75832">
        <ele>164.80000305176</ele>
        <time>2014-10-24T09:12:08.000Z</time>
      </trkpt>
      <trkpt lat="48.69257" lon="1.75834">
        <ele>165</ele>
        <time>2014-10-24T09:12:12.000Z</time>
      </trkpt>
      <trkpt lat="48.69249" lon="1.75833">
        <ele>165</ele>
        <time>2014-10-24T09:12:18.000Z</time>
      </trkpt>
      <trkpt lat="48.69241" lon="1.75831">
        <ele>165</ele>
        <time>2014-10-24T09:12:22.000Z</time>
      </trkpt>
      <trkpt lat="48.69239" lon="1.7583">
        <ele>165</ele>
        <time>2014-10-24T09:12:24.000Z</time>
      </trkpt>
      <trkpt lat="48.69231" lon="1.75832">
        <ele>165.19999694824</ele>
        <time>2014-10-24T09:12:31.000Z</time>
      </trkpt>
      <trkpt lat="48.69222" lon="1.7583">
        <ele>165</ele>
        <time>2014-10-24T09:12:36.000Z</time>
      </trkpt>
      <trkpt lat="48.69215" lon="1.75826">
        <ele>165</ele>
        <time>2014-10-24T09:12:42.000Z</time>
      </trkpt>
      <trkpt lat="48.69213" lon="1.75825">
        <ele>165</ele>
        <time>2014-10-24T09:12:43.000Z</time>
      </trkpt>
      <trkpt lat="48.69211" lon="1.75824">
        <ele>165</ele>
        <time>2014-10-24T09:12:45.000Z</time>
      </trkpt>
      <trkpt lat="48.69207" lon="1.75826">
        <ele>165</ele>
        <time>2014-10-24T09:12:50.000Z</time>
      </trkpt>
      <trkpt lat="48.69199" lon="1.7583">
        <ele>165.39999389648</ele>
        <time>2014-10-24T09:12:56.000Z</time>
      </trkpt>
      <trkpt lat="48.69193" lon="1.75828">
        <ele>165.39999389648</ele>
        <time>2014-10-24T09:13:00.000Z</time>
      </trkpt>
      <trkpt lat="48.69185" lon="1.75828">
        <ele>165.19999694824</ele>
        <time>2014-10-24T09:13:05.000Z</time>
      </trkpt>
      <trkpt lat="48.6918" lon="1.75828">
        <ele>165.39999389648</ele>
        <time>2014-10-24T09:13:09.000Z</time>
      </trkpt>
      <trkpt lat="48.69176" lon="1.7583">
        <ele>165.39999389648</ele>
        <time>2014-10-24T09:13:14.000Z</time>
      </trkpt>
      <trkpt lat="48.69167" lon="1.75828">
        <ele>165.39999389648</ele>
        <time>2014-10-24T09:13:20.000Z</time>
      </trkpt>
      <trkpt lat="48.69165" lon="1.75829">
        <ele>165.60000610352</ele>
        <time>2014-10-24T09:13:21.000Z</time>
      </trkpt>
      <trkpt lat="48.69151" lon="1.75833">
        <ele>165.80000305176</ele>
        <time>2014-10-24T09:13:29.000Z</time>
      </trkpt>
      <trkpt lat="48.69143" lon="1.75836">
        <ele>166</ele>
        <time>2014-10-24T09:13:35.000Z</time>
      </trkpt>
      <trkpt lat="48.69135" lon="1.75831">
        <ele>166</ele>
        <time>2014-10-24T09:13:40.000Z</time>
      </trkpt>
      <trkpt lat="48.69131" lon="1.75832">
        <ele>166</ele>
        <time>2014-10-24T09:13:44.000Z</time>
      </trkpt>
      <trkpt lat="48.69123" lon="1.7583">
        <ele>166</ele>
        <time>2014-10-24T09:13:49.000Z</time>
      </trkpt>
      <trkpt lat="48.69116" lon="1.75829">
        <ele>166.19999694824</ele>
        <time>2014-10-24T09:13:54.000Z</time>
      </trkpt>
      <trkpt lat="48.69109" lon="1.75829">
        <ele>166.19999694824</ele>
        <time>2014-10-24T09:13:59.000Z</time>
      </trkpt>
      <trkpt lat="48.69103" lon="1.75826">
        <ele>166.19999694824</ele>
        <time>2014-10-24T09:14:03.000Z</time>
      </trkpt>
      <trkpt lat="48.69096" lon="1.75826">
        <ele>166.19999694824</ele>
        <time>2014-10-24T09:14:09.000Z</time>
      </trkpt>
      <trkpt lat="48.69087" lon="1.75824">
        <ele>166.19999694824</ele>
        <time>2014-10-24T09:14:14.000Z</time>
      </trkpt>
      <trkpt lat="48.69086" lon="1.75824">
        <ele>166.39999389648</ele>
        <time>2014-10-24T09:14:16.000Z</time>
      </trkpt>
      <trkpt lat="48.69083" lon="1.75822">
        <ele>166.19999694824</ele>
        <time>2014-10-24T09:14:18.000Z</time>
      </trkpt>
      <trkpt lat="48.69077" lon="1.75817">
        <ele>166.19999694824</ele>
        <time>2014-10-24T09:14:22.000Z</time>
      </trkpt>
      <trkpt lat="48.6907" lon="1.75817">
        <ele>166.19999694824</ele>
        <time>2014-10-24T09:14:27.000Z</time>
      </trkpt>
      <trkpt lat="48.69062" lon="1.75813">
        <ele>166.39999389648</ele>
        <time>2014-10-24T09:14:32.000Z</time>
      </trkpt>
      <trkpt lat="48.69056" lon="1.75808">
        <ele>166.19999694824</ele>
        <time>2014-10-24T09:14:38.000Z</time>
      </trkpt>
      <trkpt lat="48.69053" lon="1.75806">
        <ele>166.19999694824</ele>
        <time>2014-10-24T09:14:42.000Z</time>
      </trkpt>
      <trkpt lat="48.69044" lon="1.75804">
        <ele>166.19999694824</ele>
        <time>2014-10-24T09:14:49.000Z</time>
      </trkpt>
      <trkpt lat="48.69038" lon="1.75801">
        <ele>166.19999694824</ele>
        <time>2014-10-24T09:14:54.000Z</time>
      </trkpt>
      <trkpt lat="48.69035" lon="1.758">
        <ele>166.39999389648</ele>
        <time>2014-10-24T09:14:57.000Z</time>
      </trkpt>
      <trkpt lat="48.69023" lon="1.75799">
        <ele>166.39999389648</ele>
        <time>2014-10-24T09:15:05.000Z</time>
      </trkpt>
      <trkpt lat="48.69014" lon="1.75797">
        <ele>166.60000610352</ele>
        <time>2014-10-24T09:15:12.000Z</time>
      </trkpt>
      <trkpt lat="48.69009" lon="1.75796">
        <ele>166.60000610352</ele>
        <time>2014-10-24T09:15:17.000Z</time>
      </trkpt>
      <trkpt lat="48.69002" lon="1.75794">
        <ele>166.60000610352</ele>
        <time>2014-10-24T09:15:23.000Z</time>
      </trkpt>
      <trkpt lat="48.68993" lon="1.75792">
        <ele>166.60000610352</ele>
        <time>2014-10-24T09:15:29.000Z</time>
      </trkpt>
      <trkpt lat="48.68982" lon="1.75792">
        <ele>166.60000610352</ele>
        <time>2014-10-24T09:15:36.000Z</time>
      </trkpt>
      <trkpt lat="48.68972" lon="1.75793">
        <ele>166.60000610352</ele>
        <time>2014-10-24T09:15:44.000Z</time>
      </trkpt>
      <trkpt lat="48.6896" lon="1.75797">
        <ele>166.80000305176</ele>
        <time>2014-10-24T09:15:49.000Z</time>
      </trkpt>
      <trkpt lat="48.68953" lon="1.75795">
        <ele>166.60000610352</ele>
        <time>2014-10-24T09:15:56.000Z</time>
      </trkpt>
      <trkpt lat="48.68953" lon="1.75796">
        <ele>166.80000305176</ele>
        <time>2014-10-24T09:15:57.000Z</time>
      </trkpt>
      <trkpt lat="48.68945" lon="1.75798">
        <ele>166.80000305176</ele>
        <time>2014-10-24T09:16:08.000Z</time>
      </trkpt>
      <trkpt lat="48.68939" lon="1.75799">
        <ele>166.80000305176</ele>
        <time>2014-10-24T09:16:12.000Z</time>
      </trkpt>
      <trkpt lat="48.68938" lon="1.75799">
        <ele>166.80000305176</ele>
        <time>2014-10-24T09:16:13.000Z</time>
      </trkpt>
      <trkpt lat="48.68931" lon="1.75802">
        <ele>166.60000610352</ele>
        <time>2014-10-24T09:16:19.000Z</time>
      </trkpt>
      <trkpt lat="48.68918" lon="1.75802">
        <ele>166</ele>
        <time>2014-10-24T09:16:26.000Z</time>
      </trkpt>
      <trkpt lat="48.68909" lon="1.758">
        <ele>165.80000305176</ele>
        <time>2014-10-24T09:16:33.000Z</time>
      </trkpt>
      <trkpt lat="48.68904" lon="1.75801">
        <ele>165.60000610352</ele>
        <time>2014-10-24T09:16:36.000Z</time>
      </trkpt>
      <trkpt lat="48.68891" lon="1.75803">
        <ele>165.19999694824</ele>
        <time>2014-10-24T09:16:43.000Z</time>
      </trkpt>
      <trkpt lat="48.68888" lon="1.75803">
        <ele>165</ele>
        <time>2014-10-24T09:16:45.000Z</time>
      </trkpt>
      <trkpt lat="48.68877" lon="1.75805">
        <ele>164.60000610352</ele>
        <time>2014-10-24T09:16:52.000Z</time>
      </trkpt>
      <trkpt lat="48.6887" lon="1.75807">
        <ele>164.39999389648</ele>
        <time>2014-10-24T09:16:58.000Z</time>
      </trkpt>
      <trkpt lat="48.68864" lon="1.75808">
        <ele>164.19999694824</ele>
        <time>2014-10-24T09:17:02.000Z</time>
      </trkpt>
      <trkpt lat="48.68853" lon="1.75804">
        <ele>163.80000305176</ele>
        <time>2014-10-24T09:17:09.000Z</time>
      </trkpt>
      <trkpt lat="48.68852" lon="1.75799">
        <ele>163.60000610352</ele>
        <time>2014-10-24T09:17:12.000Z</time>
      </trkpt>
      <trkpt lat="48.68842" lon="1.75797">
        <ele>163.39999389648</ele>
        <time>2014-10-24T09:17:19.000Z</time>
      </trkpt>
      <trkpt lat="48.68837" lon="1.75799">
        <ele>163.19999694824</ele>
        <time>2014-10-24T09:17:21.000Z</time>
      </trkpt>
      <trkpt lat="48.68831" lon="1.7579">
        <ele>162.80000305176</ele>
        <time>2014-10-24T09:17:26.000Z</time>
      </trkpt>
      <trkpt lat="48.68828" lon="1.75789">
        <ele>162.80000305176</ele>
        <time>2014-10-24T09:17:28.000Z</time>
      </trkpt>
      <trkpt lat="48.68817" lon="1.75794">
        <ele>162.39999389648</ele>
        <time>2014-10-24T09:17:36.000Z</time>
      </trkpt>
      <trkpt lat="48.68804" lon="1.75795">
        <ele>161.80000305176</ele>
        <time>2014-10-24T09:17:45.000Z</time>
      </trkpt>
      <trkpt lat="48.68801" lon="1.75796">
        <ele>161.80000305176</ele>
        <time>2014-10-24T09:17:47.000Z</time>
      </trkpt>
      <trkpt lat="48.68795" lon="1.75796">
        <ele>161.60000610352</ele>
        <time>2014-10-24T09:17:51.000Z</time>
      </trkpt>
      <trkpt lat="48.68791" lon="1.75791">
        <ele>161.39999389648</ele>
        <time>2014-10-24T09:17:56.000Z</time>
      </trkpt>
      <trkpt lat="48.68777" lon="1.7579">
        <ele>161</ele>
        <time>2014-10-24T09:18:03.000Z</time>
      </trkpt>
      <trkpt lat="48.68774" lon="1.75785">
        <ele>160.80000305176</ele>
        <time>2014-10-24T09:18:06.000Z</time>
      </trkpt>
      <trkpt lat="48.68767" lon="1.75785">
        <ele>160.60000610352</ele>
        <time>2014-10-24T09:18:11.000Z</time>
      </trkpt>
      <trkpt lat="48.68758" lon="1.75785">
        <ele>160.39999389648</ele>
        <time>2014-10-24T09:18:18.000Z</time>
      </trkpt>
      <trkpt lat="48.6875" lon="1.75787">
        <ele>160.39999389648</ele>
        <time>2014-10-24T09:18:25.000Z</time>
      </trkpt>
      <trkpt lat="48.6874" lon="1.75787">
        <ele>160.19999694824</ele>
        <time>2014-10-24T09:18:32.000Z</time>
      </trkpt>
      <trkpt lat="48.68729" lon="1.75789">
        <ele>160</ele>
        <time>2014-10-24T09:18:39.000Z</time>
      </trkpt>
      <trkpt lat="48.68723" lon="1.7579">
        <ele>159.60000610352</ele>
        <time>2014-10-24T09:18:44.000Z</time>
      </trkpt>
      <trkpt lat="48.68716" lon="1.75794">
        <ele>159.39999389648</ele>
        <time>2014-10-24T09:18:48.000Z</time>
      </trkpt>
      <trkpt lat="48.68704" lon="1.75799">
        <ele>159</ele>
        <time>2014-10-24T09:18:56.000Z</time>
      </trkpt>
      <trkpt lat="48.68696" lon="1.75805">
        <ele>158.60000610352</ele>
        <time>2014-10-24T09:19:04.000Z</time>
      </trkpt>
      <trkpt lat="48.68681" lon="1.7581">
        <ele>158</ele>
        <time>2014-10-24T09:19:12.000Z</time>
      </trkpt>
      <trkpt lat="48.68672" lon="1.75808">
        <ele>157.60000610352</ele>
        <time>2014-10-24T09:19:18.000Z</time>
      </trkpt>
      <trkpt lat="48.68662" lon="1.75806">
        <ele>157.19999694824</ele>
        <time>2014-10-24T09:19:25.000Z</time>
      </trkpt>
      <trkpt lat="48.68658" lon="1.75803">
        <ele>157</ele>
        <time>2014-10-24T09:19:28.000Z</time>
      </trkpt>
      <trkpt lat="48.68649" lon="1.75802">
        <ele>156.60000610352</ele>
        <time>2014-10-24T09:19:35.000Z</time>
      </trkpt>
      <trkpt lat="48.6864" lon="1.75803">
        <ele>156.19999694824</ele>
        <time>2014-10-24T09:19:42.000Z</time>
      </trkpt>
      <trkpt lat="48.68629" lon="1.75802">
        <ele>155.80000305176</ele>
        <time>2014-10-24T09:19:50.000Z</time>
      </trkpt>
      <trkpt lat="48.68621" lon="1.75801">
        <ele>155.39999389648</ele>
        <time>2014-10-24T09:19:58.000Z</time>
      </trkpt>
      <trkpt lat="48.68617" lon="1.75798">
        <ele>155.19999694824</ele>
        <time>2014-10-24T09:20:01.000Z</time>
      </trkpt>
      <trkpt lat="48.68613" lon="1.75795">
        <ele>155</ele>
        <time>2014-10-24T09:20:04.000Z</time>
      </trkpt>
      <trkpt lat="48.68603" lon="1.75794">
        <ele>154.60000610352</ele>
        <time>2014-10-24T09:20:12.000Z</time>
      </trkpt>
      <trkpt lat="48.68598" lon="1.75795">
        <ele>154.39999389648</ele>
        <time>2014-10-24T09:20:16.000Z</time>
      </trkpt>
      <trkpt lat="48.68587" lon="1.75805">
        <ele>153.80000305176</ele>
        <time>2014-10-24T09:20:24.000Z</time>
      </trkpt>
      <trkpt lat="48.68577" lon="1.75813">
        <ele>153.39999389648</ele>
        <time>2014-10-24T09:20:32.000Z</time>
      </trkpt>
      <trkpt lat="48.68568" lon="1.75815">
        <ele>153.19999694824</ele>
        <time>2014-10-24T09:20:38.000Z</time>
      </trkpt>
      <trkpt lat="48.68558" lon="1.75822">
        <ele>152.80000305176</ele>
        <time>2014-10-24T09:20:44.000Z</time>
      </trkpt>
      <trkpt lat="48.6855" lon="1.7582">
        <ele>152.80000305176</ele>
        <time>2014-10-24T09:20:51.000Z</time>
      </trkpt>
      <trkpt lat="48.68546" lon="1.75816">
        <ele>152.60000610352</ele>
        <time>2014-10-24T09:20:55.000Z</time>
      </trkpt>
      <trkpt lat="48.68543" lon="1.75807">
        <ele>152.80000305176</ele>
        <time>2014-10-24T09:20:59.000Z</time>
      </trkpt>
      <trkpt lat="48.68542" lon="1.75793">
        <ele>152.80000305176</ele>
        <time>2014-10-24T09:21:04.000Z</time>
      </trkpt>
      <trkpt lat="48.68541" lon="1.75774">
        <ele>153</ele>
        <time>2014-10-24T09:21:11.000Z</time>
      </trkpt>
      <trkpt lat="48.6854" lon="1.75759">
        <ele>153.19999694824</ele>
        <time>2014-10-24T09:21:17.000Z</time>
      </trkpt>
      <trkpt lat="48.6854" lon="1.75757">
        <ele>153.19999694824</ele>
        <time>2014-10-24T09:21:18.000Z</time>
      </trkpt>
      <trkpt lat="48.68539" lon="1.75752">
        <ele>153.39999389648</ele>
        <time>2014-10-24T09:21:21.000Z</time>
      </trkpt>
      <trkpt lat="48.68537" lon="1.75742">
        <ele>153.60000610352</ele>
        <time>2014-10-24T09:21:25.000Z</time>
      </trkpt>
      <trkpt lat="48.68537" lon="1.75739">
        <ele>153.60000610352</ele>
        <time>2014-10-24T09:21:26.000Z</time>
      </trkpt>
      <trkpt lat="48.68537" lon="1.75729">
        <ele>153.80000305176</ele>
        <time>2014-10-24T09:21:30.000Z</time>
      </trkpt>
      <trkpt lat="48.68535" lon="1.75719">
        <ele>154</ele>
        <time>2014-10-24T09:21:34.000Z</time>
      </trkpt>
      <trkpt lat="48.68534" lon="1.75706">
        <ele>154.19999694824</ele>
        <time>2014-10-24T09:21:40.000Z</time>
      </trkpt>
      <trkpt lat="48.68531" lon="1.75695">
        <ele>154.39999389648</ele>
        <time>2014-10-24T09:21:45.000Z</time>
      </trkpt>
      <trkpt lat="48.6853" lon="1.7569">
        <ele>154.60000610352</ele>
        <time>2014-10-24T09:21:47.000Z</time>
      </trkpt>
      <trkpt lat="48.68525" lon="1.75674">
        <ele>154.80000305176</ele>
        <time>2014-10-24T09:21:54.000Z</time>
      </trkpt>
      <trkpt lat="48.68522" lon="1.75662">
        <ele>154.80000305176</ele>
        <time>2014-10-24T09:22:00.000Z</time>
      </trkpt>
      <trkpt lat="48.68521" lon="1.75656">
        <ele>155</ele>
        <time>2014-10-24T09:22:03.000Z</time>
      </trkpt>
      <trkpt lat="48.68519" lon="1.75644">
        <ele>155</ele>
        <time>2014-10-24T09:22:10.000Z</time>
      </trkpt>
      <trkpt lat="48.68518" lon="1.75635">
        <ele>155</ele>
        <time>2014-10-24T09:22:15.000Z</time>
      </trkpt>
      <trkpt lat="48.68516" lon="1.75624">
        <ele>155</ele>
        <time>2014-10-24T09:22:20.000Z</time>
      </trkpt>
      <trkpt lat="48.68516" lon="1.7562">
        <ele>155</ele>
        <time>2014-10-24T09:22:22.000Z</time>
      </trkpt>
      <trkpt lat="48.68515" lon="1.75612">
        <ele>155</ele>
        <time>2014-10-24T09:22:28.000Z</time>
      </trkpt>
      <trkpt lat="48.68516" lon="1.75613">
        <ele>155</ele>
        <time>2014-10-24T09:22:30.000Z</time>
      </trkpt>
      <trkpt lat="48.68512" lon="1.75607">
        <ele>155</ele>
        <time>2014-10-24T09:22:38.000Z</time>
      </trkpt>
      <trkpt lat="48.6851" lon="1.75595">
        <ele>155</ele>
        <time>2014-10-24T09:22:41.000Z</time>
      </trkpt>
      <trkpt lat="48.68507" lon="1.75579">
        <ele>155</ele>
        <time>2014-10-24T09:22:47.000Z</time>
      </trkpt>
      <trkpt lat="48.68507" lon="1.75569">
        <ele>155.19999694824</ele>
        <time>2014-10-24T09:22:52.000Z</time>
      </trkpt>
      <trkpt lat="48.68507" lon="1.75561">
        <ele>155.60000610352</ele>
        <time>2014-10-24T09:22:56.000Z</time>
      </trkpt>
      <trkpt lat="48.68508" lon="1.75549">
        <ele>156.39999389648</ele>
        <time>2014-10-24T09:23:02.000Z</time>
      </trkpt>
      <trkpt lat="48.68509" lon="1.75545">
        <ele>156.60000610352</ele>
        <time>2014-10-24T09:23:04.000Z</time>
      </trkpt>
      <trkpt lat="48.68509" lon="1.75537">
        <ele>156.80000305176</ele>
        <time>2014-10-24T09:23:08.000Z</time>
      </trkpt>
      <trkpt lat="48.68509" lon="1.75528">
        <ele>157.39999389648</ele>
        <time>2014-10-24T09:23:13.000Z</time>
      </trkpt>
      <trkpt lat="48.68504" lon="1.75517">
        <ele>158</ele>
        <time>2014-10-24T09:23:18.000Z</time>
      </trkpt>
      <trkpt lat="48.68501" lon="1.755">
        <ele>158.80000305176</ele>
        <time>2014-10-24T09:23:25.000Z</time>
      </trkpt>
      <trkpt lat="48.68501" lon="1.75499">
        <ele>159</ele>
        <time>2014-10-24T09:23:26.000Z</time>
      </trkpt>
      <trkpt lat="48.685" lon="1.75496">
        <ele>159</ele>
        <time>2014-10-24T09:23:28.000Z</time>
      </trkpt>
      <trkpt lat="48.685" lon="1.75486">
        <ele>159.60000610352</ele>
        <time>2014-10-24T09:23:33.000Z</time>
      </trkpt>
      <trkpt lat="48.68498" lon="1.75479">
        <ele>160</ele>
        <time>2014-10-24T09:23:37.000Z</time>
      </trkpt>
      <trkpt lat="48.68495" lon="1.7546">
        <ele>161</ele>
        <time>2014-10-24T09:23:46.000Z</time>
      </trkpt>
      <trkpt lat="48.68495" lon="1.75458">
        <ele>161</ele>
        <time>2014-10-24T09:23:47.000Z</time>
      </trkpt>
      <trkpt lat="48.68491" lon="1.75439">
        <ele>162.19999694824</ele>
        <time>2014-10-24T09:23:56.000Z</time>
      </trkpt>
      <trkpt lat="48.68491" lon="1.75434">
        <ele>162.60000610352</ele>
        <time>2014-10-24T09:23:59.000Z</time>
      </trkpt>
      <trkpt lat="48.6849" lon="1.75423">
        <ele>163.19999694824</ele>
        <time>2014-10-24T09:24:05.000Z</time>
      </trkpt>
      <trkpt lat="48.68489" lon="1.75419">
        <ele>163.60000610352</ele>
        <time>2014-10-24T09:24:07.000Z</time>
      </trkpt>
      <trkpt lat="48.68487" lon="1.75411">
        <ele>164</ele>
        <time>2014-10-24T09:24:11.000Z</time>
      </trkpt>
      <trkpt lat="48.68486" lon="1.75395">
        <ele>164.80000305176</ele>
        <time>2014-10-24T09:24:18.000Z</time>
      </trkpt>
      <trkpt lat="48.68484" lon="1.75382">
        <ele>165.39999389648</ele>
        <time>2014-10-24T09:24:24.000Z</time>
      </trkpt>
      <trkpt lat="48.68484" lon="1.7538">
        <ele>165.60000610352</ele>
        <time>2014-10-24T09:24:25.000Z</time>
      </trkpt>
      <trkpt lat="48.68482" lon="1.7536">
        <ele>166.60000610352</ele>
        <time>2014-10-24T09:24:33.000Z</time>
      </trkpt>
      <trkpt lat="48.68482" lon="1.75347">
        <ele>167.19999694824</ele>
        <time>2014-10-24T09:24:38.000Z</time>
      </trkpt>
      <trkpt lat="48.68482" lon="1.75345">
        <ele>167.39999389648</ele>
        <time>2014-10-24T09:24:39.000Z</time>
      </trkpt>
      <trkpt lat="48.6848" lon="1.75334">
        <ele>167.80000305176</ele>
        <time>2014-10-24T09:24:45.000Z</time>
      </trkpt>
      <trkpt lat="48.68478" lon="1.75323">
        <ele>168.39999389648</ele>
        <time>2014-10-24T09:24:51.000Z</time>
      </trkpt>
      <trkpt lat="48.68476" lon="1.75315">
        <ele>168.60000610352</ele>
        <time>2014-10-24T09:24:56.000Z</time>
      </trkpt>
      <trkpt lat="48.68476" lon="1.75303">
        <ele>168.80000305176</ele>
        <time>2014-10-24T09:25:00.000Z</time>
      </trkpt>
      <trkpt lat="48.68476" lon="1.75295">
        <ele>168.80000305176</ele>
        <time>2014-10-24T09:25:04.000Z</time>
      </trkpt>
      <trkpt lat="48.68477" lon="1.75283">
        <ele>169</ele>
        <time>2014-10-24T09:25:10.000Z</time>
      </trkpt>
      <trkpt lat="48.68478" lon="1.75275">
        <ele>169</ele>
        <time>2014-10-24T09:25:14.000Z</time>
      </trkpt>
      <trkpt lat="48.68479" lon="1.75264">
        <ele>169</ele>
        <time>2014-10-24T09:25:19.000Z</time>
      </trkpt>
      <trkpt lat="48.68476" lon="1.75255">
        <ele>169</ele>
        <time>2014-10-24T09:25:24.000Z</time>
      </trkpt>
      <trkpt lat="48.68473" lon="1.75248">
        <ele>169.19999694824</ele>
        <time>2014-10-24T09:25:28.000Z</time>
      </trkpt>
      <trkpt lat="48.6847" lon="1.75239">
        <ele>169.19999694824</ele>
        <time>2014-10-24T09:25:33.000Z</time>
      </trkpt>
      <trkpt lat="48.68468" lon="1.7523">
        <ele>169.19999694824</ele>
        <time>2014-10-24T09:25:38.000Z</time>
      </trkpt>
      <trkpt lat="48.68467" lon="1.75223">
        <ele>169</ele>
        <time>2014-10-24T09:25:41.000Z</time>
      </trkpt>
      <trkpt lat="48.68467" lon="1.7521">
        <ele>169</ele>
        <time>2014-10-24T09:25:47.000Z</time>
      </trkpt>
      <trkpt lat="48.68466" lon="1.75197">
        <ele>168.80000305176</ele>
        <time>2014-10-24T09:25:54.000Z</time>
      </trkpt>
      <trkpt lat="48.68465" lon="1.75193">
        <ele>168.80000305176</ele>
        <time>2014-10-24T09:25:56.000Z</time>
      </trkpt>
      <trkpt lat="48.68463" lon="1.75184">
        <ele>168.80000305176</ele>
        <time>2014-10-24T09:26:01.000Z</time>
      </trkpt>
      <trkpt lat="48.68464" lon="1.7518">
        <ele>168.80000305176</ele>
        <time>2014-10-24T09:26:03.000Z</time>
      </trkpt>
      <trkpt lat="48.68462" lon="1.75166">
        <ele>169</ele>
        <time>2014-10-24T09:26:09.000Z</time>
      </trkpt>
      <trkpt lat="48.68463" lon="1.7516">
        <ele>169.19999694824</ele>
        <time>2014-10-24T09:26:12.000Z</time>
      </trkpt>
      <trkpt lat="48.68458" lon="1.75151">
        <ele>169.19999694824</ele>
        <time>2014-10-24T09:26:18.000Z</time>
      </trkpt>
      <trkpt lat="48.68456" lon="1.75149">
        <ele>169.19999694824</ele>
        <time>2014-10-24T09:26:20.000Z</time>
      </trkpt>
      <trkpt lat="48.68455" lon="1.75134">
        <ele>169</ele>
        <time>2014-10-24T09:26:27.000Z</time>
      </trkpt>
      <trkpt lat="48.68453" lon="1.75126">
        <ele>168.80000305176</ele>
        <time>2014-10-24T09:26:31.000Z</time>
      </trkpt>
      <trkpt lat="48.68453" lon="1.75115">
        <ele>168.80000305176</ele>
        <time>2014-10-24T09:26:37.000Z</time>
      </trkpt>
      <trkpt lat="48.6845" lon="1.75103">
        <ele>168.60000610352</ele>
        <time>2014-10-24T09:26:43.000Z</time>
      </trkpt>
      <trkpt lat="48.68446" lon="1.75092">
        <ele>168.39999389648</ele>
        <time>2014-10-24T09:26:47.000Z</time>
      </trkpt>
      <trkpt lat="48.68446" lon="1.75089">
        <ele>168.39999389648</ele>
        <time>2014-10-24T09:26:49.000Z</time>
      </trkpt>
      <trkpt lat="48.68448" lon="1.75086">
        <ele>168.39999389648</ele>
        <time>2014-10-24T09:26:51.000Z</time>
      </trkpt>
      <trkpt lat="48.68448" lon="1.75077">
        <ele>168.19999694824</ele>
        <time>2014-10-24T09:26:56.000Z</time>
      </trkpt>
      <trkpt lat="48.6845" lon="1.75069">
        <ele>168.39999389648</ele>
        <time>2014-10-24T09:27:00.000Z</time>
      </trkpt>
      <trkpt lat="48.68452" lon="1.7506">
        <ele>168.39999389648</ele>
        <time>2014-10-24T09:27:06.000Z</time>
      </trkpt>
      <trkpt lat="48.68451" lon="1.7505">
        <ele>168.39999389648</ele>
        <time>2014-10-24T09:27:11.000Z</time>
      </trkpt>
      <trkpt lat="48.68451" lon="1.75042">
        <ele>168.39999389648</ele>
        <time>2014-10-24T09:27:16.000Z</time>
      </trkpt>
      <trkpt lat="48.68448" lon="1.75036">
        <ele>168.19999694824</ele>
        <time>2014-10-24T09:27:20.000Z</time>
      </trkpt>
      <trkpt lat="48.68445" lon="1.75028">
        <ele>168.19999694824</ele>
        <time>2014-10-24T09:27:25.000Z</time>
      </trkpt>
      <trkpt lat="48.68444" lon="1.75022">
        <ele>168.19999694824</ele>
        <time>2014-10-24T09:27:28.000Z</time>
      </trkpt>
      <trkpt lat="48.68441" lon="1.75013">
        <ele>168.19999694824</ele>
        <time>2014-10-24T09:27:33.000Z</time>
      </trkpt>
      <trkpt lat="48.68438" lon="1.75003">
        <ele>168</ele>
        <time>2014-10-24T09:27:38.000Z</time>
      </trkpt>
      <trkpt lat="48.68438" lon="1.74993">
        <ele>168</ele>
        <time>2014-10-24T09:27:41.000Z</time>
      </trkpt>
      <trkpt lat="48.68435" lon="1.74981">
        <ele>167.80000305176</ele>
        <time>2014-10-24T09:27:46.000Z</time>
      </trkpt>
      <trkpt lat="48.68435" lon="1.74976">
        <ele>167.80000305176</ele>
        <time>2014-10-24T09:27:49.000Z</time>
      </trkpt>
      <trkpt lat="48.68433" lon="1.74964">
        <ele>167.60000610352</ele>
        <time>2014-10-24T09:27:55.000Z</time>
      </trkpt>
      <trkpt lat="48.68433" lon="1.74955">
        <ele>167.39999389648</ele>
        <time>2014-10-24T09:27:58.000Z</time>
      </trkpt>
      <trkpt lat="48.68433" lon="1.74937">
        <ele>167.19999694824</ele>
        <time>2014-10-24T09:28:05.000Z</time>
      </trkpt>
      <trkpt lat="48.68431" lon="1.74925">
        <ele>167</ele>
        <time>2014-10-24T09:28:11.000Z</time>
      </trkpt>
      <trkpt lat="48.68429" lon="1.74916">
        <ele>166.80000305176</ele>
        <time>2014-10-24T09:28:17.000Z</time>
      </trkpt>
      <trkpt lat="48.68426" lon="1.74904">
        <ele>166.60000610352</ele>
        <time>2014-10-24T09:28:22.000Z</time>
      </trkpt>
      <trkpt lat="48.68426" lon="1.74892">
        <ele>166</ele>
        <time>2014-10-24T09:28:28.000Z</time>
      </trkpt>
      <trkpt lat="48.68425" lon="1.74885">
        <ele>165.80000305176</ele>
        <time>2014-10-24T09:28:31.000Z</time>
      </trkpt>
      <trkpt lat="48.68423" lon="1.74873">
        <ele>165.39999389648</ele>
        <time>2014-10-24T09:28:37.000Z</time>
      </trkpt>
      <trkpt lat="48.68424" lon="1.74862">
        <ele>165.19999694824</ele>
        <time>2014-10-24T09:28:42.000Z</time>
      </trkpt>
      <trkpt lat="48.6842" lon="1.74848">
        <ele>164.60000610352</ele>
        <time>2014-10-24T09:28:54.000Z</time>
      </trkpt>
      <trkpt lat="48.68419" lon="1.74839">
        <ele>164.39999389648</ele>
        <time>2014-10-24T09:28:59.000Z</time>
      </trkpt>
      <trkpt lat="48.68415" lon="1.74824">
        <ele>163.80000305176</ele>
        <time>2014-10-24T09:29:07.000Z</time>
      </trkpt>
      <trkpt lat="48.68415" lon="1.74817">
        <ele>163.39999389648</ele>
        <time>2014-10-24T09:29:11.000Z</time>
      </trkpt>
      <trkpt lat="48.68415" lon="1.74809">
        <ele>163.19999694824</ele>
        <time>2014-10-24T09:29:15.000Z</time>
      </trkpt>
      <trkpt lat="48.68412" lon="1.74796">
        <ele>162.39999389648</ele>
        <time>2014-10-24T09:29:20.000Z</time>
      </trkpt>
      <trkpt lat="48.68411" lon="1.74788">
        <ele>162</ele>
        <time>2014-10-24T09:29:23.000Z</time>
      </trkpt>
      <trkpt lat="48.68411" lon="1.74784">
        <ele>162</ele>
        <time>2014-10-24T09:29:25.000Z</time>
      </trkpt>
      <trkpt lat="48.68409" lon="1.74773">
        <ele>161.60000610352</ele>
        <time>2014-10-24T09:29:32.000Z</time>
      </trkpt>
      <trkpt lat="48.68407" lon="1.74763">
        <ele>161.19999694824</ele>
        <time>2014-10-24T09:29:37.000Z</time>
      </trkpt>
      <trkpt lat="48.68408" lon="1.7475">
        <ele>160.80000305176</ele>
        <time>2014-10-24T09:29:43.000Z</time>
      </trkpt>
      <trkpt lat="48.68409" lon="1.74744">
        <ele>160.80000305176</ele>
        <time>2014-10-24T09:29:47.000Z</time>
      </trkpt>
      <trkpt lat="48.68408" lon="1.74733">
        <ele>160.39999389648</ele>
        <time>2014-10-24T09:29:51.000Z</time>
      </trkpt>
      <trkpt lat="48.68409" lon="1.74722">
        <ele>160.19999694824</ele>
        <time>2014-10-24T09:29:57.000Z</time>
      </trkpt>
      <trkpt lat="48.68408" lon="1.74716">
        <ele>159.80000305176</ele>
        <time>2014-10-24T09:30:01.000Z</time>
      </trkpt>
      <trkpt lat="48.6841" lon="1.74706">
        <ele>159.60000610352</ele>
        <time>2014-10-24T09:30:07.000Z</time>
      </trkpt>
      <trkpt lat="48.68409" lon="1.74695">
        <ele>159</ele>
        <time>2014-10-24T09:30:12.000Z</time>
      </trkpt>
      <trkpt lat="48.68406" lon="1.74681">
        <ele>158</ele>
        <time>2014-10-24T09:30:17.000Z</time>
      </trkpt>
      <trkpt lat="48.68409" lon="1.74673">
        <ele>158</ele>
        <time>2014-10-24T09:30:22.000Z</time>
      </trkpt>
      <trkpt lat="48.68409" lon="1.74661">
        <ele>157.39999389648</ele>
        <time>2014-10-24T09:30:27.000Z</time>
      </trkpt>
      <trkpt lat="48.68412" lon="1.74651">
        <ele>157.19999694824</ele>
        <time>2014-10-24T09:30:32.000Z</time>
      </trkpt>
      <trkpt lat="48.68413" lon="1.74648">
        <ele>157.39999389648</ele>
        <time>2014-10-24T09:30:38.000Z</time>
      </trkpt>
      <trkpt lat="48.68413" lon="1.74646">
        <ele>157.39999389648</ele>
        <time>2014-10-24T09:30:41.000Z</time>
      </trkpt>
      <trkpt lat="48.68409" lon="1.74634">
        <ele>157.19999694824</ele>
        <time>2014-10-24T09:31:04.000Z</time>
      </trkpt>
      <trkpt lat="48.68406" lon="1.74626">
        <ele>157.19999694824</ele>
        <time>2014-10-24T09:31:07.000Z</time>
      </trkpt>
      <trkpt lat="48.68404" lon="1.74616">
        <ele>156.80000305176</ele>
        <time>2014-10-24T09:31:12.000Z</time>
      </trkpt>
      <trkpt lat="48.684" lon="1.74615">
        <ele>156.60000610352</ele>
        <time>2014-10-24T09:31:15.000Z</time>
      </trkpt>
      <trkpt lat="48.68392" lon="1.74609">
        <ele>156.39999389648</ele>
        <time>2014-10-24T09:31:22.000Z</time>
      </trkpt>
      <trkpt lat="48.68387" lon="1.74608">
        <ele>156</ele>
        <time>2014-10-24T09:31:27.000Z</time>
      </trkpt>
      <trkpt lat="48.68384" lon="1.74604">
        <ele>155.80000305176</ele>
        <time>2014-10-24T09:31:31.000Z</time>
      </trkpt>
      <trkpt lat="48.68385" lon="1.74601">
        <ele>155.80000305176</ele>
        <time>2014-10-24T09:31:33.000Z</time>
      </trkpt>
      <trkpt lat="48.68379" lon="1.74594">
        <ele>155.39999389648</ele>
        <time>2014-10-24T09:31:37.000Z</time>
      </trkpt>
      <trkpt lat="48.6837" lon="1.74588">
        <ele>155</ele>
        <time>2014-10-24T09:31:44.000Z</time>
      </trkpt>
      <trkpt lat="48.68359" lon="1.74585">
        <ele>154.19999694824</ele>
        <time>2014-10-24T09:31:50.000Z</time>
      </trkpt>
      <trkpt lat="48.68355" lon="1.74576">
        <ele>154</ele>
        <time>2014-10-24T09:31:55.000Z</time>
      </trkpt>
      <trkpt lat="48.6835" lon="1.74568">
        <ele>154.39999389648</ele>
        <time>2014-10-24T09:32:01.000Z</time>
      </trkpt>
      <trkpt lat="48.68347" lon="1.74564">
        <ele>154.80000305176</ele>
        <time>2014-10-24T09:32:05.000Z</time>
      </trkpt>
      <trkpt lat="48.68346" lon="1.74561">
        <ele>155.19999694824</ele>
        <time>2014-10-24T09:32:07.000Z</time>
      </trkpt>
      <trkpt lat="48.68336" lon="1.7456">
        <ele>156</ele>
        <time>2014-10-24T09:32:13.000Z</time>
      </trkpt>
      <trkpt lat="48.68328" lon="1.74562">
        <ele>156.80000305176</ele>
        <time>2014-10-24T09:32:19.000Z</time>
      </trkpt>
      <trkpt lat="48.68325" lon="1.74559">
        <ele>157.39999389648</ele>
        <time>2014-10-24T09:32:21.000Z</time>
      </trkpt>
      <trkpt lat="48.68319" lon="1.74552">
        <ele>158.19999694824</ele>
        <time>2014-10-24T09:32:26.000Z</time>
      </trkpt>
      <trkpt lat="48.68314" lon="1.74543">
        <ele>158.80000305176</ele>
        <time>2014-10-24T09:32:31.000Z</time>
      </trkpt>
      <trkpt lat="48.68307" lon="1.74535">
        <ele>159.80000305176</ele>
        <time>2014-10-24T09:32:39.000Z</time>
      </trkpt>
      <trkpt lat="48.68303" lon="1.74531">
        <ele>160.39999389648</ele>
        <time>2014-10-24T09:32:42.000Z</time>
      </trkpt>
      <trkpt lat="48.68296" lon="1.74521">
        <ele>161.39999389648</ele>
        <time>2014-10-24T09:32:48.000Z</time>
      </trkpt>
      <trkpt lat="48.68296" lon="1.74504">
        <ele>162</ele>
        <time>2014-10-24T09:32:54.000Z</time>
      </trkpt>
      <trkpt lat="48.68297" lon="1.74496">
        <ele>162.19999694824</ele>
        <time>2014-10-24T09:32:57.000Z</time>
      </trkpt>
      <trkpt lat="48.68295" lon="1.74486">
        <ele>162.80000305176</ele>
        <time>2014-10-24T09:33:02.000Z</time>
      </trkpt>
      <trkpt lat="48.68293" lon="1.74474">
        <ele>162.80000305176</ele>
        <time>2014-10-24T09:33:07.000Z</time>
      </trkpt>
      <trkpt lat="48.68293" lon="1.74469">
        <ele>162.80000305176</ele>
        <time>2014-10-24T09:33:09.000Z</time>
      </trkpt>
      <trkpt lat="48.68294" lon="1.74464">
        <ele>162.80000305176</ele>
        <time>2014-10-24T09:33:11.000Z</time>
      </trkpt>
      <trkpt lat="48.68293" lon="1.74449">
        <ele>162.60000610352</ele>
        <time>2014-10-24T09:33:19.000Z</time>
      </trkpt>
      <trkpt lat="48.68294" lon="1.74447">
        <ele>162.60000610352</ele>
        <time>2014-10-24T09:33:20.000Z</time>
      </trkpt>
      <trkpt lat="48.68292" lon="1.74438">
        <ele>162.60000610352</ele>
        <time>2014-10-24T09:33:25.000Z</time>
      </trkpt>
      <trkpt lat="48.68289" lon="1.74432">
        <ele>162.80000305176</ele>
        <time>2014-10-24T09:33:29.000Z</time>
      </trkpt>
      <trkpt lat="48.68287" lon="1.74428">
        <ele>162.80000305176</ele>
        <time>2014-10-24T09:33:32.000Z</time>
      </trkpt>
      <trkpt lat="48.68285" lon="1.7442">
        <ele>163</ele>
        <time>2014-10-24T09:33:36.000Z</time>
      </trkpt>
      <trkpt lat="48.68285" lon="1.74411">
        <ele>163.19999694824</ele>
        <time>2014-10-24T09:33:41.000Z</time>
      </trkpt>
      <trkpt lat="48.68284" lon="1.74402">
        <ele>163.39999389648</ele>
        <time>2014-10-24T09:33:46.000Z</time>
      </trkpt>
      <trkpt lat="48.68281" lon="1.74398">
        <ele>163.60000610352</ele>
        <time>2014-10-24T09:33:50.000Z</time>
      </trkpt>
      <trkpt lat="48.6828" lon="1.74397">
        <ele>163.60000610352</ele>
        <time>2014-10-24T09:33:51.000Z</time>
      </trkpt>
      <trkpt lat="48.68277" lon="1.74388">
        <ele>163.80000305176</ele>
        <time>2014-10-24T09:33:55.000Z</time>
      </trkpt>
      <trkpt lat="48.68278" lon="1.74371">
        <ele>163.60000610352</ele>
        <time>2014-10-24T09:34:03.000Z</time>
      </trkpt>
      <trkpt lat="48.68279" lon="1.74365">
        <ele>163.60000610352</ele>
        <time>2014-10-24T09:34:07.000Z</time>
      </trkpt>
      <trkpt lat="48.68279" lon="1.74362">
        <ele>163.60000610352</ele>
        <time>2014-10-24T09:34:08.000Z</time>
      </trkpt>
      <trkpt lat="48.68274" lon="1.74343">
        <ele>163.80000305176</ele>
        <time>2014-10-24T09:34:17.000Z</time>
      </trkpt>
      <trkpt lat="48.68275" lon="1.74336">
        <ele>163.80000305176</ele>
        <time>2014-10-24T09:34:20.000Z</time>
      </trkpt>
      <trkpt lat="48.6827" lon="1.7432">
        <ele>164</ele>
        <time>2014-10-24T09:34:26.000Z</time>
      </trkpt>
      <trkpt lat="48.68268" lon="1.74314">
        <ele>163.80000305176</ele>
        <time>2014-10-24T09:34:29.000Z</time>
      </trkpt>
      <trkpt lat="48.68267" lon="1.74304">
        <ele>163.80000305176</ele>
        <time>2014-10-24T09:34:34.000Z</time>
      </trkpt>
      <trkpt lat="48.68264" lon="1.7429">
        <ele>163.60000610352</ele>
        <time>2014-10-24T09:34:41.000Z</time>
      </trkpt>
      <trkpt lat="48.68266" lon="1.74284">
        <ele>163.39999389648</ele>
        <time>2014-10-24T09:34:45.000Z</time>
      </trkpt>
      <trkpt lat="48.68263" lon="1.74274">
        <ele>163.19999694824</ele>
        <time>2014-10-24T09:34:51.000Z</time>
      </trkpt>
      <trkpt lat="48.68263" lon="1.74265">
        <ele>163</ele>
        <time>2014-10-24T09:34:56.000Z</time>
      </trkpt>
      <trkpt lat="48.68259" lon="1.74257">
        <ele>163</ele>
        <time>2014-10-24T09:35:01.000Z</time>
      </trkpt>
      <trkpt lat="48.68257" lon="1.74247">
        <ele>162.80000305176</ele>
        <time>2014-10-24T09:35:07.000Z</time>
      </trkpt>
      <trkpt lat="48.68256" lon="1.7424">
        <ele>162.80000305176</ele>
        <time>2014-10-24T09:35:11.000Z</time>
      </trkpt>
      <trkpt lat="48.68252" lon="1.74229">
        <ele>162.80000305176</ele>
        <time>2014-10-24T09:35:15.000Z</time>
      </trkpt>
      <trkpt lat="48.68253" lon="1.74218">
        <ele>162.80000305176</ele>
        <time>2014-10-24T09:35:20.000Z</time>
      </trkpt>
      <trkpt lat="48.68249" lon="1.74203">
        <ele>163</ele>
        <time>2014-10-24T09:35:26.000Z</time>
      </trkpt>
      <trkpt lat="48.68245" lon="1.74192">
        <ele>163.19999694824</ele>
        <time>2014-10-24T09:35:32.000Z</time>
      </trkpt>
      <trkpt lat="48.68244" lon="1.74188">
        <ele>163.19999694824</ele>
        <time>2014-10-24T09:35:37.000Z</time>
      </trkpt>
      <trkpt lat="48.68244" lon="1.7418">
        <ele>163.19999694824</ele>
        <time>2014-10-24T09:35:41.000Z</time>
      </trkpt>
      <trkpt lat="48.68242" lon="1.74164">
        <ele>163.39999389648</ele>
        <time>2014-10-24T09:35:46.000Z</time>
      </trkpt>
      <trkpt lat="48.68238" lon="1.74141">
        <ele>163.60000610352</ele>
        <time>2014-10-24T09:35:51.000Z</time>
      </trkpt>
      <trkpt lat="48.68228" lon="1.74112">
        <ele>164</ele>
        <time>2014-10-24T09:35:57.000Z</time>
      </trkpt>
      <trkpt lat="48.68227" lon="1.74096">
        <ele>164.39999389648</ele>
        <time>2014-10-24T09:36:02.000Z</time>
      </trkpt>
      <trkpt lat="48.68226" lon="1.74078">
        <ele>164.80000305176</ele>
        <time>2014-10-24T09:36:07.000Z</time>
      </trkpt>
      <trkpt lat="48.68223" lon="1.74059">
        <ele>165.19999694824</ele>
        <time>2014-10-24T09:36:11.000Z</time>
      </trkpt>
      <trkpt lat="48.68218" lon="1.74036">
        <ele>165.60000610352</ele>
        <time>2014-10-24T09:36:16.000Z</time>
      </trkpt>
      <trkpt lat="48.68212" lon="1.74015">
        <ele>166</ele>
        <time>2014-10-24T09:36:21.000Z</time>
      </trkpt>
      <trkpt lat="48.68207" lon="1.73988">
        <ele>166.60000610352</ele>
        <time>2014-10-24T09:36:27.000Z</time>
      </trkpt>
      <trkpt lat="48.68207" lon="1.73973">
        <ele>166.39999389648</ele>
        <time>2014-10-24T09:36:31.000Z</time>
      </trkpt>
      <trkpt lat="48.68199" lon="1.73952">
        <ele>166.60000610352</ele>
        <time>2014-10-24T09:36:36.000Z</time>
      </trkpt>
      <trkpt lat="48.68191" lon="1.73937">
        <ele>166.80000305176</ele>
        <time>2014-10-24T09:36:41.000Z</time>
      </trkpt>
      <trkpt lat="48.68179" lon="1.7392">
        <ele>167.39999389648</ele>
        <time>2014-10-24T09:36:47.000Z</time>
      </trkpt>
      <trkpt lat="48.68167" lon="1.73902">
        <ele>168</ele>
        <time>2014-10-24T09:36:52.000Z</time>
      </trkpt>
      <trkpt lat="48.68159" lon="1.7389">
        <ele>168.39999389648</ele>
        <time>2014-10-24T09:36:56.000Z</time>
      </trkpt>
      <trkpt lat="48.68148" lon="1.73873">
        <ele>168.80000305176</ele>
        <time>2014-10-24T09:37:01.000Z</time>
      </trkpt>
      <trkpt lat="48.68137" lon="1.73855">
        <ele>169.39999389648</ele>
        <time>2014-10-24T09:37:06.000Z</time>
      </trkpt>
      <trkpt lat="48.68122" lon="1.73832">
        <ele>170.19999694824</ele>
        <time>2014-10-24T09:37:13.000Z</time>
      </trkpt>
      <trkpt lat="48.68111" lon="1.73815">
        <ele>170.80000305176</ele>
        <time>2014-10-24T09:37:18.000Z</time>
      </trkpt>
      <trkpt lat="48.68098" lon="1.73797">
        <ele>171.60000610352</ele>
        <time>2014-10-24T09:37:23.000Z</time>
      </trkpt>
      <trkpt lat="48.68086" lon="1.73781">
        <ele>172.39999389648</ele>
        <time>2014-10-24T09:37:28.000Z</time>
      </trkpt>
      <trkpt lat="48.68073" lon="1.7376">
        <ele>173.60000610352</ele>
        <time>2014-10-24T09:37:34.000Z</time>
      </trkpt>
      <trkpt lat="48.68059" lon="1.7374">
        <ele>174.60000610352</ele>
        <time>2014-10-24T09:37:40.000Z</time>
      </trkpt>
      <trkpt lat="48.68042" lon="1.73717">
        <ele>175.60000610352</ele>
        <time>2014-10-24T09:37:47.000Z</time>
      </trkpt>
      <trkpt lat="48.68029" lon="1.737">
        <ele>176.39999389648</ele>
        <time>2014-10-24T09:37:53.000Z</time>
      </trkpt>
      <trkpt lat="48.68024" lon="1.73698">
        <ele>176.80000305176</ele>
        <time>2014-10-24T09:37:55.000Z</time>
      </trkpt>
      <trkpt lat="48.68008" lon="1.73676">
        <ele>177.39999389648</ele>
        <time>2014-10-24T09:38:01.000Z</time>
      </trkpt>
      <trkpt lat="48.67992" lon="1.73651">
        <ele>178</ele>
        <time>2014-10-24T09:38:08.000Z</time>
      </trkpt>
      <trkpt lat="48.67977" lon="1.7363">
        <ele>178.19999694824</ele>
        <time>2014-10-24T09:38:14.000Z</time>
      </trkpt>
      <trkpt lat="48.67966" lon="1.73615">
        <ele>178.39999389648</ele>
        <time>2014-10-24T09:38:19.000Z</time>
      </trkpt>
      <trkpt lat="48.67955" lon="1.73599">
        <ele>178.60000610352</ele>
        <time>2014-10-24T09:38:24.000Z</time>
      </trkpt>
      <trkpt lat="48.67941" lon="1.73579">
        <ele>179</ele>
        <time>2014-10-24T09:38:30.000Z</time>
      </trkpt>
      <trkpt lat="48.67932" lon="1.73564">
        <ele>179</ele>
        <time>2014-10-24T09:38:34.000Z</time>
      </trkpt>
      <trkpt lat="48.67921" lon="1.73548">
        <ele>179.19999694824</ele>
        <time>2014-10-24T09:38:39.000Z</time>
      </trkpt>
      <trkpt lat="48.67911" lon="1.73531">
        <ele>179.39999389648</ele>
        <time>2014-10-24T09:38:44.000Z</time>
      </trkpt>
      <trkpt lat="48.67902" lon="1.73516">
        <ele>179.60000610352</ele>
        <time>2014-10-24T09:38:48.000Z</time>
      </trkpt>
      <trkpt lat="48.67893" lon="1.73502">
        <ele>179.80000305176</ele>
        <time>2014-10-24T09:38:53.000Z</time>
      </trkpt>
      <trkpt lat="48.67879" lon="1.73481">
        <ele>180</ele>
        <time>2014-10-24T09:39:00.000Z</time>
      </trkpt>
      <trkpt lat="48.67873" lon="1.73475">
        <ele>180</ele>
        <time>2014-10-24T09:39:03.000Z</time>
      </trkpt>
      <trkpt lat="48.67868" lon="1.7347">
        <ele>180</ele>
        <time>2014-10-24T09:39:07.000Z</time>
      </trkpt>
      <trkpt lat="48.67862" lon="1.73463">
        <ele>180</ele>
        <time>2014-10-24T09:39:12.000Z</time>
      </trkpt>
      <trkpt lat="48.67857" lon="1.7346">
        <ele>180.19999694824</ele>
        <time>2014-10-24T09:39:19.000Z</time>
      </trkpt>
      <trkpt lat="48.6785" lon="1.73451">
        <ele>180.19999694824</ele>
        <time>2014-10-24T09:39:25.000Z</time>
      </trkpt>
      <trkpt lat="48.67847" lon="1.73447">
        <ele>180.19999694824</ele>
        <time>2014-10-24T09:39:27.000Z</time>
      </trkpt>
      <trkpt lat="48.67835" lon="1.73439">
        <ele>180.60000610352</ele>
        <time>2014-10-24T09:39:35.000Z</time>
      </trkpt>
      <trkpt lat="48.67828" lon="1.73432">
        <ele>180.60000610352</ele>
        <time>2014-10-24T09:39:41.000Z</time>
      </trkpt>
      <trkpt lat="48.67825" lon="1.73431">
        <ele>180.60000610352</ele>
        <time>2014-10-24T09:39:44.000Z</time>
      </trkpt>
      <trkpt lat="48.67816" lon="1.73424">
        <ele>180.80000305176</ele>
        <time>2014-10-24T09:39:50.000Z</time>
      </trkpt>
      <trkpt lat="48.67806" lon="1.73414">
        <ele>181</ele>
        <time>2014-10-24T09:39:58.000Z</time>
      </trkpt>
      <trkpt lat="48.67802" lon="1.73407">
        <ele>181</ele>
        <time>2014-10-24T09:40:02.000Z</time>
      </trkpt>
      <trkpt lat="48.67799" lon="1.73402">
        <ele>180.80000305176</ele>
        <time>2014-10-24T09:40:06.000Z</time>
      </trkpt>
      <trkpt lat="48.67793" lon="1.73398">
        <ele>180.80000305176</ele>
        <time>2014-10-24T09:40:11.000Z</time>
      </trkpt>
      <trkpt lat="48.67786" lon="1.73393">
        <ele>181</ele>
        <time>2014-10-24T09:40:17.000Z</time>
      </trkpt>
      <trkpt lat="48.6778" lon="1.7339">
        <ele>181</ele>
        <time>2014-10-24T09:40:21.000Z</time>
      </trkpt>
      <trkpt lat="48.67774" lon="1.73387">
        <ele>181</ele>
        <time>2014-10-24T09:40:25.000Z</time>
      </trkpt>
      <trkpt lat="48.67766" lon="1.73377">
        <ele>180.60000610352</ele>
        <time>2014-10-24T09:40:33.000Z</time>
      </trkpt>
      <trkpt lat="48.67758" lon="1.73371">
        <ele>180</ele>
        <time>2014-10-24T09:40:41.000Z</time>
      </trkpt>
      <trkpt lat="48.67749" lon="1.73362">
        <ele>179.19999694824</ele>
        <time>2014-10-24T09:40:49.000Z</time>
      </trkpt>
      <trkpt lat="48.67741" lon="1.73355">
        <ele>178.60000610352</ele>
        <time>2014-10-24T09:40:56.000Z</time>
      </trkpt>
      <trkpt lat="48.67736" lon="1.73355">
        <ele>178.39999389648</ele>
        <time>2014-10-24T09:41:01.000Z</time>
      </trkpt>
      <trkpt lat="48.6773" lon="1.73351">
        <ele>178</ele>
        <time>2014-10-24T09:41:06.000Z</time>
      </trkpt>
      <trkpt lat="48.67729" lon="1.73343">
        <ele>177.60000610352</ele>
        <time>2014-10-24T09:41:13.000Z</time>
      </trkpt>
      <trkpt lat="48.67737" lon="1.73333">
        <ele>177.39999389648</ele>
        <time>2014-10-24T09:41:35.000Z</time>
      </trkpt>
      <trkpt lat="48.67737" lon="1.73333">
        <ele>177.39999389648</ele>
        <time>2014-10-24T09:41:36.000Z</time>
      </trkpt>
      <trkpt lat="48.67747" lon="1.73335">
        <ele>177.80000305176</ele>
        <time>2014-10-24T09:41:53.000Z</time>
      </trkpt>
      <trkpt lat="48.67755" lon="1.73334">
        <ele>178</ele>
        <time>2014-10-24T09:41:57.000Z</time>
      </trkpt>
      <trkpt lat="48.67764" lon="1.73335">
        <ele>178.39999389648</ele>
        <time>2014-10-24T09:42:05.000Z</time>
      </trkpt>
      <trkpt lat="48.67772" lon="1.7333">
        <ele>178.39999389648</ele>
        <time>2014-10-24T09:42:14.000Z</time>
      </trkpt>
      <trkpt lat="48.67776" lon="1.73338">
        <ele>178.60000610352</ele>
        <time>2014-10-24T09:42:25.000Z</time>
      </trkpt>
      <trkpt lat="48.67775" lon="1.7334">
        <ele>178.80000305176</ele>
        <time>2014-10-24T09:42:29.000Z</time>
      </trkpt>
      <trkpt lat="48.6777" lon="1.73343">
        <ele>179</ele>
        <time>2014-10-24T09:42:35.000Z</time>
      </trkpt>
      <trkpt lat="48.67757" lon="1.73353">
        <ele>179</ele>
        <time>2014-10-24T09:42:41.000Z</time>
      </trkpt>
      <trkpt lat="48.67751" lon="1.73367">
        <ele>179.60000610352</ele>
        <time>2014-10-24T09:42:49.000Z</time>
      </trkpt>
      <trkpt lat="48.67747" lon="1.73382">
        <ele>180.19999694824</ele>
        <time>2014-10-24T09:42:57.000Z</time>
      </trkpt>
      <trkpt lat="48.67749" lon="1.73397">
        <ele>181</ele>
        <time>2014-10-24T09:43:04.000Z</time>
      </trkpt>
      <trkpt lat="48.67749" lon="1.73412">
        <ele>181.39999389648</ele>
        <time>2014-10-24T09:43:11.000Z</time>
      </trkpt>
      <trkpt lat="48.67746" lon="1.73423">
        <ele>181.39999389648</ele>
        <time>2014-10-24T09:43:16.000Z</time>
      </trkpt>
      <trkpt lat="48.67745" lon="1.73439">
        <ele>181.60000610352</ele>
        <time>2014-10-24T09:43:24.000Z</time>
      </trkpt>
      <trkpt lat="48.67745" lon="1.73441">
        <ele>181.60000610352</ele>
        <time>2014-10-24T09:43:25.000Z</time>
      </trkpt>
      <trkpt lat="48.67743" lon="1.73448">
        <ele>181.60000610352</ele>
        <time>2014-10-24T09:43:33.000Z</time>
      </trkpt>
      <trkpt lat="48.67742" lon="1.73447">
        <ele>181.60000610352</ele>
        <time>2014-10-24T09:43:35.000Z</time>
      </trkpt>
      <trkpt lat="48.67742" lon="1.73447">
        <ele>181.60000610352</ele>
        <time>2014-10-24T09:43:43.000Z</time>
      </trkpt>
      <trkpt lat="48.67743" lon="1.73446">
        <ele>181.60000610352</ele>
        <time>2014-10-24T09:43:44.000Z</time>
      </trkpt>
      <trkpt lat="48.6775" lon="1.73436">
        <ele>181.60000610352</ele>
        <time>2014-10-24T09:43:48.000Z</time>
      </trkpt>
      <trkpt lat="48.67763" lon="1.73426">
        <ele>182</ele>
        <time>2014-10-24T09:43:53.000Z</time>
      </trkpt>
      <trkpt lat="48.67771" lon="1.7342">
        <ele>182.19999694824</ele>
        <time>2014-10-24T09:43:58.000Z</time>
      </trkpt>
      <trkpt lat="48.6778" lon="1.7341">
        <ele>181.80000305176</ele>
        <time>2014-10-24T09:44:04.000Z</time>
      </trkpt>
      <trkpt lat="48.67782" lon="1.73406">
        <ele>181.60000610352</ele>
        <time>2014-10-24T09:44:06.000Z</time>
      </trkpt>
      <trkpt lat="48.6779" lon="1.73398">
        <ele>181</ele>
        <time>2014-10-24T09:44:12.000Z</time>
      </trkpt>
      <trkpt lat="48.67797" lon="1.73391">
        <ele>180.39999389648</ele>
        <time>2014-10-24T09:44:18.000Z</time>
      </trkpt>
      <trkpt lat="48.67807" lon="1.73379">
        <ele>179.39999389648</ele>
        <time>2014-10-24T09:44:26.000Z</time>
      </trkpt>
      <trkpt lat="48.67818" lon="1.73369">
        <ele>178.60000610352</ele>
        <time>2014-10-24T09:44:34.000Z</time>
      </trkpt>
      <trkpt lat="48.67833" lon="1.7336">
        <ele>178.39999389648</ele>
        <time>2014-10-24T09:44:44.000Z</time>
      </trkpt>
      <trkpt lat="48.67847" lon="1.7335">
        <ele>178.39999389648</ele>
        <time>2014-10-24T09:44:53.000Z</time>
      </trkpt>
      <trkpt lat="48.67862" lon="1.73338">
        <ele>177.80000305176</ele>
        <time>2014-10-24T09:45:03.000Z</time>
      </trkpt>
      <trkpt lat="48.67875" lon="1.73327">
        <ele>177.60000610352</ele>
        <time>2014-10-24T09:45:10.000Z</time>
      </trkpt>
      <trkpt lat="48.67884" lon="1.73322">
        <ele>177.60000610352</ele>
        <time>2014-10-24T09:45:16.000Z</time>
      </trkpt>
      <trkpt lat="48.67893" lon="1.73315">
        <ele>177.60000610352</ele>
        <time>2014-10-24T09:45:22.000Z</time>
      </trkpt>
      <trkpt lat="48.67901" lon="1.73307">
        <ele>177.60000610352</ele>
        <time>2014-10-24T09:45:28.000Z</time>
      </trkpt>
      <trkpt lat="48.67909" lon="1.73298">
        <ele>177.60000610352</ele>
        <time>2014-10-24T09:45:34.000Z</time>
      </trkpt>
      <trkpt lat="48.67911" lon="1.73297">
        <ele>177.60000610352</ele>
        <time>2014-10-24T09:45:35.000Z</time>
      </trkpt>
      <trkpt lat="48.6792" lon="1.7329">
        <ele>177.60000610352</ele>
        <time>2014-10-24T09:45:39.000Z</time>
      </trkpt>
      <trkpt lat="48.67936" lon="1.73277">
        <ele>177.60000610352</ele>
        <time>2014-10-24T09:45:46.000Z</time>
      </trkpt>
      <trkpt lat="48.67956" lon="1.73263">
        <ele>177.39999389648</ele>
        <time>2014-10-24T09:45:53.000Z</time>
      </trkpt>
      <trkpt lat="48.67972" lon="1.73247">
        <ele>177.80000305176</ele>
        <time>2014-10-24T09:46:00.000Z</time>
      </trkpt>
      <trkpt lat="48.67991" lon="1.73231">
        <ele>178</ele>
        <time>2014-10-24T09:46:07.000Z</time>
      </trkpt>
      <trkpt lat="48.68009" lon="1.73218">
        <ele>178</ele>
        <time>2014-10-24T09:46:13.000Z</time>
      </trkpt>
      <trkpt lat="48.68031" lon="1.73195">
        <ele>177.39999389648</ele>
        <time>2014-10-24T09:46:21.000Z</time>
      </trkpt>
      <trkpt lat="48.68039" lon="1.73185">
        <ele>177.39999389648</ele>
        <time>2014-10-24T09:46:26.000Z</time>
      </trkpt>
      <trkpt lat="48.6805" lon="1.73177">
        <ele>177</ele>
        <time>2014-10-24T09:46:32.000Z</time>
      </trkpt>
      <trkpt lat="48.68062" lon="1.73169">
        <ele>176.19999694824</ele>
        <time>2014-10-24T09:46:38.000Z</time>
      </trkpt>
      <trkpt lat="48.68078" lon="1.73156">
        <ele>175</ele>
        <time>2014-10-24T09:46:45.000Z</time>
      </trkpt>
      <trkpt lat="48.68091" lon="1.73144">
        <ele>174.39999389648</ele>
        <time>2014-10-24T09:46:50.000Z</time>
      </trkpt>
      <trkpt lat="48.68107" lon="1.7313">
        <ele>174</ele>
        <time>2014-10-24T09:46:56.000Z</time>
      </trkpt>
      <trkpt lat="48.6813" lon="1.7311">
        <ele>174</ele>
        <time>2014-10-24T09:47:04.000Z</time>
      </trkpt>
      <trkpt lat="48.68148" lon="1.73092">
        <ele>174</ele>
        <time>2014-10-24T09:47:11.000Z</time>
      </trkpt>
      <trkpt lat="48.68165" lon="1.73079">
        <ele>174</ele>
        <time>2014-10-24T09:47:17.000Z</time>
      </trkpt>
      <trkpt lat="48.68181" lon="1.73066">
        <ele>174</ele>
        <time>2014-10-24T09:47:24.000Z</time>
      </trkpt>
      <trkpt lat="48.68204" lon="1.73046">
        <ele>174.60000610352</ele>
        <time>2014-10-24T09:47:32.000Z</time>
      </trkpt>
      <trkpt lat="48.68223" lon="1.73029">
        <ele>175</ele>
        <time>2014-10-24T09:47:38.000Z</time>
      </trkpt>
      <trkpt lat="48.68242" lon="1.73012">
        <ele>174.19999694824</ele>
        <time>2014-10-24T09:47:44.000Z</time>
      </trkpt>
      <trkpt lat="48.68269" lon="1.72991">
        <ele>173.19999694824</ele>
        <time>2014-10-24T09:47:52.000Z</time>
      </trkpt>
      <trkpt lat="48.68295" lon="1.72971">
        <ele>173.39999389648</ele>
        <time>2014-10-24T09:48:00.000Z</time>
      </trkpt>
      <trkpt lat="48.68318" lon="1.72951">
        <ele>173.80000305176</ele>
        <time>2014-10-24T09:48:07.000Z</time>
      </trkpt>
      <trkpt lat="48.68338" lon="1.72934">
        <ele>174.80000305176</ele>
        <time>2014-10-24T09:48:13.000Z</time>
      </trkpt>
      <trkpt lat="48.68356" lon="1.72917">
        <ele>175.39999389648</ele>
        <time>2014-10-24T09:48:20.000Z</time>
      </trkpt>
      <trkpt lat="48.68374" lon="1.72902">
        <ele>175.39999389648</ele>
        <time>2014-10-24T09:48:26.000Z</time>
      </trkpt>
      <trkpt lat="48.68392" lon="1.72886">
        <ele>174.60000610352</ele>
        <time>2014-10-24T09:48:32.000Z</time>
      </trkpt>
      <trkpt lat="48.68409" lon="1.72875">
        <ele>174</ele>
        <time>2014-10-24T09:48:37.000Z</time>
      </trkpt>
      <trkpt lat="48.68427" lon="1.72855">
        <ele>174</ele>
        <time>2014-10-24T09:48:43.000Z</time>
      </trkpt>
      <trkpt lat="48.68452" lon="1.7283">
        <ele>173.60000610352</ele>
        <time>2014-10-24T09:48:51.000Z</time>
      </trkpt>
      <trkpt lat="48.68469" lon="1.72811">
        <ele>174.19999694824</ele>
        <time>2014-10-24T09:48:57.000Z</time>
      </trkpt>
      <trkpt lat="48.68482" lon="1.72804">
        <ele>174.39999389648</ele>
        <time>2014-10-24T09:49:02.000Z</time>
      </trkpt>
      <trkpt lat="48.68493" lon="1.72796">
        <ele>174.60000610352</ele>
        <time>2014-10-24T09:49:08.000Z</time>
      </trkpt>
      <trkpt lat="48.68501" lon="1.72791">
        <ele>174.39999389648</ele>
        <time>2014-10-24T09:49:15.000Z</time>
      </trkpt>
      <trkpt lat="48.68504" lon="1.72784">
        <ele>174.39999389648</ele>
        <time>2014-10-24T09:49:19.000Z</time>
      </trkpt>
      <trkpt lat="48.68512" lon="1.72776">
        <ele>174.19999694824</ele>
        <time>2014-10-24T09:49:26.000Z</time>
      </trkpt>
      <trkpt lat="48.68515" lon="1.72774">
        <ele>174.19999694824</ele>
        <time>2014-10-24T09:49:28.000Z</time>
      </trkpt>
      <trkpt lat="48.68517" lon="1.72769">
        <ele>174</ele>
        <time>2014-10-24T09:49:31.000Z</time>
      </trkpt>
      <trkpt lat="48.68525" lon="1.72762">
        <ele>173.80000305176</ele>
        <time>2014-10-24T09:49:37.000Z</time>
      </trkpt>
      <trkpt lat="48.68531" lon="1.72761">
        <ele>173.80000305176</ele>
        <time>2014-10-24T09:49:41.000Z</time>
      </trkpt>
      <trkpt lat="48.68532" lon="1.7276">
        <ele>173.80000305176</ele>
        <time>2014-10-24T09:49:42.000Z</time>
      </trkpt>
      <trkpt lat="48.68542" lon="1.72757">
        <ele>173.39999389648</ele>
        <time>2014-10-24T09:49:48.000Z</time>
      </trkpt>
      <trkpt lat="48.68545" lon="1.72756">
        <ele>173.39999389648</ele>
        <time>2014-10-24T09:49:50.000Z</time>
      </trkpt>
      <trkpt lat="48.68553" lon="1.72746">
        <ele>173.39999389648</ele>
        <time>2014-10-24T09:49:57.000Z</time>
      </trkpt>
      <trkpt lat="48.68555" lon="1.72742">
        <ele>173.60000610352</ele>
        <time>2014-10-24T09:50:02.000Z</time>
      </trkpt>
      <trkpt lat="48.68562" lon="1.72734">
        <ele>173.60000610352</ele>
        <time>2014-10-24T09:50:08.000Z</time>
      </trkpt>
      <trkpt lat="48.68564" lon="1.72731">
        <ele>173.60000610352</ele>
        <time>2014-10-24T09:50:10.000Z</time>
      </trkpt>
      <trkpt lat="48.68575" lon="1.72721">
        <ele>173.60000610352</ele>
        <time>2014-10-24T09:50:18.000Z</time>
      </trkpt>
      <trkpt lat="48.68584" lon="1.72713">
        <ele>173.39999389648</ele>
        <time>2014-10-24T09:50:25.000Z</time>
      </trkpt>
      <trkpt lat="48.68592" lon="1.72705">
        <ele>173.19999694824</ele>
        <time>2014-10-24T09:50:32.000Z</time>
      </trkpt>
      <trkpt lat="48.68598" lon="1.72698">
        <ele>173.19999694824</ele>
        <time>2014-10-24T09:50:37.000Z</time>
      </trkpt>
      <trkpt lat="48.68609" lon="1.72693">
        <ele>173</ele>
        <time>2014-10-24T09:50:44.000Z</time>
      </trkpt>
      <trkpt lat="48.68609" lon="1.72693">
        <ele>173</ele>
        <time>2014-10-24T09:50:45.000Z</time>
      </trkpt>
      <trkpt lat="48.68614" lon="1.72689">
        <ele>172.80000305176</ele>
        <time>2014-10-24T09:50:52.000Z</time>
      </trkpt>
      <trkpt lat="48.68615" lon="1.72689">
        <ele>172.80000305176</ele>
        <time>2014-10-24T09:50:53.000Z</time>
      </trkpt>
      <trkpt lat="48.68622" lon="1.72684">
        <ele>172.80000305176</ele>
        <time>2014-10-24T09:50:57.000Z</time>
      </trkpt>
      <trkpt lat="48.68627" lon="1.72684">
        <ele>172.80000305176</ele>
        <time>2014-10-24T09:51:03.000Z</time>
      </trkpt>
      <trkpt lat="48.68627" lon="1.72686">
        <ele>172.80000305176</ele>
        <time>2014-10-24T09:51:06.000Z</time>
      </trkpt>
      <trkpt lat="48.68629" lon="1.72679">
        <ele>172.60000610352</ele>
        <time>2014-10-24T09:51:16.000Z</time>
      </trkpt>
      <trkpt lat="48.68642" lon="1.72667">
        <ele>172.60000610352</ele>
        <time>2014-10-24T09:51:23.000Z</time>
      </trkpt>
      <trkpt lat="48.6865" lon="1.72663">
        <ele>172.39999389648</ele>
        <time>2014-10-24T09:51:29.000Z</time>
      </trkpt>
      <trkpt lat="48.68652" lon="1.72659">
        <ele>172.39999389648</ele>
        <time>2014-10-24T09:51:31.000Z</time>
      </trkpt>
      <trkpt lat="48.68659" lon="1.72655">
        <ele>172.39999389648</ele>
        <time>2014-10-24T09:51:36.000Z</time>
      </trkpt>
      <trkpt lat="48.68667" lon="1.72652">
        <ele>172.19999694824</ele>
        <time>2014-10-24T09:51:42.000Z</time>
      </trkpt>
      <trkpt lat="48.68672" lon="1.72646">
        <ele>172.19999694824</ele>
        <time>2014-10-24T09:51:46.000Z</time>
      </trkpt>
      <trkpt lat="48.68676" lon="1.72643">
        <ele>172.19999694824</ele>
        <time>2014-10-24T09:51:49.000Z</time>
      </trkpt>
      <trkpt lat="48.6868" lon="1.7264">
        <ele>172.39999389648</ele>
        <time>2014-10-24T09:51:52.000Z</time>
      </trkpt>
      <trkpt lat="48.68685" lon="1.72636">
        <ele>172.39999389648</ele>
        <time>2014-10-24T09:51:56.000Z</time>
      </trkpt>
      <trkpt lat="48.68696" lon="1.72628">
        <ele>172.39999389648</ele>
        <time>2014-10-24T09:52:04.000Z</time>
      </trkpt>
      <trkpt lat="48.68705" lon="1.72621">
        <ele>172.60000610352</ele>
        <time>2014-10-24T09:52:10.000Z</time>
      </trkpt>
      <trkpt lat="48.6871" lon="1.72613">
        <ele>172.80000305176</ele>
        <time>2014-10-24T09:52:15.000Z</time>
      </trkpt>
      <trkpt lat="48.68713" lon="1.72609">
        <ele>172.80000305176</ele>
        <time>2014-10-24T09:52:18.000Z</time>
      </trkpt>
      <trkpt lat="48.68722" lon="1.72602">
        <ele>172.80000305176</ele>
        <time>2014-10-24T09:52:24.000Z</time>
      </trkpt>
      <trkpt lat="48.68724" lon="1.72601">
        <ele>172.80000305176</ele>
        <time>2014-10-24T09:52:25.000Z</time>
      </trkpt>
      <trkpt lat="48.68733" lon="1.72591">
        <ele>173</ele>
        <time>2014-10-24T09:52:32.000Z</time>
      </trkpt>
      <trkpt lat="48.68737" lon="1.7259">
        <ele>173</ele>
        <time>2014-10-24T09:52:34.000Z</time>
      </trkpt>
      <trkpt lat="48.68742" lon="1.72585">
        <ele>173</ele>
        <time>2014-10-24T09:52:38.000Z</time>
      </trkpt>
      <trkpt lat="48.68753" lon="1.72578">
        <ele>173</ele>
        <time>2014-10-24T09:52:45.000Z</time>
      </trkpt>
      <trkpt lat="48.6876" lon="1.7257">
        <ele>173.19999694824</ele>
        <time>2014-10-24T09:52:51.000Z</time>
      </trkpt>
      <trkpt lat="48.68765" lon="1.72567">
        <ele>173.19999694824</ele>
        <time>2014-10-24T09:52:56.000Z</time>
      </trkpt>
      <trkpt lat="48.68769" lon="1.72565">
        <ele>173</ele>
        <time>2014-10-24T09:52:58.000Z</time>
      </trkpt>
      <trkpt lat="48.68777" lon="1.72553">
        <ele>172.80000305176</ele>
        <time>2014-10-24T09:53:06.000Z</time>
      </trkpt>
      <trkpt lat="48.68785" lon="1.72544">
        <ele>172.39999389648</ele>
        <time>2014-10-24T09:53:13.000Z</time>
      </trkpt>
      <trkpt lat="48.68787" lon="1.72543">
        <ele>172.19999694824</ele>
        <time>2014-10-24T09:53:15.000Z</time>
      </trkpt>
      <trkpt lat="48.68791" lon="1.72544">
        <ele>172</ele>
        <time>2014-10-24T09:53:17.000Z</time>
      </trkpt>
      <trkpt lat="48.68791" lon="1.72544">
        <ele>172</ele>
        <time>2014-10-24T09:53:20.000Z</time>
      </trkpt>
      <trkpt lat="48.6879" lon="1.72544">
        <ele>172.19999694824</ele>
        <time>2014-10-24T09:53:39.000Z</time>
      </trkpt>
      <trkpt lat="48.68785" lon="1.72542">
        <ele>172.39999389648</ele>
        <time>2014-10-24T09:53:42.000Z</time>
      </trkpt>
      <trkpt lat="48.68771" lon="1.72539">
        <ele>173.39999389648</ele>
        <time>2014-10-24T09:53:52.000Z</time>
      </trkpt>
      <trkpt lat="48.68761" lon="1.72538">
        <ele>173.60000610352</ele>
        <time>2014-10-24T09:53:59.000Z</time>
      </trkpt>
      <trkpt lat="48.68752" lon="1.72536">
        <ele>173.80000305176</ele>
        <time>2014-10-24T09:54:06.000Z</time>
      </trkpt>
      <trkpt lat="48.68743" lon="1.72535">
        <ele>174</ele>
        <time>2014-10-24T09:54:12.000Z</time>
      </trkpt>
      <trkpt lat="48.68734" lon="1.72533">
        <ele>174.39999389648</ele>
        <time>2014-10-24T09:54:18.000Z</time>
      </trkpt>
      <trkpt lat="48.68727" lon="1.72532">
        <ele>174.39999389648</ele>
        <time>2014-10-24T09:54:24.000Z</time>
      </trkpt>
      <trkpt lat="48.68715" lon="1.72532">
        <ele>174.60000610352</ele>
        <time>2014-10-24T09:54:33.000Z</time>
      </trkpt>
      <trkpt lat="48.68706" lon="1.7253">
        <ele>174.80000305176</ele>
        <time>2014-10-24T09:54:40.000Z</time>
      </trkpt>
      <trkpt lat="48.68697" lon="1.72531">
        <ele>174.80000305176</ele>
        <time>2014-10-24T09:54:47.000Z</time>
      </trkpt>
      <trkpt lat="48.68685" lon="1.72531">
        <ele>175</ele>
        <time>2014-10-24T09:54:56.000Z</time>
      </trkpt>
      <trkpt lat="48.68673" lon="1.72528">
        <ele>174.80000305176</ele>
        <time>2014-10-24T09:55:04.000Z</time>
      </trkpt>
      <trkpt lat="48.68663" lon="1.72525">
        <ele>174.80000305176</ele>
        <time>2014-10-24T09:55:11.000Z</time>
      </trkpt>
      <trkpt lat="48.68654" lon="1.72523">
        <ele>174.80000305176</ele>
        <time>2014-10-24T09:55:18.000Z</time>
      </trkpt>
      <trkpt lat="48.68641" lon="1.72521">
        <ele>174.60000610352</ele>
        <time>2014-10-24T09:55:27.000Z</time>
      </trkpt>
      <trkpt lat="48.68631" lon="1.72518">
        <ele>174.60000610352</ele>
        <time>2014-10-24T09:55:34.000Z</time>
      </trkpt>
      <trkpt lat="48.68618" lon="1.72516">
        <ele>174.60000610352</ele>
        <time>2014-10-24T09:55:42.000Z</time>
      </trkpt>
      <trkpt lat="48.68605" lon="1.72513">
        <ele>174.60000610352</ele>
        <time>2014-10-24T09:55:51.000Z</time>
      </trkpt>
      <trkpt lat="48.68597" lon="1.7251">
        <ele>174.80000305176</ele>
        <time>2014-10-24T09:55:57.000Z</time>
      </trkpt>
      <trkpt lat="48.68584" lon="1.72509">
        <ele>175</ele>
        <time>2014-10-24T09:56:06.000Z</time>
      </trkpt>
      <trkpt lat="48.6857" lon="1.72512">
        <ele>175.19999694824</ele>
        <time>2014-10-24T09:56:14.000Z</time>
      </trkpt>
      <trkpt lat="48.68562" lon="1.72505">
        <ele>175.19999694824</ele>
        <time>2014-10-24T09:56:20.000Z</time>
      </trkpt>
      <trkpt lat="48.68551" lon="1.72503">
        <ele>175.39999389648</ele>
        <time>2014-10-24T09:56:28.000Z</time>
      </trkpt>
      <trkpt lat="48.68541" lon="1.72503">
        <ele>175.60000610352</ele>
        <time>2014-10-24T09:56:35.000Z</time>
      </trkpt>
      <trkpt lat="48.68531" lon="1.72502">
        <ele>175.80000305176</ele>
        <time>2014-10-24T09:56:43.000Z</time>
      </trkpt>
      <trkpt lat="48.68527" lon="1.72502">
        <ele>175.80000305176</ele>
        <time>2014-10-24T09:56:46.000Z</time>
      </trkpt>
      <trkpt lat="48.68516" lon="1.72497">
        <ele>175.80000305176</ele>
        <time>2014-10-24T09:56:54.000Z</time>
      </trkpt>
      <trkpt lat="48.6851" lon="1.72496">
        <ele>175.60000610352</ele>
        <time>2014-10-24T09:56:58.000Z</time>
      </trkpt>
      <trkpt lat="48.68499" lon="1.72498">
        <ele>175.19999694824</ele>
        <time>2014-10-24T09:57:05.000Z</time>
      </trkpt>
      <trkpt lat="48.68492" lon="1.72498">
        <ele>175</ele>
        <time>2014-10-24T09:57:10.000Z</time>
      </trkpt>
      <trkpt lat="48.68487" lon="1.725">
        <ele>174.80000305176</ele>
        <time>2014-10-24T09:57:16.000Z</time>
      </trkpt>
      <trkpt lat="48.68482" lon="1.72497">
        <ele>174.60000610352</ele>
        <time>2014-10-24T09:58:01.000Z</time>
      </trkpt>
      <trkpt lat="48.68478" lon="1.72497">
        <ele>174.39999389648</ele>
        <time>2014-10-24T09:58:04.000Z</time>
      </trkpt>
      <trkpt lat="48.68478" lon="1.72493">
        <ele>174.39999389648</ele>
        <time>2014-10-24T09:58:06.000Z</time>
      </trkpt>
      <trkpt lat="48.68479" lon="1.72492">
        <ele>174.60000610352</ele>
        <time>2014-10-24T09:58:12.000Z</time>
      </trkpt>
      <trkpt lat="48.68482" lon="1.72487">
        <ele>174.60000610352</ele>
        <time>2014-10-24T10:00:28.000Z</time>
      </trkpt>
      <trkpt lat="48.68488" lon="1.72485">
        <ele>175</ele>
        <time>2014-10-24T10:00:32.000Z</time>
      </trkpt>
      <trkpt lat="48.68491" lon="1.72484">
        <ele>175.19999694824</ele>
        <time>2014-10-24T10:00:34.000Z</time>
      </trkpt>
      <trkpt lat="48.685" lon="1.72488">
        <ele>175.19999694824</ele>
        <time>2014-10-24T10:00:41.000Z</time>
      </trkpt>
      <trkpt lat="48.6851" lon="1.7249">
        <ele>175.60000610352</ele>
        <time>2014-10-24T10:00:47.000Z</time>
      </trkpt>
      <trkpt lat="48.68521" lon="1.72491">
        <ele>176</ele>
        <time>2014-10-24T10:00:54.000Z</time>
      </trkpt>
      <trkpt lat="48.68528" lon="1.72493">
        <ele>175.80000305176</ele>
        <time>2014-10-24T10:01:00.000Z</time>
      </trkpt>
      <trkpt lat="48.68532" lon="1.72494">
        <ele>175.80000305176</ele>
        <time>2014-10-24T10:01:04.000Z</time>
      </trkpt>
      <trkpt lat="48.6854" lon="1.72497">
        <ele>175.60000610352</ele>
        <time>2014-10-24T10:01:11.000Z</time>
      </trkpt>
      <trkpt lat="48.68551" lon="1.72498">
        <ele>175.39999389648</ele>
        <time>2014-10-24T10:01:18.000Z</time>
      </trkpt>
      <trkpt lat="48.68562" lon="1.72497">
        <ele>175.39999389648</ele>
        <time>2014-10-24T10:01:24.000Z</time>
      </trkpt>
      <trkpt lat="48.68566" lon="1.725">
        <ele>175.19999694824</ele>
        <time>2014-10-24T10:01:28.000Z</time>
      </trkpt>
      <trkpt lat="48.68568" lon="1.725">
        <ele>175.19999694824</ele>
        <time>2014-10-24T10:01:32.000Z</time>
      </trkpt>
      <trkpt lat="48.68567" lon="1.72502">
        <ele>175.19999694824</ele>
        <time>2014-10-24T10:01:52.000Z</time>
      </trkpt>
      <trkpt lat="48.68565" lon="1.72499">
        <ele>175.39999389648</ele>
        <time>2014-10-24T10:02:00.000Z</time>
      </trkpt>
      <trkpt lat="48.68567" lon="1.72499">
        <ele>175.19999694824</ele>
        <time>2014-10-24T10:02:02.000Z</time>
      </trkpt>
      <trkpt lat="48.6858" lon="1.72501">
        <ele>175.19999694824</ele>
        <time>2014-10-24T10:02:11.000Z</time>
      </trkpt>
      <trkpt lat="48.68589" lon="1.72505">
        <ele>175</ele>
        <time>2014-10-24T10:02:16.000Z</time>
      </trkpt>
      <trkpt lat="48.68599" lon="1.72509">
        <ele>174.80000305176</ele>
        <time>2014-10-24T10:02:23.000Z</time>
      </trkpt>
      <trkpt lat="48.68613" lon="1.72512">
        <ele>174.80000305176</ele>
        <time>2014-10-24T10:02:31.000Z</time>
      </trkpt>
      <trkpt lat="48.68627" lon="1.72513">
        <ele>174.60000610352</ele>
        <time>2014-10-24T10:02:40.000Z</time>
      </trkpt>
      <trkpt lat="48.68637" lon="1.72514">
        <ele>174.80000305176</ele>
        <time>2014-10-24T10:02:47.000Z</time>
      </trkpt>
      <trkpt lat="48.68639" lon="1.72513">
        <ele>174.80000305176</ele>
        <time>2014-10-24T10:02:48.000Z</time>
      </trkpt>
      <trkpt lat="48.6865" lon="1.72513">
        <ele>175</ele>
        <time>2014-10-24T10:02:57.000Z</time>
      </trkpt>
      <trkpt lat="48.68655" lon="1.72514">
        <ele>175</ele>
        <time>2014-10-24T10:03:01.000Z</time>
      </trkpt>
      <trkpt lat="48.68664" lon="1.72518">
        <ele>175</ele>
        <time>2014-10-24T10:03:08.000Z</time>
      </trkpt>
      <trkpt lat="48.68673" lon="1.72521">
        <ele>175</ele>
        <time>2014-10-24T10:03:14.000Z</time>
      </trkpt>
      <trkpt lat="48.68682" lon="1.72522">
        <ele>175.19999694824</ele>
        <time>2014-10-24T10:03:20.000Z</time>
      </trkpt>
      <trkpt lat="48.68694" lon="1.72521">
        <ele>175</ele>
        <time>2014-10-24T10:03:27.000Z</time>
      </trkpt>
      <trkpt lat="48.68705" lon="1.72527">
        <ele>174.80000305176</ele>
        <time>2014-10-24T10:03:34.000Z</time>
      </trkpt>
      <trkpt lat="48.68714" lon="1.72529">
        <ele>174.60000610352</ele>
        <time>2014-10-24T10:03:40.000Z</time>
      </trkpt>
      <trkpt lat="48.68721" lon="1.72528">
        <ele>174.60000610352</ele>
        <time>2014-10-24T10:03:46.000Z</time>
      </trkpt>
      <trkpt lat="48.68727" lon="1.7253">
        <ele>174.39999389648</ele>
        <time>2014-10-24T10:03:49.000Z</time>
      </trkpt>
      <trkpt lat="48.68736" lon="1.72532">
        <ele>174.19999694824</ele>
        <time>2014-10-24T10:03:57.000Z</time>
      </trkpt>
      <trkpt lat="48.68743" lon="1.72533">
        <ele>174.19999694824</ele>
        <time>2014-10-24T10:04:02.000Z</time>
      </trkpt>
      <trkpt lat="48.68753" lon="1.72538">
        <ele>173.80000305176</ele>
        <time>2014-10-24T10:04:09.000Z</time>
      </trkpt>
      <trkpt lat="48.68764" lon="1.72541">
        <ele>173.39999389648</ele>
        <time>2014-10-24T10:04:15.000Z</time>
      </trkpt>
      <trkpt lat="48.68771" lon="1.72542">
        <ele>173.19999694824</ele>
        <time>2014-10-24T10:04:20.000Z</time>
      </trkpt>
      <trkpt lat="48.68783" lon="1.72545">
        <ele>172.60000610352</ele>
        <time>2014-10-24T10:04:28.000Z</time>
      </trkpt>
      <trkpt lat="48.68791" lon="1.72546">
        <ele>172</ele>
        <time>2014-10-24T10:04:33.000Z</time>
      </trkpt>
      <trkpt lat="48.68798" lon="1.72543">
        <ele>171.60000610352</ele>
        <time>2014-10-24T10:04:38.000Z</time>
      </trkpt>
      <trkpt lat="48.68805" lon="1.72532">
        <ele>171.39999389648</ele>
        <time>2014-10-24T10:04:45.000Z</time>
      </trkpt>
      <trkpt lat="48.68807" lon="1.72529">
        <ele>171.19999694824</ele>
        <time>2014-10-24T10:04:47.000Z</time>
      </trkpt>
      <trkpt lat="48.68815" lon="1.72526">
        <ele>170.80000305176</ele>
        <time>2014-10-24T10:04:55.000Z</time>
      </trkpt>
      <trkpt lat="48.68822" lon="1.72521">
        <ele>170.39999389648</ele>
        <time>2014-10-24T10:05:00.000Z</time>
      </trkpt>
      <trkpt lat="48.68826" lon="1.72518">
        <ele>170.19999694824</ele>
        <time>2014-10-24T10:05:03.000Z</time>
      </trkpt>
      <trkpt lat="48.68838" lon="1.72506">
        <ele>169.60000610352</ele>
        <time>2014-10-24T10:05:12.000Z</time>
      </trkpt>
      <trkpt lat="48.68841" lon="1.72504">
        <ele>169.60000610352</ele>
        <time>2014-10-24T10:05:14.000Z</time>
      </trkpt>
      <trkpt lat="48.68849" lon="1.72499">
        <ele>169</ele>
        <time>2014-10-24T10:05:20.000Z</time>
      </trkpt>
      <trkpt lat="48.68852" lon="1.72498">
        <ele>169</ele>
        <time>2014-10-24T10:05:22.000Z</time>
      </trkpt>
      <trkpt lat="48.68857" lon="1.72491">
        <ele>169</ele>
        <time>2014-10-24T10:05:26.000Z</time>
      </trkpt>
      <trkpt lat="48.68863" lon="1.72486">
        <ele>169</ele>
        <time>2014-10-24T10:05:30.000Z</time>
      </trkpt>
      <trkpt lat="48.68865" lon="1.72484">
        <ele>169</ele>
        <time>2014-10-24T10:05:32.000Z</time>
      </trkpt>
      <trkpt lat="48.68871" lon="1.7248">
        <ele>169.19999694824</ele>
        <time>2014-10-24T10:05:37.000Z</time>
      </trkpt>
      <trkpt lat="48.68874" lon="1.72477">
        <ele>169.19999694824</ele>
        <time>2014-10-24T10:05:40.000Z</time>
      </trkpt>
      <trkpt lat="48.68877" lon="1.72475">
        <ele>169.19999694824</ele>
        <time>2014-10-24T10:05:42.000Z</time>
      </trkpt>
      <trkpt lat="48.68886" lon="1.72468">
        <ele>169.39999389648</ele>
        <time>2014-10-24T10:05:48.000Z</time>
      </trkpt>
      <trkpt lat="48.68889" lon="1.72465">
        <ele>169.60000610352</ele>
        <time>2014-10-24T10:05:50.000Z</time>
      </trkpt>
      <trkpt lat="48.68902" lon="1.72458">
        <ele>169.60000610352</ele>
        <time>2014-10-24T10:05:58.000Z</time>
      </trkpt>
      <trkpt lat="48.68912" lon="1.72451">
        <ele>169.60000610352</ele>
        <time>2014-10-24T10:06:05.000Z</time>
      </trkpt>
      <trkpt lat="48.68915" lon="1.72445">
        <ele>169.60000610352</ele>
        <time>2014-10-24T10:06:08.000Z</time>
      </trkpt>
      <trkpt lat="48.68922" lon="1.7244">
        <ele>169.39999389648</ele>
        <time>2014-10-24T10:06:14.000Z</time>
      </trkpt>
      <trkpt lat="48.68923" lon="1.72439">
        <ele>169.39999389648</ele>
        <time>2014-10-24T10:06:15.000Z</time>
      </trkpt>
      <trkpt lat="48.68926" lon="1.72437">
        <ele>169.19999694824</ele>
        <time>2014-10-24T10:06:17.000Z</time>
      </trkpt>
      <trkpt lat="48.68931" lon="1.72434">
        <ele>169.19999694824</ele>
        <time>2014-10-24T10:06:23.000Z</time>
      </trkpt>
      <trkpt lat="48.68933" lon="1.72429">
        <ele>169</ele>
        <time>2014-10-24T10:06:30.000Z</time>
      </trkpt>
      <trkpt lat="48.68934" lon="1.72429">
        <ele>169</ele>
        <time>2014-10-24T10:06:32.000Z</time>
      </trkpt>
      <trkpt lat="48.68935" lon="1.72429">
        <ele>169</ele>
        <time>2014-10-24T10:06:35.000Z</time>
      </trkpt>
      <trkpt lat="48.68937" lon="1.7243">
        <ele>169</ele>
        <time>2014-10-24T10:06:36.000Z</time>
      </trkpt>
      <trkpt lat="48.68941" lon="1.72425">
        <ele>169</ele>
        <time>2014-10-24T10:06:42.000Z</time>
      </trkpt>
      <trkpt lat="48.68949" lon="1.72415">
        <ele>169</ele>
        <time>2014-10-24T10:06:49.000Z</time>
      </trkpt>
      <trkpt lat="48.68958" lon="1.72409">
        <ele>169</ele>
        <time>2014-10-24T10:06:55.000Z</time>
      </trkpt>
      <trkpt lat="48.68965" lon="1.72405">
        <ele>169</ele>
        <time>2014-10-24T10:07:01.000Z</time>
      </trkpt>
      <trkpt lat="48.68966" lon="1.72404">
        <ele>169</ele>
        <time>2014-10-24T10:07:02.000Z</time>
      </trkpt>
      <trkpt lat="48.68976" lon="1.72395">
        <ele>169.19999694824</ele>
        <time>2014-10-24T10:07:09.000Z</time>
      </trkpt>
      <trkpt lat="48.68977" lon="1.72394">
        <ele>169.19999694824</ele>
        <time>2014-10-24T10:07:10.000Z</time>
      </trkpt>
      <trkpt lat="48.68987" lon="1.72385">
        <ele>169.19999694824</ele>
        <time>2014-10-24T10:07:17.000Z</time>
      </trkpt>
      <trkpt lat="48.6899" lon="1.72382">
        <ele>169.19999694824</ele>
        <time>2014-10-24T10:07:19.000Z</time>
      </trkpt>
      <trkpt lat="48.69003" lon="1.72374">
        <ele>169.39999389648</ele>
        <time>2014-10-24T10:07:27.000Z</time>
      </trkpt>
      <trkpt lat="48.69008" lon="1.72365">
        <ele>169.39999389648</ele>
        <time>2014-10-24T10:07:33.000Z</time>
      </trkpt>
      <trkpt lat="48.69016" lon="1.72357">
        <ele>169.60000610352</ele>
        <time>2014-10-24T10:07:39.000Z</time>
      </trkpt>
      <trkpt lat="48.69027" lon="1.7235">
        <ele>169.60000610352</ele>
        <time>2014-10-24T10:07:46.000Z</time>
      </trkpt>
      <trkpt lat="48.69035" lon="1.7234">
        <ele>169.60000610352</ele>
        <time>2014-10-24T10:07:53.000Z</time>
      </trkpt>
      <trkpt lat="48.69044" lon="1.72334">
        <ele>169.80000305176</ele>
        <time>2014-10-24T10:07:59.000Z</time>
      </trkpt>
      <trkpt lat="48.69049" lon="1.72324">
        <ele>170.19999694824</ele>
        <time>2014-10-24T10:08:04.000Z</time>
      </trkpt>
      <trkpt lat="48.69052" lon="1.72321">
        <ele>170.39999389648</ele>
        <time>2014-10-24T10:08:07.000Z</time>
      </trkpt>
      <trkpt lat="48.69058" lon="1.72318">
        <ele>170.39999389648</ele>
        <time>2014-10-24T10:08:11.000Z</time>
      </trkpt>
      <trkpt lat="48.6906" lon="1.72316">
        <ele>170.39999389648</ele>
        <time>2014-10-24T10:08:13.000Z</time>
      </trkpt>
      <trkpt lat="48.69067" lon="1.72309">
        <ele>170.19999694824</ele>
        <time>2014-10-24T10:08:18.000Z</time>
      </trkpt>
      <trkpt lat="48.69077" lon="1.72302">
        <ele>170.19999694824</ele>
        <time>2014-10-24T10:08:25.000Z</time>
      </trkpt>
      <trkpt lat="48.69079" lon="1.72302">
        <ele>170.19999694824</ele>
        <time>2014-10-24T10:08:26.000Z</time>
      </trkpt>
      <trkpt lat="48.69084" lon="1.72295">
        <ele>170.19999694824</ele>
        <time>2014-10-24T10:08:31.000Z</time>
      </trkpt>
      <trkpt lat="48.69093" lon="1.7229">
        <ele>170.39999389648</ele>
        <time>2014-10-24T10:08:37.000Z</time>
      </trkpt>
      <trkpt lat="48.69097" lon="1.72287">
        <ele>170.39999389648</ele>
        <time>2014-10-24T10:08:40.000Z</time>
      </trkpt>
      <trkpt lat="48.69102" lon="1.72279">
        <ele>170.39999389648</ele>
        <time>2014-10-24T10:08:46.000Z</time>
      </trkpt>
      <trkpt lat="48.69109" lon="1.72272">
        <ele>170.39999389648</ele>
        <time>2014-10-24T10:08:52.000Z</time>
      </trkpt>
      <trkpt lat="48.69114" lon="1.72269">
        <ele>170.19999694824</ele>
        <time>2014-10-24T10:08:57.000Z</time>
      </trkpt>
      <trkpt lat="48.69124" lon="1.72262">
        <ele>170</ele>
        <time>2014-10-24T10:09:03.000Z</time>
      </trkpt>
      <trkpt lat="48.69131" lon="1.72258">
        <ele>170.19999694824</ele>
        <time>2014-10-24T10:09:07.000Z</time>
      </trkpt>
      <trkpt lat="48.69136" lon="1.72255">
        <ele>170.39999389648</ele>
        <time>2014-10-24T10:09:11.000Z</time>
      </trkpt>
      <trkpt lat="48.69141" lon="1.72253">
        <ele>170.60000610352</ele>
        <time>2014-10-24T10:09:15.000Z</time>
      </trkpt>
      <trkpt lat="48.69145" lon="1.72248">
        <ele>170.80000305176</ele>
        <time>2014-10-24T10:09:19.000Z</time>
      </trkpt>
      <trkpt lat="48.69151" lon="1.7224">
        <ele>171</ele>
        <time>2014-10-24T10:09:24.000Z</time>
      </trkpt>
      <trkpt lat="48.69163" lon="1.72235">
        <ele>171.39999389648</ele>
        <time>2014-10-24T10:09:31.000Z</time>
      </trkpt>
      <trkpt lat="48.69164" lon="1.72234">
        <ele>171.39999389648</ele>
        <time>2014-10-24T10:09:32.000Z</time>
      </trkpt>
      <trkpt lat="48.69175" lon="1.72229">
        <ele>171.60000610352</ele>
        <time>2014-10-24T10:09:39.000Z</time>
      </trkpt>
      <trkpt lat="48.69187" lon="1.72219">
        <ele>172.19999694824</ele>
        <time>2014-10-24T10:09:47.000Z</time>
      </trkpt>
      <trkpt lat="48.69197" lon="1.72215">
        <ele>171.80000305176</ele>
        <time>2014-10-24T10:09:53.000Z</time>
      </trkpt>
      <trkpt lat="48.69206" lon="1.72208">
        <ele>171.39999389648</ele>
        <time>2014-10-24T10:10:00.000Z</time>
      </trkpt>
      <trkpt lat="48.69213" lon="1.72201">
        <ele>171.19999694824</ele>
        <time>2014-10-24T10:10:06.000Z</time>
      </trkpt>
      <trkpt lat="48.69222" lon="1.72192">
        <ele>170.80000305176</ele>
        <time>2014-10-24T10:10:13.000Z</time>
      </trkpt>
      <trkpt lat="48.69229" lon="1.72182">
        <ele>170.19999694824</ele>
        <time>2014-10-24T10:10:19.000Z</time>
      </trkpt>
      <trkpt lat="48.69237" lon="1.72177">
        <ele>169.60000610352</ele>
        <time>2014-10-24T10:10:25.000Z</time>
      </trkpt>
      <trkpt lat="48.69243" lon="1.72171">
        <ele>169.19999694824</ele>
        <time>2014-10-24T10:10:33.000Z</time>
      </trkpt>
      <trkpt lat="48.69249" lon="1.72165">
        <ele>168.60000610352</ele>
        <time>2014-10-24T10:10:40.000Z</time>
      </trkpt>
      <trkpt lat="48.69258" lon="1.7216">
        <ele>168</ele>
        <time>2014-10-24T10:10:47.000Z</time>
      </trkpt>
      <trkpt lat="48.6927" lon="1.72149">
        <ele>167</ele>
        <time>2014-10-24T10:10:55.000Z</time>
      </trkpt>
      <trkpt lat="48.69279" lon="1.72141">
        <ele>166.80000305176</ele>
        <time>2014-10-24T10:11:02.000Z</time>
      </trkpt>
      <trkpt lat="48.69287" lon="1.72136">
        <ele>166.39999389648</ele>
        <time>2014-10-24T10:11:08.000Z</time>
      </trkpt>
      <trkpt lat="48.69296" lon="1.72133">
        <ele>166</ele>
        <time>2014-10-24T10:11:14.000Z</time>
      </trkpt>
      <trkpt lat="48.69303" lon="1.72122">
        <ele>165.80000305176</ele>
        <time>2014-10-24T10:11:21.000Z</time>
      </trkpt>
      <trkpt lat="48.69304" lon="1.72121">
        <ele>165.80000305176</ele>
        <time>2014-10-24T10:11:22.000Z</time>
      </trkpt>
      <trkpt lat="48.69313" lon="1.72114">
        <ele>165.39999389648</ele>
        <time>2014-10-24T10:11:29.000Z</time>
      </trkpt>
      <trkpt lat="48.69316" lon="1.72111">
        <ele>165.60000610352</ele>
        <time>2014-10-24T10:11:32.000Z</time>
      </trkpt>
      <trkpt lat="48.69324" lon="1.72107">
        <ele>165.80000305176</ele>
        <time>2014-10-24T10:11:39.000Z</time>
      </trkpt>
      <trkpt lat="48.69326" lon="1.72106">
        <ele>165.80000305176</ele>
        <time>2014-10-24T10:11:40.000Z</time>
      </trkpt>
      <trkpt lat="48.6933" lon="1.72106">
        <ele>165.80000305176</ele>
        <time>2014-10-24T10:11:43.000Z</time>
      </trkpt>
      <trkpt lat="48.69341" lon="1.721">
        <ele>166.19999694824</ele>
        <time>2014-10-24T10:11:51.000Z</time>
      </trkpt>
      <trkpt lat="48.69352" lon="1.7209">
        <ele>166.80000305176</ele>
        <time>2014-10-24T10:11:59.000Z</time>
      </trkpt>
      <trkpt lat="48.6936" lon="1.72081">
        <ele>167.19999694824</ele>
        <time>2014-10-24T10:12:06.000Z</time>
      </trkpt>
      <trkpt lat="48.69371" lon="1.72073">
        <ele>167</ele>
        <time>2014-10-24T10:12:14.000Z</time>
      </trkpt>
      <trkpt lat="48.69376" lon="1.72067">
        <ele>167.19999694824</ele>
        <time>2014-10-24T10:12:18.000Z</time>
      </trkpt>
      <trkpt lat="48.69381" lon="1.72063">
        <ele>167.19999694824</ele>
        <time>2014-10-24T10:12:23.000Z</time>
      </trkpt>
      <trkpt lat="48.69385" lon="1.7206">
        <ele>167</ele>
        <time>2014-10-24T10:12:27.000Z</time>
      </trkpt>
      <trkpt lat="48.69389" lon="1.7206">
        <ele>167</ele>
        <time>2014-10-24T10:12:30.000Z</time>
      </trkpt>
      <trkpt lat="48.69396" lon="1.72054">
        <ele>167</ele>
        <time>2014-10-24T10:12:36.000Z</time>
      </trkpt>
      <trkpt lat="48.69404" lon="1.72048">
        <ele>166.80000305176</ele>
        <time>2014-10-24T10:12:42.000Z</time>
      </trkpt>
      <trkpt lat="48.69413" lon="1.72042">
        <ele>167</ele>
        <time>2014-10-24T10:12:48.000Z</time>
      </trkpt>
      <trkpt lat="48.69422" lon="1.72035">
        <ele>167.39999389648</ele>
        <time>2014-10-24T10:12:55.000Z</time>
      </trkpt>
      <trkpt lat="48.6943" lon="1.72028">
        <ele>167.60000610352</ele>
        <time>2014-10-24T10:13:01.000Z</time>
      </trkpt>
      <trkpt lat="48.69437" lon="1.72024">
        <ele>167.80000305176</ele>
        <time>2014-10-24T10:13:06.000Z</time>
      </trkpt>
      <trkpt lat="48.69438" lon="1.72024">
        <ele>167.80000305176</ele>
        <time>2014-10-24T10:13:07.000Z</time>
      </trkpt>
      <trkpt lat="48.69443" lon="1.72019">
        <ele>168.19999694824</ele>
        <time>2014-10-24T10:13:12.000Z</time>
      </trkpt>
      <trkpt lat="48.69446" lon="1.7201">
        <ele>168.80000305176</ele>
        <time>2014-10-24T10:13:16.000Z</time>
      </trkpt>
      <trkpt lat="48.69456" lon="1.72004">
        <ele>169</ele>
        <time>2014-10-24T10:13:23.000Z</time>
      </trkpt>
      <trkpt lat="48.69464" lon="1.71997">
        <ele>168.80000305176</ele>
        <time>2014-10-24T10:13:29.000Z</time>
      </trkpt>
      <trkpt lat="48.69472" lon="1.7199">
        <ele>168.39999389648</ele>
        <time>2014-10-24T10:13:36.000Z</time>
      </trkpt>
      <trkpt lat="48.69474" lon="1.71985">
        <ele>168.39999389648</ele>
        <time>2014-10-24T10:13:39.000Z</time>
      </trkpt>
      <trkpt lat="48.6948" lon="1.71981">
        <ele>168.19999694824</ele>
        <time>2014-10-24T10:13:46.000Z</time>
      </trkpt>
      <trkpt lat="48.69486" lon="1.71976">
        <ele>168.19999694824</ele>
        <time>2014-10-24T10:13:51.000Z</time>
      </trkpt>
      <trkpt lat="48.69494" lon="1.71971">
        <ele>167.80000305176</ele>
        <time>2014-10-24T10:13:57.000Z</time>
      </trkpt>
      <trkpt lat="48.69502" lon="1.71964">
        <ele>167.80000305176</ele>
        <time>2014-10-24T10:14:03.000Z</time>
      </trkpt>
      <trkpt lat="48.69509" lon="1.71959">
        <ele>168</ele>
        <time>2014-10-24T10:14:08.000Z</time>
      </trkpt>
      <trkpt lat="48.69516" lon="1.71953">
        <ele>168.39999389648</ele>
        <time>2014-10-24T10:14:13.000Z</time>
      </trkpt>
      <trkpt lat="48.69524" lon="1.71945">
        <ele>169.19999694824</ele>
        <time>2014-10-24T10:14:20.000Z</time>
      </trkpt>
      <trkpt lat="48.69533" lon="1.71937">
        <ele>170.39999389648</ele>
        <time>2014-10-24T10:14:27.000Z</time>
      </trkpt>
      <trkpt lat="48.69534" lon="1.71936">
        <ele>170.60000610352</ele>
        <time>2014-10-24T10:14:28.000Z</time>
      </trkpt>
      <trkpt lat="48.69541" lon="1.71932">
        <ele>171.19999694824</ele>
        <time>2014-10-24T10:14:33.000Z</time>
      </trkpt>
      <trkpt lat="48.69551" lon="1.71923">
        <ele>171.80000305176</ele>
        <time>2014-10-24T10:14:41.000Z</time>
      </trkpt>
      <trkpt lat="48.69556" lon="1.71919">
        <ele>171.80000305176</ele>
        <time>2014-10-24T10:14:45.000Z</time>
      </trkpt>
      <trkpt lat="48.69559" lon="1.71912">
        <ele>171.80000305176</ele>
        <time>2014-10-24T10:14:49.000Z</time>
      </trkpt>
      <trkpt lat="48.69565" lon="1.71904">
        <ele>172</ele>
        <time>2014-10-24T10:14:54.000Z</time>
      </trkpt>
      <trkpt lat="48.6957" lon="1.719">
        <ele>172</ele>
        <time>2014-10-24T10:14:58.000Z</time>
      </trkpt>
      <trkpt lat="48.69579" lon="1.71896">
        <ele>172</ele>
        <time>2014-10-24T10:15:04.000Z</time>
      </trkpt>
      <trkpt lat="48.69586" lon="1.71893">
        <ele>172</ele>
        <time>2014-10-24T10:15:10.000Z</time>
      </trkpt>
      <trkpt lat="48.69595" lon="1.71887">
        <ele>172</ele>
        <time>2014-10-24T10:15:18.000Z</time>
      </trkpt>
      <trkpt lat="48.69601" lon="1.71883">
        <ele>172</ele>
        <time>2014-10-24T10:15:24.000Z</time>
      </trkpt>
      <trkpt lat="48.69608" lon="1.71878">
        <ele>172.60000610352</ele>
        <time>2014-10-24T10:15:30.000Z</time>
      </trkpt>
      <trkpt lat="48.69614" lon="1.71877">
        <ele>173</ele>
        <time>2014-10-24T10:15:33.000Z</time>
      </trkpt>
      <trkpt lat="48.69622" lon="1.71872">
        <ele>173.60000610352</ele>
        <time>2014-10-24T10:15:38.000Z</time>
      </trkpt>
      <trkpt lat="48.6963" lon="1.71863">
        <ele>174.60000610352</ele>
        <time>2014-10-24T10:15:45.000Z</time>
      </trkpt>
      <trkpt lat="48.69635" lon="1.71853">
        <ele>175.39999389648</ele>
        <time>2014-10-24T10:15:51.000Z</time>
      </trkpt>
      <trkpt lat="48.69638" lon="1.7185">
        <ele>175.39999389648</ele>
        <time>2014-10-24T10:15:53.000Z</time>
      </trkpt>
      <trkpt lat="48.69644" lon="1.71849">
        <ele>175.19999694824</ele>
        <time>2014-10-24T10:15:58.000Z</time>
      </trkpt>
      <trkpt lat="48.69651" lon="1.71841">
        <ele>175</ele>
        <time>2014-10-24T10:16:04.000Z</time>
      </trkpt>
      <trkpt lat="48.69659" lon="1.71836">
        <ele>174.80000305176</ele>
        <time>2014-10-24T10:16:10.000Z</time>
      </trkpt>
      <trkpt lat="48.6967" lon="1.71828">
        <ele>174.39999389648</ele>
        <time>2014-10-24T10:16:18.000Z</time>
      </trkpt>
      <trkpt lat="48.69678" lon="1.71822">
        <ele>174.19999694824</ele>
        <time>2014-10-24T10:16:25.000Z</time>
      </trkpt>
      <trkpt lat="48.69682" lon="1.71809">
        <ele>174</ele>
        <time>2014-10-24T10:16:31.000Z</time>
      </trkpt>
      <trkpt lat="48.69687" lon="1.71809">
        <ele>173.80000305176</ele>
        <time>2014-10-24T10:16:35.000Z</time>
      </trkpt>
      <trkpt lat="48.69697" lon="1.71802">
        <ele>173.60000610352</ele>
        <time>2014-10-24T10:16:42.000Z</time>
      </trkpt>
      <trkpt lat="48.69705" lon="1.71797">
        <ele>173.19999694824</ele>
        <time>2014-10-24T10:16:47.000Z</time>
      </trkpt>
      <trkpt lat="48.69712" lon="1.7179">
        <ele>173</ele>
        <time>2014-10-24T10:16:54.000Z</time>
      </trkpt>
      <trkpt lat="48.69715" lon="1.71788">
        <ele>173</ele>
        <time>2014-10-24T10:16:56.000Z</time>
      </trkpt>
      <trkpt lat="48.69724" lon="1.71782">
        <ele>172.60000610352</ele>
        <time>2014-10-24T10:17:03.000Z</time>
      </trkpt>
      <trkpt lat="48.69733" lon="1.71777">
        <ele>172.60000610352</ele>
        <time>2014-10-24T10:17:09.000Z</time>
      </trkpt>
      <trkpt lat="48.69744" lon="1.71771">
        <ele>172.80000305176</ele>
        <time>2014-10-24T10:17:16.000Z</time>
      </trkpt>
      <trkpt lat="48.69754" lon="1.71763">
        <ele>173.19999694824</ele>
        <time>2014-10-24T10:17:25.000Z</time>
      </trkpt>
      <trkpt lat="48.69761" lon="1.71755">
        <ele>173.39999389648</ele>
        <time>2014-10-24T10:17:31.000Z</time>
      </trkpt>
      <trkpt lat="48.69769" lon="1.71747">
        <ele>173.80000305176</ele>
        <time>2014-10-24T10:17:38.000Z</time>
      </trkpt>
      <trkpt lat="48.69775" lon="1.71738">
        <ele>173.80000305176</ele>
        <time>2014-10-24T10:17:44.000Z</time>
      </trkpt>
      <trkpt lat="48.69779" lon="1.71736">
        <ele>173.80000305176</ele>
        <time>2014-10-24T10:17:49.000Z</time>
      </trkpt>
      <trkpt lat="48.69785" lon="1.71729">
        <ele>173.80000305176</ele>
        <time>2014-10-24T10:17:57.000Z</time>
      </trkpt>
      <trkpt lat="48.69795" lon="1.71721">
        <ele>173.60000610352</ele>
        <time>2014-10-24T10:18:05.000Z</time>
      </trkpt>
      <trkpt lat="48.69801" lon="1.71711">
        <ele>173.60000610352</ele>
        <time>2014-10-24T10:18:11.000Z</time>
      </trkpt>
      <trkpt lat="48.69807" lon="1.71706">
        <ele>173.39999389648</ele>
        <time>2014-10-24T10:18:17.000Z</time>
      </trkpt>
      <trkpt lat="48.69813" lon="1.71709">
        <ele>173.19999694824</ele>
        <time>2014-10-24T10:18:20.000Z</time>
      </trkpt>
      <trkpt lat="48.6982" lon="1.71704">
        <ele>173.19999694824</ele>
        <time>2014-10-24T10:18:26.000Z</time>
      </trkpt>
      <trkpt lat="48.69821" lon="1.71703">
        <ele>173.19999694824</ele>
        <time>2014-10-24T10:18:27.000Z</time>
      </trkpt>
      <trkpt lat="48.69831" lon="1.71695">
        <ele>173</ele>
        <time>2014-10-24T10:18:35.000Z</time>
      </trkpt>
      <trkpt lat="48.69837" lon="1.71692">
        <ele>173</ele>
        <time>2014-10-24T10:18:40.000Z</time>
      </trkpt>
      <trkpt lat="48.69842" lon="1.71684">
        <ele>173</ele>
        <time>2014-10-24T10:18:45.000Z</time>
      </trkpt>
      <trkpt lat="48.69853" lon="1.71672">
        <ele>172.80000305176</ele>
        <time>2014-10-24T10:18:54.000Z</time>
      </trkpt>
      <trkpt lat="48.69864" lon="1.71668">
        <ele>172.60000610352</ele>
        <time>2014-10-24T10:19:01.000Z</time>
      </trkpt>
      <trkpt lat="48.69867" lon="1.71666">
        <ele>172.60000610352</ele>
        <time>2014-10-24T10:19:03.000Z</time>
      </trkpt>
      <trkpt lat="48.69875" lon="1.71658">
        <ele>172.39999389648</ele>
        <time>2014-10-24T10:19:11.000Z</time>
      </trkpt>
      <trkpt lat="48.69885" lon="1.71654">
        <ele>172.19999694824</ele>
        <time>2014-10-24T10:19:17.000Z</time>
      </trkpt>
      <trkpt lat="48.69886" lon="1.71653">
        <ele>172.19999694824</ele>
        <time>2014-10-24T10:19:18.000Z</time>
      </trkpt>
      <trkpt lat="48.69896" lon="1.71641">
        <ele>172</ele>
        <time>2014-10-24T10:19:27.000Z</time>
      </trkpt>
      <trkpt lat="48.69904" lon="1.71634">
        <ele>171.80000305176</ele>
        <time>2014-10-24T10:19:33.000Z</time>
      </trkpt>
      <trkpt lat="48.69913" lon="1.71632">
        <ele>171.60000610352</ele>
        <time>2014-10-24T10:19:39.000Z</time>
      </trkpt>
      <trkpt lat="48.69921" lon="1.71626">
        <ele>171.60000610352</ele>
        <time>2014-10-24T10:19:45.000Z</time>
      </trkpt>
      <trkpt lat="48.69923" lon="1.71623">
        <ele>171.80000305176</ele>
        <time>2014-10-24T10:19:47.000Z</time>
      </trkpt>
      <trkpt lat="48.6993" lon="1.71615">
        <ele>172</ele>
        <time>2014-10-24T10:19:54.000Z</time>
      </trkpt>
      <trkpt lat="48.69936" lon="1.7161">
        <ele>172</ele>
        <time>2014-10-24T10:19:59.000Z</time>
      </trkpt>
      <trkpt lat="48.69943" lon="1.71606">
        <ele>172.19999694824</ele>
        <time>2014-10-24T10:20:04.000Z</time>
      </trkpt>
      <trkpt lat="48.69954" lon="1.71602">
        <ele>172.60000610352</ele>
        <time>2014-10-24T10:20:11.000Z</time>
      </trkpt>
      <trkpt lat="48.69961" lon="1.71594">
        <ele>173</ele>
        <time>2014-10-24T10:20:17.000Z</time>
      </trkpt>
      <trkpt lat="48.6997" lon="1.71589">
        <ele>172.80000305176</ele>
        <time>2014-10-24T10:20:23.000Z</time>
      </trkpt>
      <trkpt lat="48.69972" lon="1.71587">
        <ele>172.80000305176</ele>
        <time>2014-10-24T10:20:25.000Z</time>
      </trkpt>
      <trkpt lat="48.69979" lon="1.71574">
        <ele>172.60000610352</ele>
        <time>2014-10-24T10:20:33.000Z</time>
      </trkpt>
      <trkpt lat="48.69986" lon="1.71565">
        <ele>172.19999694824</ele>
        <time>2014-10-24T10:20:40.000Z</time>
      </trkpt>
      <trkpt lat="48.69994" lon="1.71559">
        <ele>172</ele>
        <time>2014-10-24T10:20:46.000Z</time>
      </trkpt>
      <trkpt lat="48.70005" lon="1.71549">
        <ele>171.60000610352</ele>
        <time>2014-10-24T10:20:55.000Z</time>
      </trkpt>
      <trkpt lat="48.7001" lon="1.71543">
        <ele>171.39999389648</ele>
        <time>2014-10-24T10:21:00.000Z</time>
      </trkpt>
      <trkpt lat="48.7002" lon="1.71535">
        <ele>171.19999694824</ele>
        <time>2014-10-24T10:21:08.000Z</time>
      </trkpt>
      <trkpt lat="48.70025" lon="1.71533">
        <ele>171</ele>
        <time>2014-10-24T10:21:12.000Z</time>
      </trkpt>
      <trkpt lat="48.70038" lon="1.71525">
        <ele>171</ele>
        <time>2014-10-24T10:21:21.000Z</time>
      </trkpt>
      <trkpt lat="48.70043" lon="1.71522">
        <ele>170.80000305176</ele>
        <time>2014-10-24T10:21:25.000Z</time>
      </trkpt>
      <trkpt lat="48.70052" lon="1.71519">
        <ele>170.80000305176</ele>
        <time>2014-10-24T10:21:32.000Z</time>
      </trkpt>
      <trkpt lat="48.70054" lon="1.71519">
        <ele>170.80000305176</ele>
        <time>2014-10-24T10:21:34.000Z</time>
      </trkpt>
      <trkpt lat="48.70067" lon="1.71508">
        <ele>170.60000610352</ele>
        <time>2014-10-24T10:21:44.000Z</time>
      </trkpt>
      <trkpt lat="48.70076" lon="1.71502">
        <ele>170.39999389648</ele>
        <time>2014-10-24T10:21:51.000Z</time>
      </trkpt>
      <trkpt lat="48.70086" lon="1.71496">
        <ele>170.19999694824</ele>
        <time>2014-10-24T10:21:59.000Z</time>
      </trkpt>
      <trkpt lat="48.70095" lon="1.71489">
        <ele>170</ele>
        <time>2014-10-24T10:22:07.000Z</time>
      </trkpt>
      <trkpt lat="48.70101" lon="1.71486">
        <ele>170</ele>
        <time>2014-10-24T10:22:12.000Z</time>
      </trkpt>
      <trkpt lat="48.70111" lon="1.71479">
        <ele>170.39999389648</ele>
        <time>2014-10-24T10:22:20.000Z</time>
      </trkpt>
      <trkpt lat="48.70119" lon="1.71474">
        <ele>170.80000305176</ele>
        <time>2014-10-24T10:22:27.000Z</time>
      </trkpt>
      <trkpt lat="48.70131" lon="1.71465">
        <ele>171.39999389648</ele>
        <time>2014-10-24T10:22:36.000Z</time>
      </trkpt>
      <trkpt lat="48.70139" lon="1.71457">
        <ele>171.80000305176</ele>
        <time>2014-10-24T10:22:43.000Z</time>
      </trkpt>
      <trkpt lat="48.70154" lon="1.71445">
        <ele>172.19999694824</ele>
        <time>2014-10-24T10:22:56.000Z</time>
      </trkpt>
      <trkpt lat="48.7017" lon="1.71432">
        <ele>172.19999694824</ele>
        <time>2014-10-24T10:23:10.000Z</time>
      </trkpt>
      <trkpt lat="48.70184" lon="1.7142">
        <ele>172.39999389648</ele>
        <time>2014-10-24T10:23:22.000Z</time>
      </trkpt>
      <trkpt lat="48.70196" lon="1.7141">
        <ele>173</ele>
        <time>2014-10-24T10:23:32.000Z</time>
      </trkpt>
      <trkpt lat="48.70208" lon="1.71399">
        <ele>174.60000610352</ele>
        <time>2014-10-24T10:23:43.000Z</time>
      </trkpt>
      <trkpt lat="48.70219" lon="1.71387">
        <ele>176.19999694824</ele>
        <time>2014-10-24T10:23:53.000Z</time>
      </trkpt>
      <trkpt lat="48.70226" lon="1.71381">
        <ele>177</ele>
        <time>2014-10-24T10:23:59.000Z</time>
      </trkpt>
      <trkpt lat="48.70233" lon="1.7137">
        <ele>178</ele>
        <time>2014-10-24T10:24:07.000Z</time>
      </trkpt>
      <trkpt lat="48.70237" lon="1.71365">
        <ele>178.39999389648</ele>
        <time>2014-10-24T10:24:11.000Z</time>
      </trkpt>
      <trkpt lat="48.70243" lon="1.71358">
        <ele>179</ele>
        <time>2014-10-24T10:24:16.000Z</time>
      </trkpt>
      <trkpt lat="48.70255" lon="1.7135">
        <ele>180.39999389648</ele>
        <time>2014-10-24T10:24:24.000Z</time>
      </trkpt>
      <trkpt lat="48.70266" lon="1.71341">
        <ele>181.60000610352</ele>
        <time>2014-10-24T10:24:32.000Z</time>
      </trkpt>
      <trkpt lat="48.70274" lon="1.71338">
        <ele>182</ele>
        <time>2014-10-24T10:24:38.000Z</time>
      </trkpt>
      <trkpt lat="48.70279" lon="1.71334">
        <ele>182.19999694824</ele>
        <time>2014-10-24T10:24:42.000Z</time>
      </trkpt>
      <trkpt lat="48.7029" lon="1.71326">
        <ele>182.60000610352</ele>
        <time>2014-10-24T10:24:50.000Z</time>
      </trkpt>
      <trkpt lat="48.703" lon="1.7132">
        <ele>183</ele>
        <time>2014-10-24T10:24:58.000Z</time>
      </trkpt>
      <trkpt lat="48.70311" lon="1.71313">
        <ele>183.80000305176</ele>
        <time>2014-10-24T10:25:07.000Z</time>
      </trkpt>
      <trkpt lat="48.70318" lon="1.71308">
        <ele>184.19999694824</ele>
        <time>2014-10-24T10:25:14.000Z</time>
      </trkpt>
      <trkpt lat="48.70324" lon="1.71302">
        <ele>184.60000610352</ele>
        <time>2014-10-24T10:25:21.000Z</time>
      </trkpt>
      <trkpt lat="48.70335" lon="1.71291">
        <ele>185.19999694824</ele>
        <time>2014-10-24T10:25:30.000Z</time>
      </trkpt>
      <trkpt lat="48.70344" lon="1.71284">
        <ele>185.60000610352</ele>
        <time>2014-10-24T10:25:37.000Z</time>
      </trkpt>
      <trkpt lat="48.70358" lon="1.71275">
        <ele>186.19999694824</ele>
        <time>2014-10-24T10:25:48.000Z</time>
      </trkpt>
      <trkpt lat="48.70363" lon="1.71272">
        <ele>186.19999694824</ele>
        <time>2014-10-24T10:25:52.000Z</time>
      </trkpt>
      <trkpt lat="48.70368" lon="1.71266">
        <ele>186.39999389648</ele>
        <time>2014-10-24T10:25:57.000Z</time>
      </trkpt>
      <trkpt lat="48.70379" lon="1.71258">
        <ele>186.80000305176</ele>
        <time>2014-10-24T10:26:06.000Z</time>
      </trkpt>
      <trkpt lat="48.7039" lon="1.71249">
        <ele>186.80000305176</ele>
        <time>2014-10-24T10:26:15.000Z</time>
      </trkpt>
      <trkpt lat="48.70399" lon="1.71243">
        <ele>187</ele>
        <time>2014-10-24T10:26:23.000Z</time>
      </trkpt>
      <trkpt lat="48.70407" lon="1.71234">
        <ele>187</ele>
        <time>2014-10-24T10:26:30.000Z</time>
      </trkpt>
      <trkpt lat="48.70419" lon="1.71223">
        <ele>187</ele>
        <time>2014-10-24T10:26:39.000Z</time>
      </trkpt>
      <trkpt lat="48.70428" lon="1.71215">
        <ele>186.80000305176</ele>
        <time>2014-10-24T10:26:46.000Z</time>
      </trkpt>
      <trkpt lat="48.70436" lon="1.71207">
        <ele>186.60000610352</ele>
        <time>2014-10-24T10:26:52.000Z</time>
      </trkpt>
      <trkpt lat="48.70445" lon="1.712">
        <ele>186.60000610352</ele>
        <time>2014-10-24T10:26:59.000Z</time>
      </trkpt>
      <trkpt lat="48.70455" lon="1.71193">
        <ele>186.39999389648</ele>
        <time>2014-10-24T10:27:07.000Z</time>
      </trkpt>
      <trkpt lat="48.70466" lon="1.71184">
        <ele>186.39999389648</ele>
        <time>2014-10-24T10:27:16.000Z</time>
      </trkpt>
      <trkpt lat="48.7047" lon="1.71179">
        <ele>186.19999694824</ele>
        <time>2014-10-24T10:27:20.000Z</time>
      </trkpt>
      <trkpt lat="48.70477" lon="1.71174">
        <ele>186</ele>
        <time>2014-10-24T10:27:26.000Z</time>
      </trkpt>
      <trkpt lat="48.70485" lon="1.71166">
        <ele>185.80000305176</ele>
        <time>2014-10-24T10:27:35.000Z</time>
      </trkpt>
      <trkpt lat="48.70487" lon="1.71164">
        <ele>185.60000610352</ele>
        <time>2014-10-24T10:27:39.000Z</time>
      </trkpt>
      <trkpt lat="48.70492" lon="1.71188">
        <ele>186.19999694824</ele>
        <time>2014-10-24T10:34:51.000Z</time>
      </trkpt>
      <trkpt lat="48.70494" lon="1.71193">
        <ele>186.19999694824</ele>
        <time>2014-10-24T10:34:53.000Z</time>
      </trkpt>
      <trkpt lat="48.70494" lon="1.71206">
        <ele>186.60000610352</ele>
        <time>2014-10-24T10:35:00.000Z</time>
      </trkpt>
      <trkpt lat="48.70493" lon="1.71214">
        <ele>186.80000305176</ele>
        <time>2014-10-24T10:35:04.000Z</time>
      </trkpt>
      <trkpt lat="48.70493" lon="1.71219">
        <ele>186.80000305176</ele>
        <time>2014-10-24T10:35:07.000Z</time>
      </trkpt>
      <trkpt lat="48.705" lon="1.71234">
        <ele>187</ele>
        <time>2014-10-24T10:35:15.000Z</time>
      </trkpt>
      <trkpt lat="48.70499" lon="1.71249">
        <ele>187.19999694824</ele>
        <time>2014-10-24T10:35:22.000Z</time>
      </trkpt>
      <trkpt lat="48.70497" lon="1.71266">
        <ele>187.39999389648</ele>
        <time>2014-10-24T10:35:29.000Z</time>
      </trkpt>
      <trkpt lat="48.70496" lon="1.71279">
        <ele>187.60000610352</ele>
        <time>2014-10-24T10:35:35.000Z</time>
      </trkpt>
      <trkpt lat="48.70496" lon="1.71285">
        <ele>187.60000610352</ele>
        <time>2014-10-24T10:35:38.000Z</time>
      </trkpt>
      <trkpt lat="48.70497" lon="1.71297">
        <ele>187.80000305176</ele>
        <time>2014-10-24T10:35:44.000Z</time>
      </trkpt>
      <trkpt lat="48.70499" lon="1.71308">
        <ele>187.60000610352</ele>
        <time>2014-10-24T10:35:50.000Z</time>
      </trkpt>
      <trkpt lat="48.705" lon="1.71328">
        <ele>187.60000610352</ele>
        <time>2014-10-24T10:35:59.000Z</time>
      </trkpt>
      <trkpt lat="48.705" lon="1.7134">
        <ele>187.80000305176</ele>
        <time>2014-10-24T10:36:04.000Z</time>
      </trkpt>
      <trkpt lat="48.70498" lon="1.71354">
        <ele>187.80000305176</ele>
        <time>2014-10-24T10:36:10.000Z</time>
      </trkpt>
      <trkpt lat="48.70498" lon="1.71369">
        <ele>188</ele>
        <time>2014-10-24T10:36:17.000Z</time>
      </trkpt>
      <trkpt lat="48.70496" lon="1.71377">
        <ele>188.19999694824</ele>
        <time>2014-10-24T10:36:23.000Z</time>
      </trkpt>
      <trkpt lat="48.70495" lon="1.71377">
        <ele>188</ele>
        <time>2014-10-24T10:36:25.000Z</time>
      </trkpt>
      <trkpt lat="48.70493" lon="1.7139">
        <ele>187.80000305176</ele>
        <time>2014-10-24T10:36:45.000Z</time>
      </trkpt>
      <trkpt lat="48.70494" lon="1.714">
        <ele>187.80000305176</ele>
        <time>2014-10-24T10:36:50.000Z</time>
      </trkpt>
      <trkpt lat="48.70496" lon="1.71411">
        <ele>187.60000610352</ele>
        <time>2014-10-24T10:36:56.000Z</time>
      </trkpt>
      <trkpt lat="48.70496" lon="1.71423">
        <ele>187.39999389648</ele>
        <time>2014-10-24T10:37:02.000Z</time>
      </trkpt>
      <trkpt lat="48.70497" lon="1.71431">
        <ele>187.19999694824</ele>
        <time>2014-10-24T10:37:06.000Z</time>
      </trkpt>
      <trkpt lat="48.70496" lon="1.71441">
        <ele>187</ele>
        <time>2014-10-24T10:37:11.000Z</time>
      </trkpt>
      <trkpt lat="48.70499" lon="1.71449">
        <ele>186.80000305176</ele>
        <time>2014-10-24T10:37:16.000Z</time>
      </trkpt>
      <trkpt lat="48.70501" lon="1.71452">
        <ele>187</ele>
        <time>2014-10-24T10:37:18.000Z</time>
      </trkpt>
      <trkpt lat="48.70501" lon="1.71467">
        <ele>186.60000610352</ele>
        <time>2014-10-24T10:37:25.000Z</time>
      </trkpt>
      <trkpt lat="48.70499" lon="1.71481">
        <ele>186.60000610352</ele>
        <time>2014-10-24T10:37:32.000Z</time>
      </trkpt>
      <trkpt lat="48.70498" lon="1.71485">
        <ele>186.80000305176</ele>
        <time>2014-10-24T10:37:34.000Z</time>
      </trkpt>
      <trkpt lat="48.70498" lon="1.71491">
        <ele>186.80000305176</ele>
        <time>2014-10-24T10:37:37.000Z</time>
      </trkpt>
      <trkpt lat="48.70497" lon="1.715">
        <ele>186.80000305176</ele>
        <time>2014-10-24T10:37:41.000Z</time>
      </trkpt>
      <trkpt lat="48.70496" lon="1.71514">
        <ele>186.80000305176</ele>
        <time>2014-10-24T10:37:48.000Z</time>
      </trkpt>
      <trkpt lat="48.70496" lon="1.71534">
        <ele>186.80000305176</ele>
        <time>2014-10-24T10:37:57.000Z</time>
      </trkpt>
      <trkpt lat="48.705" lon="1.71544">
        <ele>186.80000305176</ele>
        <time>2014-10-24T10:38:01.000Z</time>
      </trkpt>
      <trkpt lat="48.70501" lon="1.71554">
        <ele>186.80000305176</ele>
        <time>2014-10-24T10:38:05.000Z</time>
      </trkpt>
      <trkpt lat="48.70502" lon="1.71575">
        <ele>186.60000610352</ele>
        <time>2014-10-24T10:38:14.000Z</time>
      </trkpt>
      <trkpt lat="48.70503" lon="1.71585">
        <ele>186.39999389648</ele>
        <time>2014-10-24T10:38:18.000Z</time>
      </trkpt>
      <trkpt lat="48.70503" lon="1.71595">
        <ele>186.19999694824</ele>
        <time>2014-10-24T10:38:22.000Z</time>
      </trkpt>
      <trkpt lat="48.70504" lon="1.71606">
        <ele>186.19999694824</ele>
        <time>2014-10-24T10:38:27.000Z</time>
      </trkpt>
      <trkpt lat="48.70503" lon="1.7161">
        <ele>186.19999694824</ele>
        <time>2014-10-24T10:38:29.000Z</time>
      </trkpt>
      <trkpt lat="48.70503" lon="1.71622">
        <ele>186</ele>
        <time>2014-10-24T10:38:34.000Z</time>
      </trkpt>
      <trkpt lat="48.70503" lon="1.71624">
        <ele>186</ele>
        <time>2014-10-24T10:38:35.000Z</time>
      </trkpt>
      <trkpt lat="48.70504" lon="1.71632">
        <ele>185.80000305176</ele>
        <time>2014-10-24T10:38:38.000Z</time>
      </trkpt>
      <trkpt lat="48.70503" lon="1.71643">
        <ele>185.80000305176</ele>
        <time>2014-10-24T10:38:43.000Z</time>
      </trkpt>
      <trkpt lat="48.70503" lon="1.71652">
        <ele>186</ele>
        <time>2014-10-24T10:38:48.000Z</time>
      </trkpt>
      <trkpt lat="48.70503" lon="1.71656">
        <ele>186</ele>
        <time>2014-10-24T10:38:50.000Z</time>
      </trkpt>
      <trkpt lat="48.70501" lon="1.71661">
        <ele>186</ele>
        <time>2014-10-24T10:38:52.000Z</time>
      </trkpt>
      <trkpt lat="48.70501" lon="1.71671">
        <ele>185.80000305176</ele>
        <time>2014-10-24T10:38:57.000Z</time>
      </trkpt>
      <trkpt lat="48.70501" lon="1.71683">
        <ele>185.60000610352</ele>
        <time>2014-10-24T10:39:03.000Z</time>
      </trkpt>
      <trkpt lat="48.705" lon="1.71703">
        <ele>185.39999389648</ele>
        <time>2014-10-24T10:39:13.000Z</time>
      </trkpt>
      <trkpt lat="48.705" lon="1.71709">
        <ele>185.39999389648</ele>
        <time>2014-10-24T10:39:16.000Z</time>
      </trkpt>
      <trkpt lat="48.70499" lon="1.71722">
        <ele>185.39999389648</ele>
        <time>2014-10-24T10:39:22.000Z</time>
      </trkpt>
      <trkpt lat="48.70498" lon="1.71728">
        <ele>185.39999389648</ele>
        <time>2014-10-24T10:39:25.000Z</time>
      </trkpt>
      <trkpt lat="48.70498" lon="1.71737">
        <ele>185.60000610352</ele>
        <time>2014-10-24T10:39:31.000Z</time>
      </trkpt>
      <trkpt lat="48.70498" lon="1.71743">
        <ele>185.60000610352</ele>
        <time>2014-10-24T10:39:37.000Z</time>
      </trkpt>
      <trkpt lat="48.70498" lon="1.71751">
        <ele>185.80000305176</ele>
        <time>2014-10-24T10:39:42.000Z</time>
      </trkpt>
      <trkpt lat="48.70499" lon="1.71769">
        <ele>186.19999694824</ele>
        <time>2014-10-24T10:39:50.000Z</time>
      </trkpt>
      <trkpt lat="48.70499" lon="1.71781">
        <ele>186.60000610352</ele>
        <time>2014-10-24T10:39:56.000Z</time>
      </trkpt>
      <trkpt lat="48.70499" lon="1.71798">
        <ele>187</ele>
        <time>2014-10-24T10:40:04.000Z</time>
      </trkpt>
      <trkpt lat="48.70499" lon="1.71811">
        <ele>186.80000305176</ele>
        <time>2014-10-24T10:40:10.000Z</time>
      </trkpt>
      <trkpt lat="48.705" lon="1.71821">
        <ele>186.80000305176</ele>
        <time>2014-10-24T10:40:14.000Z</time>
      </trkpt>
      <trkpt lat="48.70501" lon="1.71837">
        <ele>187.19999694824</ele>
        <time>2014-10-24T10:40:22.000Z</time>
      </trkpt>
      <trkpt lat="48.705" lon="1.71857">
        <ele>187.60000610352</ele>
        <time>2014-10-24T10:40:31.000Z</time>
      </trkpt>
      <trkpt lat="48.705" lon="1.71874">
        <ele>188</ele>
        <time>2014-10-24T10:40:39.000Z</time>
      </trkpt>
      <trkpt lat="48.705" lon="1.71891">
        <ele>188.19999694824</ele>
        <time>2014-10-24T10:40:46.000Z</time>
      </trkpt>
      <trkpt lat="48.705" lon="1.71893">
        <ele>188.19999694824</ele>
        <time>2014-10-24T10:40:47.000Z</time>
      </trkpt>
      <trkpt lat="48.70499" lon="1.71905">
        <ele>188</ele>
        <time>2014-10-24T10:40:53.000Z</time>
      </trkpt>
      <trkpt lat="48.70499" lon="1.71909">
        <ele>188</ele>
        <time>2014-10-24T10:40:57.000Z</time>
      </trkpt>
      <trkpt lat="48.70499" lon="1.71918">
        <ele>188</ele>
        <time>2014-10-24T10:41:03.000Z</time>
      </trkpt>
      <trkpt lat="48.70498" lon="1.71928">
        <ele>188</ele>
        <time>2014-10-24T10:41:08.000Z</time>
      </trkpt>
      <trkpt lat="48.70499" lon="1.7194">
        <ele>188</ele>
        <time>2014-10-24T10:41:14.000Z</time>
      </trkpt>
      <trkpt lat="48.70499" lon="1.71946">
        <ele>188</ele>
        <time>2014-10-24T10:41:17.000Z</time>
      </trkpt>
      <trkpt lat="48.705" lon="1.71956">
        <ele>188</ele>
        <time>2014-10-24T10:41:21.000Z</time>
      </trkpt>
      <trkpt lat="48.70502" lon="1.71973">
        <ele>188.19999694824</ele>
        <time>2014-10-24T10:41:28.000Z</time>
      </trkpt>
      <trkpt lat="48.70502" lon="1.71979">
        <ele>188.19999694824</ele>
        <time>2014-10-24T10:41:31.000Z</time>
      </trkpt>
      <trkpt lat="48.705" lon="1.71992">
        <ele>188</ele>
        <time>2014-10-24T10:41:39.000Z</time>
      </trkpt>
      <trkpt lat="48.705" lon="1.72004">
        <ele>187.80000305176</ele>
        <time>2014-10-24T10:41:45.000Z</time>
      </trkpt>
      <trkpt lat="48.705" lon="1.72006">
        <ele>187.80000305176</ele>
        <time>2014-10-24T10:41:46.000Z</time>
      </trkpt>
      <trkpt lat="48.70502" lon="1.72016">
        <ele>187.80000305176</ele>
        <time>2014-10-24T10:41:51.000Z</time>
      </trkpt>
      <trkpt lat="48.70501" lon="1.7202">
        <ele>187.60000610352</ele>
        <time>2014-10-24T10:41:53.000Z</time>
      </trkpt>
      <trkpt lat="48.70501" lon="1.72036">
        <ele>187.39999389648</ele>
        <time>2014-10-24T10:42:01.000Z</time>
      </trkpt>
      <trkpt lat="48.705" lon="1.7205">
        <ele>187.19999694824</ele>
        <time>2014-10-24T10:42:08.000Z</time>
      </trkpt>
      <trkpt lat="48.705" lon="1.72054">
        <ele>187.19999694824</ele>
        <time>2014-10-24T10:42:10.000Z</time>
      </trkpt>
      <trkpt lat="48.70499" lon="1.72073">
        <ele>187.19999694824</ele>
        <time>2014-10-24T10:42:19.000Z</time>
      </trkpt>
      <trkpt lat="48.70499" lon="1.72075">
        <ele>187.19999694824</ele>
        <time>2014-10-24T10:42:20.000Z</time>
      </trkpt>
      <trkpt lat="48.705" lon="1.72081">
        <ele>187.19999694824</ele>
        <time>2014-10-24T10:42:23.000Z</time>
      </trkpt>
      <trkpt lat="48.705" lon="1.72082">
        <ele>187.19999694824</ele>
        <time>2014-10-24T10:42:26.000Z</time>
      </trkpt>
      <trkpt lat="48.70501" lon="1.72092">
        <ele>187</ele>
        <time>2014-10-24T10:42:34.000Z</time>
      </trkpt>
      <trkpt lat="48.70503" lon="1.72102">
        <ele>187</ele>
        <time>2014-10-24T10:42:38.000Z</time>
      </trkpt>
      <trkpt lat="48.70505" lon="1.72116">
        <ele>187</ele>
        <time>2014-10-24T10:42:44.000Z</time>
      </trkpt>
      <trkpt lat="48.70503" lon="1.72126">
        <ele>186.80000305176</ele>
        <time>2014-10-24T10:42:49.000Z</time>
      </trkpt>
      <trkpt lat="48.70502" lon="1.7214">
        <ele>186.60000610352</ele>
        <time>2014-10-24T10:42:56.000Z</time>
      </trkpt>
      <trkpt lat="48.70504" lon="1.72155">
        <ele>186.60000610352</ele>
        <time>2014-10-24T10:43:03.000Z</time>
      </trkpt>
      <trkpt lat="48.70505" lon="1.72167">
        <ele>186.39999389648</ele>
        <time>2014-10-24T10:43:08.000Z</time>
      </trkpt>
      <trkpt lat="48.70504" lon="1.72182">
        <ele>186.19999694824</ele>
        <time>2014-10-24T10:43:15.000Z</time>
      </trkpt>
      <trkpt lat="48.70505" lon="1.72191">
        <ele>186.19999694824</ele>
        <time>2014-10-24T10:43:20.000Z</time>
      </trkpt>
      <trkpt lat="48.70503" lon="1.72209">
        <ele>186</ele>
        <time>2014-10-24T10:43:29.000Z</time>
      </trkpt>
      <trkpt lat="48.70502" lon="1.72211">
        <ele>185.80000305176</ele>
        <time>2014-10-24T10:43:30.000Z</time>
      </trkpt>
      <trkpt lat="48.70503" lon="1.72225">
        <ele>185.80000305176</ele>
        <time>2014-10-24T10:43:37.000Z</time>
      </trkpt>
      <trkpt lat="48.70503" lon="1.72227">
        <ele>185.60000610352</ele>
        <time>2014-10-24T10:43:41.000Z</time>
      </trkpt>
      <trkpt lat="48.70502" lon="1.72237">
        <ele>185.60000610352</ele>
        <time>2014-10-24T10:43:50.000Z</time>
      </trkpt>
      <trkpt lat="48.70501" lon="1.72242">
        <ele>185.39999389648</ele>
        <time>2014-10-24T10:43:51.000Z</time>
      </trkpt>
      <trkpt lat="48.70501" lon="1.72251">
        <ele>185.39999389648</ele>
        <time>2014-10-24T10:43:55.000Z</time>
      </trkpt>
      <trkpt lat="48.70502" lon="1.72267">
        <ele>185.19999694824</ele>
        <time>2014-10-24T10:44:02.000Z</time>
      </trkpt>
      <trkpt lat="48.70503" lon="1.72269">
        <ele>185.19999694824</ele>
        <time>2014-10-24T10:44:03.000Z</time>
      </trkpt>
      <trkpt lat="48.70504" lon="1.72289">
        <ele>185</ele>
        <time>2014-10-24T10:44:12.000Z</time>
      </trkpt>
      <trkpt lat="48.70505" lon="1.72293">
        <ele>185</ele>
        <time>2014-10-24T10:44:14.000Z</time>
      </trkpt>
      <trkpt lat="48.70504" lon="1.72308">
        <ele>184.80000305176</ele>
        <time>2014-10-24T10:44:21.000Z</time>
      </trkpt>
      <trkpt lat="48.70504" lon="1.72317">
        <ele>184.80000305176</ele>
        <time>2014-10-24T10:44:25.000Z</time>
      </trkpt>
      <trkpt lat="48.70506" lon="1.72339">
        <ele>185</ele>
        <time>2014-10-24T10:44:35.000Z</time>
      </trkpt>
      <trkpt lat="48.70505" lon="1.72347">
        <ele>185.19999694824</ele>
        <time>2014-10-24T10:44:40.000Z</time>
      </trkpt>
      <trkpt lat="48.70505" lon="1.72357">
        <ele>185.19999694824</ele>
        <time>2014-10-24T10:44:45.000Z</time>
      </trkpt>
      <trkpt lat="48.70505" lon="1.72362">
        <ele>185.39999389648</ele>
        <time>2014-10-24T10:44:47.000Z</time>
      </trkpt>
      <trkpt lat="48.70505" lon="1.72369">
        <ele>185.39999389648</ele>
        <time>2014-10-24T10:44:51.000Z</time>
      </trkpt>
      <trkpt lat="48.70503" lon="1.72385">
        <ele>185.60000610352</ele>
        <time>2014-10-24T10:44:58.000Z</time>
      </trkpt>
      <trkpt lat="48.70505" lon="1.724">
        <ele>185.39999389648</ele>
        <time>2014-10-24T10:45:05.000Z</time>
      </trkpt>
      <trkpt lat="48.70504" lon="1.72414">
        <ele>185</ele>
        <time>2014-10-24T10:45:12.000Z</time>
      </trkpt>
      <trkpt lat="48.70503" lon="1.72426">
        <ele>184.60000610352</ele>
        <time>2014-10-24T10:45:17.000Z</time>
      </trkpt>
      <trkpt lat="48.70503" lon="1.72432">
        <ele>184.39999389648</ele>
        <time>2014-10-24T10:45:20.000Z</time>
      </trkpt>
      <trkpt lat="48.70504" lon="1.72436">
        <ele>184.19999694824</ele>
        <time>2014-10-24T10:45:22.000Z</time>
      </trkpt>
      <trkpt lat="48.70504" lon="1.72447">
        <ele>183.80000305176</ele>
        <time>2014-10-24T10:45:27.000Z</time>
      </trkpt>
      <trkpt lat="48.70505" lon="1.72451">
        <ele>183.80000305176</ele>
        <time>2014-10-24T10:45:29.000Z</time>
      </trkpt>
      <trkpt lat="48.70505" lon="1.72466">
        <ele>183.19999694824</ele>
        <time>2014-10-24T10:45:36.000Z</time>
      </trkpt>
      <trkpt lat="48.70505" lon="1.7247">
        <ele>183</ele>
        <time>2014-10-24T10:45:38.000Z</time>
      </trkpt>
      <trkpt lat="48.70506" lon="1.72476">
        <ele>183</ele>
        <time>2014-10-24T10:45:41.000Z</time>
      </trkpt>
      <trkpt lat="48.70508" lon="1.72492">
        <ele>182.60000610352</ele>
        <time>2014-10-24T10:45:48.000Z</time>
      </trkpt>
      <trkpt lat="48.70508" lon="1.72496">
        <ele>182.39999389648</ele>
        <time>2014-10-24T10:45:51.000Z</time>
      </trkpt>
      <trkpt lat="48.70508" lon="1.725">
        <ele>182.19999694824</ele>
        <time>2014-10-24T10:45:55.000Z</time>
      </trkpt>
      <trkpt lat="48.70507" lon="1.72522">
        <ele>181.39999389648</ele>
        <time>2014-10-24T10:46:05.000Z</time>
      </trkpt>
      <trkpt lat="48.70505" lon="1.72534">
        <ele>181</ele>
        <time>2014-10-24T10:46:11.000Z</time>
      </trkpt>
      <trkpt lat="48.70504" lon="1.72539">
        <ele>180.80000305176</ele>
        <time>2014-10-24T10:46:13.000Z</time>
      </trkpt>
      <trkpt lat="48.70505" lon="1.72551">
        <ele>180.39999389648</ele>
        <time>2014-10-24T10:46:18.000Z</time>
      </trkpt>
      <trkpt lat="48.70504" lon="1.72554">
        <ele>180.19999694824</ele>
        <time>2014-10-24T10:46:20.000Z</time>
      </trkpt>
      <trkpt lat="48.70504" lon="1.72568">
        <ele>179.60000610352</ele>
        <time>2014-10-24T10:46:28.000Z</time>
      </trkpt>
      <trkpt lat="48.70504" lon="1.72573">
        <ele>179.60000610352</ele>
        <time>2014-10-24T10:46:30.000Z</time>
      </trkpt>
      <trkpt lat="48.70504" lon="1.72581">
        <ele>179.39999389648</ele>
        <time>2014-10-24T10:46:34.000Z</time>
      </trkpt>
      <trkpt lat="48.70503" lon="1.7259">
        <ele>179.39999389648</ele>
        <time>2014-10-24T10:46:39.000Z</time>
      </trkpt>
      <trkpt lat="48.70503" lon="1.72592">
        <ele>179.39999389648</ele>
        <time>2014-10-24T10:46:40.000Z</time>
      </trkpt>
      <trkpt lat="48.70504" lon="1.72603">
        <ele>179.19999694824</ele>
        <time>2014-10-24T10:46:45.000Z</time>
      </trkpt>
      <trkpt lat="48.70505" lon="1.72612">
        <ele>179.19999694824</ele>
        <time>2014-10-24T10:46:49.000Z</time>
      </trkpt>
      <trkpt lat="48.70504" lon="1.72619">
        <ele>179</ele>
        <time>2014-10-24T10:46:53.000Z</time>
      </trkpt>
      <trkpt lat="48.70502" lon="1.72639">
        <ele>178.80000305176</ele>
        <time>2014-10-24T10:47:02.000Z</time>
      </trkpt>
      <trkpt lat="48.70505" lon="1.72657">
        <ele>178.60000610352</ele>
        <time>2014-10-24T10:47:09.000Z</time>
      </trkpt>
      <trkpt lat="48.70506" lon="1.72679">
        <ele>178.39999389648</ele>
        <time>2014-10-24T10:47:18.000Z</time>
      </trkpt>
      <trkpt lat="48.70505" lon="1.72696">
        <ele>178.19999694824</ele>
        <time>2014-10-24T10:47:26.000Z</time>
      </trkpt>
      <trkpt lat="48.70504" lon="1.72712">
        <ele>178</ele>
        <time>2014-10-24T10:47:34.000Z</time>
      </trkpt>
      <trkpt lat="48.70504" lon="1.72726">
        <ele>177.80000305176</ele>
        <time>2014-10-24T10:47:40.000Z</time>
      </trkpt>
      <trkpt lat="48.70503" lon="1.72736">
        <ele>177.60000610352</ele>
        <time>2014-10-24T10:47:45.000Z</time>
      </trkpt>
      <trkpt lat="48.70503" lon="1.72749">
        <ele>177.80000305176</ele>
        <time>2014-10-24T10:47:51.000Z</time>
      </trkpt>
      <trkpt lat="48.70503" lon="1.72752">
        <ele>178</ele>
        <time>2014-10-24T10:47:52.000Z</time>
      </trkpt>
      <trkpt lat="48.70504" lon="1.72768">
        <ele>178.39999389648</ele>
        <time>2014-10-24T10:47:59.000Z</time>
      </trkpt>
      <trkpt lat="48.70505" lon="1.72783">
        <ele>178.80000305176</ele>
        <time>2014-10-24T10:48:06.000Z</time>
      </trkpt>
      <trkpt lat="48.70504" lon="1.728">
        <ele>179.19999694824</ele>
        <time>2014-10-24T10:48:14.000Z</time>
      </trkpt>
      <trkpt lat="48.70504" lon="1.72816">
        <ele>179</ele>
        <time>2014-10-24T10:48:21.000Z</time>
      </trkpt>
      <trkpt lat="48.70505" lon="1.72829">
        <ele>179</ele>
        <time>2014-10-24T10:48:26.000Z</time>
      </trkpt>
      <trkpt lat="48.70505" lon="1.72832">
        <ele>178.80000305176</ele>
        <time>2014-10-24T10:48:27.000Z</time>
      </trkpt>
      <trkpt lat="48.70505" lon="1.72846">
        <ele>178.80000305176</ele>
        <time>2014-10-24T10:48:33.000Z</time>
      </trkpt>
      <trkpt lat="48.70504" lon="1.7285">
        <ele>178.80000305176</ele>
        <time>2014-10-24T10:48:35.000Z</time>
      </trkpt>
      <trkpt lat="48.70505" lon="1.7286">
        <ele>179</ele>
        <time>2014-10-24T10:48:40.000Z</time>
      </trkpt>
      <trkpt lat="48.70505" lon="1.7288">
        <ele>179</ele>
        <time>2014-10-24T10:48:49.000Z</time>
      </trkpt>
      <trkpt lat="48.70504" lon="1.72896">
        <ele>179.19999694824</ele>
        <time>2014-10-24T10:48:56.000Z</time>
      </trkpt>
      <trkpt lat="48.70504" lon="1.729">
        <ele>179.19999694824</ele>
        <time>2014-10-24T10:48:58.000Z</time>
      </trkpt>
      <trkpt lat="48.70504" lon="1.72915">
        <ele>179.80000305176</ele>
        <time>2014-10-24T10:49:05.000Z</time>
      </trkpt>
      <trkpt lat="48.70506" lon="1.72935">
        <ele>180.19999694824</ele>
        <time>2014-10-24T10:49:13.000Z</time>
      </trkpt>
      <trkpt lat="48.70507" lon="1.72947">
        <ele>180.60000610352</ele>
        <time>2014-10-24T10:49:19.000Z</time>
      </trkpt>
      <trkpt lat="48.70507" lon="1.7297">
        <ele>181.19999694824</ele>
        <time>2014-10-24T10:49:29.000Z</time>
      </trkpt>
      <trkpt lat="48.70506" lon="1.72988">
        <ele>181.60000610352</ele>
        <time>2014-10-24T10:49:37.000Z</time>
      </trkpt>
      <trkpt lat="48.70506" lon="1.7301">
        <ele>182</ele>
        <time>2014-10-24T10:49:48.000Z</time>
      </trkpt>
      <trkpt lat="48.70505" lon="1.73028">
        <ele>182.39999389648</ele>
        <time>2014-10-24T10:49:57.000Z</time>
      </trkpt>
      <trkpt lat="48.70504" lon="1.73035">
        <ele>182.60000610352</ele>
        <time>2014-10-24T10:50:00.000Z</time>
      </trkpt>
      <trkpt lat="48.70502" lon="1.73049">
        <ele>182.80000305176</ele>
        <time>2014-10-24T10:50:07.000Z</time>
      </trkpt>
      <trkpt lat="48.70504" lon="1.7306">
        <ele>183.19999694824</ele>
        <time>2014-10-24T10:50:13.000Z</time>
      </trkpt>
      <trkpt lat="48.70506" lon="1.73079">
        <ele>183.80000305176</ele>
        <time>2014-10-24T10:50:21.000Z</time>
      </trkpt>
      <trkpt lat="48.70505" lon="1.73083">
        <ele>183.80000305176</ele>
        <time>2014-10-24T10:50:23.000Z</time>
      </trkpt>
      <trkpt lat="48.70504" lon="1.73096">
        <ele>184</ele>
        <time>2014-10-24T10:50:30.000Z</time>
      </trkpt>
      <trkpt lat="48.70504" lon="1.73103">
        <ele>184</ele>
        <time>2014-10-24T10:50:34.000Z</time>
      </trkpt>
      <trkpt lat="48.70504" lon="1.73108">
        <ele>184</ele>
        <time>2014-10-24T10:50:36.000Z</time>
      </trkpt>
      <trkpt lat="48.70505" lon="1.73118">
        <ele>184.19999694824</ele>
        <time>2014-10-24T10:50:40.000Z</time>
      </trkpt>
      <trkpt lat="48.70504" lon="1.73128">
        <ele>184.39999389648</ele>
        <time>2014-10-24T10:50:44.000Z</time>
      </trkpt>
      <trkpt lat="48.70506" lon="1.73144">
        <ele>184.60000610352</ele>
        <time>2014-10-24T10:50:52.000Z</time>
      </trkpt>
      <trkpt lat="48.70507" lon="1.73152">
        <ele>184.80000305176</ele>
        <time>2014-10-24T10:50:55.000Z</time>
      </trkpt>
      <trkpt lat="48.70506" lon="1.73169">
        <ele>184.39999389648</ele>
        <time>2014-10-24T10:51:03.000Z</time>
      </trkpt>
      <trkpt lat="48.70508" lon="1.73185">
        <ele>184.19999694824</ele>
        <time>2014-10-24T10:51:10.000Z</time>
      </trkpt>
      <trkpt lat="48.70507" lon="1.73188">
        <ele>184</ele>
        <time>2014-10-24T10:51:12.000Z</time>
      </trkpt>
      <trkpt lat="48.70509" lon="1.73193">
        <ele>184</ele>
        <time>2014-10-24T10:51:14.000Z</time>
      </trkpt>
      <trkpt lat="48.70508" lon="1.73204">
        <ele>183.60000610352</ele>
        <time>2014-10-24T10:51:20.000Z</time>
      </trkpt>
      <trkpt lat="48.70508" lon="1.73209">
        <ele>183.60000610352</ele>
        <time>2014-10-24T10:51:26.000Z</time>
      </trkpt>
      <trkpt lat="48.70506" lon="1.73222">
        <ele>183.19999694824</ele>
        <time>2014-10-24T10:51:38.000Z</time>
      </trkpt>
      <trkpt lat="48.70506" lon="1.73232">
        <ele>183.19999694824</ele>
        <time>2014-10-24T10:51:43.000Z</time>
      </trkpt>
      <trkpt lat="48.70506" lon="1.73248">
        <ele>183</ele>
        <time>2014-10-24T10:51:51.000Z</time>
      </trkpt>
      <trkpt lat="48.70505" lon="1.73265">
        <ele>182.60000610352</ele>
        <time>2014-10-24T10:51:59.000Z</time>
      </trkpt>
      <trkpt lat="48.70505" lon="1.73283">
        <ele>182</ele>
        <time>2014-10-24T10:52:08.000Z</time>
      </trkpt>
      <trkpt lat="48.70505" lon="1.73292">
        <ele>181.80000305176</ele>
        <time>2014-10-24T10:52:13.000Z</time>
      </trkpt>
      <trkpt lat="48.70505" lon="1.73304">
        <ele>181.60000610352</ele>
        <time>2014-10-24T10:52:19.000Z</time>
      </trkpt>
      <trkpt lat="48.70505" lon="1.73306">
        <ele>181.60000610352</ele>
        <time>2014-10-24T10:52:20.000Z</time>
      </trkpt>
      <trkpt lat="48.70504" lon="1.73326">
        <ele>181.60000610352</ele>
        <time>2014-10-24T10:52:28.000Z</time>
      </trkpt>
      <trkpt lat="48.70503" lon="1.73341">
        <ele>181.80000305176</ele>
        <time>2014-10-24T10:52:34.000Z</time>
      </trkpt>
      <trkpt lat="48.70508" lon="1.73365">
        <ele>182</ele>
        <time>2014-10-24T10:52:44.000Z</time>
      </trkpt>
      <trkpt lat="48.70508" lon="1.73379">
        <ele>182.19999694824</ele>
        <time>2014-10-24T10:52:50.000Z</time>
      </trkpt>
      <trkpt lat="48.7051" lon="1.734">
        <ele>182.19999694824</ele>
        <time>2014-10-24T10:52:59.000Z</time>
      </trkpt>
      <trkpt lat="48.70512" lon="1.73419">
        <ele>182.19999694824</ele>
        <time>2014-10-24T10:53:07.000Z</time>
      </trkpt>
      <trkpt lat="48.7051" lon="1.73429">
        <ele>182.19999694824</ele>
        <time>2014-10-24T10:53:13.000Z</time>
      </trkpt>
      <trkpt lat="48.70509" lon="1.73443">
        <ele>182.19999694824</ele>
        <time>2014-10-24T10:53:20.000Z</time>
      </trkpt>
      <trkpt lat="48.70508" lon="1.73445">
        <ele>182.19999694824</ele>
        <time>2014-10-24T10:53:21.000Z</time>
      </trkpt>
      <trkpt lat="48.70508" lon="1.73454">
        <ele>182.19999694824</ele>
        <time>2014-10-24T10:53:25.000Z</time>
      </trkpt>
      <trkpt lat="48.70509" lon="1.73477">
        <ele>182.19999694824</ele>
        <time>2014-10-24T10:53:36.000Z</time>
      </trkpt>
      <trkpt lat="48.7051" lon="1.7349">
        <ele>182.19999694824</ele>
        <time>2014-10-24T10:53:43.000Z</time>
      </trkpt>
      <trkpt lat="48.70511" lon="1.73505">
        <ele>182.19999694824</ele>
        <time>2014-10-24T10:53:50.000Z</time>
      </trkpt>
      <trkpt lat="48.7051" lon="1.73509">
        <ele>182.19999694824</ele>
        <time>2014-10-24T10:53:52.000Z</time>
      </trkpt>
      <trkpt lat="48.70511" lon="1.73519">
        <ele>182.19999694824</ele>
        <time>2014-10-24T10:53:57.000Z</time>
      </trkpt>
      <trkpt lat="48.70511" lon="1.73527">
        <ele>182.19999694824</ele>
        <time>2014-10-24T10:54:01.000Z</time>
      </trkpt>
      <trkpt lat="48.70512" lon="1.73544">
        <ele>182.19999694824</ele>
        <time>2014-10-24T10:54:09.000Z</time>
      </trkpt>
      <trkpt lat="48.70511" lon="1.73557">
        <ele>182.19999694824</ele>
        <time>2014-10-24T10:54:16.000Z</time>
      </trkpt>
      <trkpt lat="48.70511" lon="1.73575">
        <ele>182</ele>
        <time>2014-10-24T10:54:24.000Z</time>
      </trkpt>
      <trkpt lat="48.7051" lon="1.73585">
        <ele>181.80000305176</ele>
        <time>2014-10-24T10:54:29.000Z</time>
      </trkpt>
      <trkpt lat="48.7051" lon="1.73604">
        <ele>181.60000610352</ele>
        <time>2014-10-24T10:54:38.000Z</time>
      </trkpt>
      <trkpt lat="48.70511" lon="1.73619">
        <ele>181.39999389648</ele>
        <time>2014-10-24T10:54:45.000Z</time>
      </trkpt>
      <trkpt lat="48.70512" lon="1.73636">
        <ele>181.19999694824</ele>
        <time>2014-10-24T10:54:53.000Z</time>
      </trkpt>
      <trkpt lat="48.70512" lon="1.73651">
        <ele>181</ele>
        <time>2014-10-24T10:55:00.000Z</time>
      </trkpt>
      <trkpt lat="48.70512" lon="1.73655">
        <ele>180.80000305176</ele>
        <time>2014-10-24T10:55:02.000Z</time>
      </trkpt>
      <trkpt lat="48.7051" lon="1.73661">
        <ele>180.80000305176</ele>
        <time>2014-10-24T10:55:06.000Z</time>
      </trkpt>
      <trkpt lat="48.70509" lon="1.73676">
        <ele>180.60000610352</ele>
        <time>2014-10-24T10:55:13.000Z</time>
      </trkpt>
      <trkpt lat="48.70512" lon="1.73693">
        <ele>180.39999389648</ele>
        <time>2014-10-24T10:55:21.000Z</time>
      </trkpt>
      <trkpt lat="48.70511" lon="1.73699">
        <ele>180.39999389648</ele>
        <time>2014-10-24T10:55:24.000Z</time>
      </trkpt>
      <trkpt lat="48.70509" lon="1.73713">
        <ele>180.19999694824</ele>
        <time>2014-10-24T10:55:31.000Z</time>
      </trkpt>
      <trkpt lat="48.70509" lon="1.73725">
        <ele>180</ele>
        <time>2014-10-24T10:55:37.000Z</time>
      </trkpt>
      <trkpt lat="48.7051" lon="1.73746">
        <ele>179.80000305176</ele>
        <time>2014-10-24T10:55:46.000Z</time>
      </trkpt>
      <trkpt lat="48.70509" lon="1.7376">
        <ele>179.39999389648</ele>
        <time>2014-10-24T10:55:52.000Z</time>
      </trkpt>
      <trkpt lat="48.70508" lon="1.73775">
        <ele>179.19999694824</ele>
        <time>2014-10-24T10:55:59.000Z</time>
      </trkpt>
      <trkpt lat="48.70507" lon="1.73778">
        <ele>179</ele>
        <time>2014-10-24T10:56:01.000Z</time>
      </trkpt>
      <trkpt lat="48.70508" lon="1.73794">
        <ele>178.60000610352</ele>
        <time>2014-10-24T10:56:08.000Z</time>
      </trkpt>
      <trkpt lat="48.70506" lon="1.73804">
        <ele>178.39999389648</ele>
        <time>2014-10-24T10:56:14.000Z</time>
      </trkpt>
      <trkpt lat="48.70505" lon="1.73826">
        <ele>178.39999389648</ele>
        <time>2014-10-24T10:56:24.000Z</time>
      </trkpt>
      <trkpt lat="48.70506" lon="1.73843">
        <ele>178.19999694824</ele>
        <time>2014-10-24T10:56:31.000Z</time>
      </trkpt>
      <trkpt lat="48.70508" lon="1.73861">
        <ele>178</ele>
        <time>2014-10-24T10:56:39.000Z</time>
      </trkpt>
      <trkpt lat="48.70508" lon="1.73869">
        <ele>177.80000305176</ele>
        <time>2014-10-24T10:56:43.000Z</time>
      </trkpt>
      <trkpt lat="48.70508" lon="1.73886">
        <ele>177.60000610352</ele>
        <time>2014-10-24T10:56:51.000Z</time>
      </trkpt>
      <trkpt lat="48.70507" lon="1.73899">
        <ele>177.60000610352</ele>
        <time>2014-10-24T10:56:57.000Z</time>
      </trkpt>
      <trkpt lat="48.70506" lon="1.73901">
        <ele>177.60000610352</ele>
        <time>2014-10-24T10:56:58.000Z</time>
      </trkpt>
      <trkpt lat="48.70505" lon="1.73918">
        <ele>177.80000305176</ele>
        <time>2014-10-24T10:57:06.000Z</time>
      </trkpt>
      <trkpt lat="48.70505" lon="1.73926">
        <ele>177.80000305176</ele>
        <time>2014-10-24T10:57:10.000Z</time>
      </trkpt>
      <trkpt lat="48.70505" lon="1.73943">
        <ele>177.80000305176</ele>
        <time>2014-10-24T10:57:18.000Z</time>
      </trkpt>
      <trkpt lat="48.70504" lon="1.73955">
        <ele>177.80000305176</ele>
        <time>2014-10-24T10:57:24.000Z</time>
      </trkpt>
      <trkpt lat="48.70503" lon="1.73968">
        <ele>177.80000305176</ele>
        <time>2014-10-24T10:57:30.000Z</time>
      </trkpt>
      <trkpt lat="48.70503" lon="1.73986">
        <ele>177.60000610352</ele>
        <time>2014-10-24T10:57:38.000Z</time>
      </trkpt>
      <trkpt lat="48.70504" lon="1.74">
        <ele>177.60000610352</ele>
        <time>2014-10-24T10:57:44.000Z</time>
      </trkpt>
      <trkpt lat="48.70503" lon="1.74021">
        <ele>177.60000610352</ele>
        <time>2014-10-24T10:57:54.000Z</time>
      </trkpt>
      <trkpt lat="48.70504" lon="1.74038">
        <ele>177.60000610352</ele>
        <time>2014-10-24T10:58:02.000Z</time>
      </trkpt>
      <trkpt lat="48.70506" lon="1.74054">
        <ele>177.60000610352</ele>
        <time>2014-10-24T10:58:10.000Z</time>
      </trkpt>
      <trkpt lat="48.70506" lon="1.7406">
        <ele>177.39999389648</ele>
        <time>2014-10-24T10:58:13.000Z</time>
      </trkpt>
      <trkpt lat="48.70509" lon="1.74075">
        <ele>177.19999694824</ele>
        <time>2014-10-24T10:58:19.000Z</time>
      </trkpt>
      <trkpt lat="48.70508" lon="1.74086">
        <ele>177.39999389648</ele>
        <time>2014-10-24T10:58:24.000Z</time>
      </trkpt>
      <trkpt lat="48.70511" lon="1.74096">
        <ele>177.39999389648</ele>
        <time>2014-10-24T10:58:28.000Z</time>
      </trkpt>
      <trkpt lat="48.7051" lon="1.74105">
        <ele>177.60000610352</ele>
        <time>2014-10-24T10:58:32.000Z</time>
      </trkpt>
      <trkpt lat="48.70511" lon="1.74121">
        <ele>177.80000305176</ele>
        <time>2014-10-24T10:58:40.000Z</time>
      </trkpt>
      <trkpt lat="48.7051" lon="1.74135">
        <ele>178</ele>
        <time>2014-10-24T10:58:47.000Z</time>
      </trkpt>
      <trkpt lat="48.70509" lon="1.74139">
        <ele>178</ele>
        <time>2014-10-24T10:58:49.000Z</time>
      </trkpt>
      <trkpt lat="48.7051" lon="1.74154">
        <ele>178</ele>
        <time>2014-10-24T10:58:56.000Z</time>
      </trkpt>
      <trkpt lat="48.70507" lon="1.74165">
        <ele>178</ele>
        <time>2014-10-24T10:59:02.000Z</time>
      </trkpt>
      <trkpt lat="48.70507" lon="1.74174">
        <ele>178</ele>
        <time>2014-10-24T10:59:07.000Z</time>
      </trkpt>
      <trkpt lat="48.70509" lon="1.74191">
        <ele>178</ele>
        <time>2014-10-24T10:59:14.000Z</time>
      </trkpt>
      <trkpt lat="48.70509" lon="1.74193">
        <ele>178</ele>
        <time>2014-10-24T10:59:15.000Z</time>
      </trkpt>
      <trkpt lat="48.70509" lon="1.74206">
        <ele>178</ele>
        <time>2014-10-24T10:59:21.000Z</time>
      </trkpt>
      <trkpt lat="48.70508" lon="1.74217">
        <ele>178</ele>
        <time>2014-10-24T10:59:27.000Z</time>
      </trkpt>
      <trkpt lat="48.70507" lon="1.74229">
        <ele>178</ele>
        <time>2014-10-24T10:59:34.000Z</time>
      </trkpt>
      <trkpt lat="48.70506" lon="1.74238">
        <ele>178.19999694824</ele>
        <time>2014-10-24T10:59:39.000Z</time>
      </trkpt>
      <trkpt lat="48.70507" lon="1.74246">
        <ele>178.19999694824</ele>
        <time>2014-10-24T10:59:43.000Z</time>
      </trkpt>
      <trkpt lat="48.70506" lon="1.7425">
        <ele>178.39999389648</ele>
        <time>2014-10-24T10:59:49.000Z</time>
      </trkpt>
      <trkpt lat="48.70506" lon="1.74246">
        <ele>178.19999694824</ele>
        <time>2014-10-24T10:59:54.000Z</time>
      </trkpt>
      <trkpt lat="48.70508" lon="1.74244">
        <ele>178.19999694824</ele>
        <time>2014-10-24T10:59:57.000Z</time>
      </trkpt>
      <trkpt lat="48.70517" lon="1.74246">
        <ele>178.19999694824</ele>
        <time>2014-10-24T11:00:03.000Z</time>
      </trkpt>
      <trkpt lat="48.70526" lon="1.74254">
        <ele>178.39999389648</ele>
        <time>2014-10-24T11:00:11.000Z</time>
      </trkpt>
      <trkpt lat="48.70529" lon="1.74257">
        <ele>178.60000610352</ele>
        <time>2014-10-24T11:00:14.000Z</time>
      </trkpt>
      <trkpt lat="48.70536" lon="1.74262">
        <ele>178.80000305176</ele>
        <time>2014-10-24T11:00:20.000Z</time>
      </trkpt>
      <trkpt lat="48.70538" lon="1.74262">
        <ele>179</ele>
        <time>2014-10-24T11:00:23.000Z</time>
      </trkpt>
      <trkpt lat="48.70544" lon="1.74264">
        <ele>179.19999694824</ele>
        <time>2014-10-24T11:00:29.000Z</time>
      </trkpt>
      <trkpt lat="48.70553" lon="1.7427">
        <ele>179.60000610352</ele>
        <time>2014-10-24T11:00:35.000Z</time>
      </trkpt>
      <trkpt lat="48.70562" lon="1.74275">
        <ele>179.60000610352</ele>
        <time>2014-10-24T11:00:41.000Z</time>
      </trkpt>
      <trkpt lat="48.70566" lon="1.74276">
        <ele>179.60000610352</ele>
        <time>2014-10-24T11:00:43.000Z</time>
      </trkpt>
      <trkpt lat="48.70572" lon="1.74285">
        <ele>180.19999694824</ele>
        <time>2014-10-24T11:00:51.000Z</time>
      </trkpt>
      <trkpt lat="48.70582" lon="1.743">
        <ele>181</ele>
        <time>2014-10-24T11:01:00.000Z</time>
      </trkpt>
      <trkpt lat="48.70584" lon="1.74302">
        <ele>181</ele>
        <time>2014-10-24T11:01:02.000Z</time>
      </trkpt>
      <trkpt lat="48.70592" lon="1.74317">
        <ele>181.60000610352</ele>
        <time>2014-10-24T11:01:10.000Z</time>
      </trkpt>
      <trkpt lat="48.70601" lon="1.74329">
        <ele>182.19999694824</ele>
        <time>2014-10-24T11:01:18.000Z</time>
      </trkpt>
      <trkpt lat="48.7061" lon="1.7434">
        <ele>182.19999694824</ele>
        <time>2014-10-24T11:01:25.000Z</time>
      </trkpt>
      <trkpt lat="48.70613" lon="1.74345">
        <ele>182.19999694824</ele>
        <time>2014-10-24T11:01:29.000Z</time>
      </trkpt>
      <trkpt lat="48.70621" lon="1.74355">
        <ele>182.19999694824</ele>
        <time>2014-10-24T11:01:38.000Z</time>
      </trkpt>
      <trkpt lat="48.70624" lon="1.74364">
        <ele>182.39999389648</ele>
        <time>2014-10-24T11:01:44.000Z</time>
      </trkpt>
      <trkpt lat="48.7063" lon="1.7437">
        <ele>182.19999694824</ele>
        <time>2014-10-24T11:01:50.000Z</time>
      </trkpt>
      <trkpt lat="48.70634" lon="1.74375">
        <ele>182.19999694824</ele>
        <time>2014-10-24T11:01:54.000Z</time>
      </trkpt>
      <trkpt lat="48.70641" lon="1.74383">
        <ele>182.19999694824</ele>
        <time>2014-10-24T11:02:01.000Z</time>
      </trkpt>
      <trkpt lat="48.7065" lon="1.7439">
        <ele>182</ele>
        <time>2014-10-24T11:02:08.000Z</time>
      </trkpt>
      <trkpt lat="48.70656" lon="1.74399">
        <ele>182</ele>
        <time>2014-10-24T11:02:15.000Z</time>
      </trkpt>
      <trkpt lat="48.70661" lon="1.74407">
        <ele>182</ele>
        <time>2014-10-24T11:02:22.000Z</time>
      </trkpt>
      <trkpt lat="48.70662" lon="1.74411">
        <ele>181.80000305176</ele>
        <time>2014-10-24T11:02:25.000Z</time>
      </trkpt>
      <trkpt lat="48.70666" lon="1.74421">
        <ele>181.60000610352</ele>
        <time>2014-10-24T11:02:32.000Z</time>
      </trkpt>
      <trkpt lat="48.70667" lon="1.74424">
        <ele>181.39999389648</ele>
        <time>2014-10-24T11:02:34.000Z</time>
      </trkpt>
      <trkpt lat="48.70668" lon="1.74429">
        <ele>181.39999389648</ele>
        <time>2014-10-24T11:02:37.000Z</time>
      </trkpt>
      <trkpt lat="48.70678" lon="1.74441">
        <ele>180.80000305176</ele>
        <time>2014-10-24T11:02:46.000Z</time>
      </trkpt>
      <trkpt lat="48.70687" lon="1.74451">
        <ele>180.39999389648</ele>
        <time>2014-10-24T11:02:55.000Z</time>
      </trkpt>
      <trkpt lat="48.70692" lon="1.74456">
        <ele>180.19999694824</ele>
        <time>2014-10-24T11:02:59.000Z</time>
      </trkpt>
      <trkpt lat="48.70702" lon="1.74464">
        <ele>179.80000305176</ele>
        <time>2014-10-24T11:03:06.000Z</time>
      </trkpt>
      <trkpt lat="48.70703" lon="1.74464">
        <ele>179.60000610352</ele>
        <time>2014-10-24T11:03:10.000Z</time>
      </trkpt>
      <trkpt lat="48.70709" lon="1.74463">
        <ele>179.60000610352</ele>
        <time>2014-10-24T11:03:18.000Z</time>
      </trkpt>
      <trkpt lat="48.70722" lon="1.74466">
        <ele>179</ele>
        <time>2014-10-24T11:03:27.000Z</time>
      </trkpt>
      <trkpt lat="48.70728" lon="1.7447">
        <ele>178.80000305176</ele>
        <time>2014-10-24T11:03:32.000Z</time>
      </trkpt>
      <trkpt lat="48.70736" lon="1.7448">
        <ele>178.39999389648</ele>
        <time>2014-10-24T11:03:39.000Z</time>
      </trkpt>
      <trkpt lat="48.70745" lon="1.7449">
        <ele>178</ele>
        <time>2014-10-24T11:03:47.000Z</time>
      </trkpt>
      <trkpt lat="48.70752" lon="1.74497">
        <ele>177.60000610352</ele>
        <time>2014-10-24T11:03:53.000Z</time>
      </trkpt>
      <trkpt lat="48.70757" lon="1.74506">
        <ele>177.39999389648</ele>
        <time>2014-10-24T11:03:59.000Z</time>
      </trkpt>
      <trkpt lat="48.70757" lon="1.74508">
        <ele>177.39999389648</ele>
        <time>2014-10-24T11:04:00.000Z</time>
      </trkpt>
      <trkpt lat="48.70772" lon="1.74523">
        <ele>177</ele>
        <time>2014-10-24T11:04:12.000Z</time>
      </trkpt>
      <trkpt lat="48.70778" lon="1.74531">
        <ele>177</ele>
        <time>2014-10-24T11:04:18.000Z</time>
      </trkpt>
      <trkpt lat="48.70781" lon="1.74536">
        <ele>176.80000305176</ele>
        <time>2014-10-24T11:04:22.000Z</time>
      </trkpt>
      <trkpt lat="48.70789" lon="1.74545">
        <ele>176.80000305176</ele>
        <time>2014-10-24T11:04:30.000Z</time>
      </trkpt>
      <trkpt lat="48.70789" lon="1.74545">
        <ele>176.80000305176</ele>
        <time>2014-10-24T11:04:31.000Z</time>
      </trkpt>
      <trkpt lat="48.7079" lon="1.74547">
        <ele>176.80000305176</ele>
        <time>2014-10-24T11:04:40.000Z</time>
      </trkpt>
      <trkpt lat="48.70799" lon="1.74557">
        <ele>176.60000610352</ele>
        <time>2014-10-24T11:04:47.000Z</time>
      </trkpt>
      <trkpt lat="48.70804" lon="1.74564">
        <ele>176.60000610352</ele>
        <time>2014-10-24T11:04:52.000Z</time>
      </trkpt>
      <trkpt lat="48.70812" lon="1.74574">
        <ele>176.60000610352</ele>
        <time>2014-10-24T11:04:59.000Z</time>
      </trkpt>
      <trkpt lat="48.70818" lon="1.74583">
        <ele>176.39999389648</ele>
        <time>2014-10-24T11:05:07.000Z</time>
      </trkpt>
      <trkpt lat="48.70818" lon="1.74583">
        <ele>176.39999389648</ele>
        <time>2014-10-24T11:05:08.000Z</time>
      </trkpt>
      <trkpt lat="48.70822" lon="1.7459">
        <ele>176.39999389648</ele>
        <time>2014-10-24T11:05:18.000Z</time>
      </trkpt>
      <trkpt lat="48.70824" lon="1.74592">
        <ele>176.39999389648</ele>
        <time>2014-10-24T11:05:21.000Z</time>
      </trkpt>
      <trkpt lat="48.70831" lon="1.74602">
        <ele>176.19999694824</ele>
        <time>2014-10-24T11:06:13.000Z</time>
      </trkpt>
      <trkpt lat="48.70838" lon="1.74609">
        <ele>176.19999694824</ele>
        <time>2014-10-24T11:06:19.000Z</time>
      </trkpt>
      <trkpt lat="48.70846" lon="1.7462">
        <ele>176</ele>
        <time>2014-10-24T11:06:27.000Z</time>
      </trkpt>
      <trkpt lat="48.70855" lon="1.7463">
        <ele>176</ele>
        <time>2014-10-24T11:06:34.000Z</time>
      </trkpt>
      <trkpt lat="48.7086" lon="1.74637">
        <ele>176</ele>
        <time>2014-10-24T11:06:39.000Z</time>
      </trkpt>
      <trkpt lat="48.70865" lon="1.74645">
        <ele>176</ele>
        <time>2014-10-24T11:06:46.000Z</time>
      </trkpt>
      <trkpt lat="48.70873" lon="1.74654">
        <ele>176</ele>
        <time>2014-10-24T11:06:55.000Z</time>
      </trkpt>
      <trkpt lat="48.70875" lon="1.74658">
        <ele>176</ele>
        <time>2014-10-24T11:06:58.000Z</time>
      </trkpt>
      <trkpt lat="48.70881" lon="1.74665">
        <ele>176.19999694824</ele>
        <time>2014-10-24T11:07:04.000Z</time>
      </trkpt>
      <trkpt lat="48.70886" lon="1.74671">
        <ele>176.39999389648</ele>
        <time>2014-10-24T11:07:09.000Z</time>
      </trkpt>
      <trkpt lat="48.70887" lon="1.74672">
        <ele>176.39999389648</ele>
        <time>2014-10-24T11:07:10.000Z</time>
      </trkpt>
      <trkpt lat="48.70891" lon="1.74678">
        <ele>176.60000610352</ele>
        <time>2014-10-24T11:07:14.000Z</time>
      </trkpt>
      <trkpt lat="48.709" lon="1.74689">
        <ele>176.80000305176</ele>
        <time>2014-10-24T11:07:23.000Z</time>
      </trkpt>
      <trkpt lat="48.70901" lon="1.7469">
        <ele>176.80000305176</ele>
        <time>2014-10-24T11:07:25.000Z</time>
      </trkpt>
      <trkpt lat="48.70905" lon="1.74695">
        <ele>177</ele>
        <time>2014-10-24T11:07:32.000Z</time>
      </trkpt>
      <trkpt lat="48.70912" lon="1.74704">
        <ele>177.19999694824</ele>
        <time>2014-10-24T11:07:37.000Z</time>
      </trkpt>
      <trkpt lat="48.70915" lon="1.74709">
        <ele>177.39999389648</ele>
        <time>2014-10-24T11:07:40.000Z</time>
      </trkpt>
      <trkpt lat="48.70921" lon="1.74715">
        <ele>177.39999389648</ele>
        <time>2014-10-24T11:07:45.000Z</time>
      </trkpt>
      <trkpt lat="48.70929" lon="1.74727">
        <ele>177.80000305176</ele>
        <time>2014-10-24T11:07:53.000Z</time>
      </trkpt>
      <trkpt lat="48.70934" lon="1.74735">
        <ele>178</ele>
        <time>2014-10-24T11:07:58.000Z</time>
      </trkpt>
      <trkpt lat="48.70941" lon="1.74744">
        <ele>178</ele>
        <time>2014-10-24T11:08:05.000Z</time>
      </trkpt>
      <trkpt lat="48.70947" lon="1.74752">
        <ele>178.19999694824</ele>
        <time>2014-10-24T11:08:11.000Z</time>
      </trkpt>
      <trkpt lat="48.70956" lon="1.74762">
        <ele>178.19999694824</ele>
        <time>2014-10-24T11:08:20.000Z</time>
      </trkpt>
      <trkpt lat="48.70963" lon="1.74771">
        <ele>178.39999389648</ele>
        <time>2014-10-24T11:08:27.000Z</time>
      </trkpt>
      <trkpt lat="48.70964" lon="1.74772">
        <ele>178.39999389648</ele>
        <time>2014-10-24T11:08:28.000Z</time>
      </trkpt>
      <trkpt lat="48.70971" lon="1.7478">
        <ele>178.39999389648</ele>
        <time>2014-10-24T11:08:34.000Z</time>
      </trkpt>
      <trkpt lat="48.70978" lon="1.74789">
        <ele>178.39999389648</ele>
        <time>2014-10-24T11:08:40.000Z</time>
      </trkpt>
      <trkpt lat="48.70986" lon="1.748">
        <ele>178.60000610352</ele>
        <time>2014-10-24T11:08:48.000Z</time>
      </trkpt>
      <trkpt lat="48.70991" lon="1.74805">
        <ele>178.60000610352</ele>
        <time>2014-10-24T11:08:52.000Z</time>
      </trkpt>
      <trkpt lat="48.70999" lon="1.74816">
        <ele>178.80000305176</ele>
        <time>2014-10-24T11:09:00.000Z</time>
      </trkpt>
      <trkpt lat="48.71005" lon="1.74823">
        <ele>178.80000305176</ele>
        <time>2014-10-24T11:09:06.000Z</time>
      </trkpt>
      <trkpt lat="48.71011" lon="1.74835">
        <ele>178.80000305176</ele>
        <time>2014-10-24T11:09:13.000Z</time>
      </trkpt>
      <trkpt lat="48.71012" lon="1.7484">
        <ele>178.80000305176</ele>
        <time>2014-10-24T11:09:16.000Z</time>
      </trkpt>
      <trkpt lat="48.7101" lon="1.74851">
        <ele>178.80000305176</ele>
        <time>2014-10-24T11:09:22.000Z</time>
      </trkpt>
      <trkpt lat="48.71008" lon="1.74853">
        <ele>178.80000305176</ele>
        <time>2014-10-24T11:09:26.000Z</time>
      </trkpt>
      <trkpt lat="48.71002" lon="1.74865">
        <ele>178.80000305176</ele>
        <time>2014-10-24T11:09:56.000Z</time>
      </trkpt>
      <trkpt lat="48.71001" lon="1.74866">
        <ele>178.80000305176</ele>
        <time>2014-10-24T11:09:57.000Z</time>
      </trkpt>
      <trkpt lat="48.70996" lon="1.74872">
        <ele>178.80000305176</ele>
        <time>2014-10-24T11:10:02.000Z</time>
      </trkpt>
      <trkpt lat="48.70993" lon="1.74875">
        <ele>178.60000610352</ele>
        <time>2014-10-24T11:10:06.000Z</time>
      </trkpt>
      <trkpt lat="48.70989" lon="1.74877">
        <ele>178.39999389648</ele>
        <time>2014-10-24T11:10:09.000Z</time>
      </trkpt>
      <trkpt lat="48.70984" lon="1.74882">
        <ele>178</ele>
        <time>2014-10-24T11:10:13.000Z</time>
      </trkpt>
      <trkpt lat="48.7098" lon="1.74889">
        <ele>177.60000610352</ele>
        <time>2014-10-24T11:10:18.000Z</time>
      </trkpt>
      <trkpt lat="48.70975" lon="1.74897">
        <ele>177.19999694824</ele>
        <time>2014-10-24T11:10:23.000Z</time>
      </trkpt>
      <trkpt lat="48.70972" lon="1.749">
        <ele>176.80000305176</ele>
        <time>2014-10-24T11:10:27.000Z</time>
      </trkpt>
      <trkpt lat="48.70968" lon="1.74902">
        <ele>176.60000610352</ele>
        <time>2014-10-24T11:10:30.000Z</time>
      </trkpt>
      <trkpt lat="48.70965" lon="1.74906">
        <ele>176.39999389648</ele>
        <time>2014-10-24T11:10:35.000Z</time>
      </trkpt>
      <trkpt lat="48.70963" lon="1.74908">
        <ele>176.19999694824</ele>
        <time>2014-10-24T11:10:37.000Z</time>
      </trkpt>
      <trkpt lat="48.70958" lon="1.74915">
        <ele>175.80000305176</ele>
        <time>2014-10-24T11:10:43.000Z</time>
      </trkpt>
      <trkpt lat="48.70957" lon="1.74919">
        <ele>175.80000305176</ele>
        <time>2014-10-24T11:10:45.000Z</time>
      </trkpt>
      <trkpt lat="48.70952" lon="1.74925">
        <ele>175.60000610352</ele>
        <time>2014-10-24T11:10:50.000Z</time>
      </trkpt>
      <trkpt lat="48.70947" lon="1.74934">
        <ele>175.39999389648</ele>
        <time>2014-10-24T11:10:56.000Z</time>
      </trkpt>
      <trkpt lat="48.70942" lon="1.7494">
        <ele>175.19999694824</ele>
        <time>2014-10-24T11:11:00.000Z</time>
      </trkpt>
      <trkpt lat="48.70937" lon="1.74948">
        <ele>175</ele>
        <time>2014-10-24T11:11:06.000Z</time>
      </trkpt>
      <trkpt lat="48.70935" lon="1.74951">
        <ele>175</ele>
        <time>2014-10-24T11:11:08.000Z</time>
      </trkpt>
      <trkpt lat="48.70931" lon="1.74961">
        <ele>175</ele>
        <time>2014-10-24T11:11:13.000Z</time>
      </trkpt>
      <trkpt lat="48.70929" lon="1.74966">
        <ele>175</ele>
        <time>2014-10-24T11:11:17.000Z</time>
      </trkpt>
      <trkpt lat="48.70926" lon="1.74971">
        <ele>174.80000305176</ele>
        <time>2014-10-24T11:11:20.000Z</time>
      </trkpt>
      <trkpt lat="48.70922" lon="1.7498">
        <ele>175</ele>
        <time>2014-10-24T11:11:25.000Z</time>
      </trkpt>
      <trkpt lat="48.70914" lon="1.74993">
        <ele>175</ele>
        <time>2014-10-24T11:11:32.000Z</time>
      </trkpt>
      <trkpt lat="48.70913" lon="1.74997">
        <ele>174.80000305176</ele>
        <time>2014-10-24T11:11:34.000Z</time>
      </trkpt>
      <trkpt lat="48.70911" lon="1.75006">
        <ele>174.80000305176</ele>
        <time>2014-10-24T11:11:39.000Z</time>
      </trkpt>
      <trkpt lat="48.70907" lon="1.75015">
        <ele>174.60000610352</ele>
        <time>2014-10-24T11:11:44.000Z</time>
      </trkpt>
      <trkpt lat="48.70902" lon="1.75025">
        <ele>174.60000610352</ele>
        <time>2014-10-24T11:11:50.000Z</time>
      </trkpt>
      <trkpt lat="48.70899" lon="1.75028">
        <ele>174.60000610352</ele>
        <time>2014-10-24T11:11:52.000Z</time>
      </trkpt>
      <trkpt lat="48.70894" lon="1.7504">
        <ele>174.39999389648</ele>
        <time>2014-10-24T11:11:59.000Z</time>
      </trkpt>
      <trkpt lat="48.70891" lon="1.75048">
        <ele>174.19999694824</ele>
        <time>2014-10-24T11:12:04.000Z</time>
      </trkpt>
      <trkpt lat="48.70889" lon="1.75055">
        <ele>174.19999694824</ele>
        <time>2014-10-24T11:12:08.000Z</time>
      </trkpt>
      <trkpt lat="48.70885" lon="1.75059">
        <ele>174.19999694824</ele>
        <time>2014-10-24T11:12:11.000Z</time>
      </trkpt>
      <trkpt lat="48.7088" lon="1.75069">
        <ele>174</ele>
        <time>2014-10-24T11:12:17.000Z</time>
      </trkpt>
      <trkpt lat="48.70876" lon="1.75074">
        <ele>174</ele>
        <time>2014-10-24T11:12:22.000Z</time>
      </trkpt>
      <trkpt lat="48.70876" lon="1.75074">
        <ele>174</ele>
        <time>2014-10-24T11:12:23.000Z</time>
      </trkpt>
      <trkpt lat="48.70874" lon="1.75082">
        <ele>174.19999694824</ele>
        <time>2014-10-24T11:12:29.000Z</time>
      </trkpt>
      <trkpt lat="48.70871" lon="1.7509">
        <ele>174.19999694824</ele>
        <time>2014-10-24T11:12:33.000Z</time>
      </trkpt>
      <trkpt lat="48.70869" lon="1.75094">
        <ele>174</ele>
        <time>2014-10-24T11:12:36.000Z</time>
      </trkpt>
      <trkpt lat="48.70867" lon="1.75104">
        <ele>174</ele>
        <time>2014-10-24T11:12:41.000Z</time>
      </trkpt>
      <trkpt lat="48.70864" lon="1.75113">
        <ele>173.80000305176</ele>
        <time>2014-10-24T11:12:46.000Z</time>
      </trkpt>
      <trkpt lat="48.70861" lon="1.75121">
        <ele>173.60000610352</ele>
        <time>2014-10-24T11:12:51.000Z</time>
      </trkpt>
      <trkpt lat="48.70857" lon="1.75127">
        <ele>173.39999389648</ele>
        <time>2014-10-24T11:12:55.000Z</time>
      </trkpt>
      <trkpt lat="48.70855" lon="1.75131">
        <ele>173.39999389648</ele>
        <time>2014-10-24T11:12:58.000Z</time>
      </trkpt>
      <trkpt lat="48.70853" lon="1.75132">
        <ele>173.19999694824</ele>
        <time>2014-10-24T11:13:02.000Z</time>
      </trkpt>
      <trkpt lat="48.70846" lon="1.75145">
        <ele>173.19999694824</ele>
        <time>2014-10-24T11:13:18.000Z</time>
      </trkpt>
      <trkpt lat="48.70841" lon="1.75156">
        <ele>173</ele>
        <time>2014-10-24T11:13:23.000Z</time>
      </trkpt>
      <trkpt lat="48.70836" lon="1.7517">
        <ele>173.19999694824</ele>
        <time>2014-10-24T11:13:30.000Z</time>
      </trkpt>
      <trkpt lat="48.70831" lon="1.75182">
        <ele>173.39999389648</ele>
        <time>2014-10-24T11:13:37.000Z</time>
      </trkpt>
      <trkpt lat="48.70829" lon="1.75186">
        <ele>173.39999389648</ele>
        <time>2014-10-24T11:13:40.000Z</time>
      </trkpt>
      <trkpt lat="48.70824" lon="1.75197">
        <ele>173.60000610352</ele>
        <time>2014-10-24T11:13:47.000Z</time>
      </trkpt>
      <trkpt lat="48.70823" lon="1.75198">
        <ele>173.60000610352</ele>
        <time>2014-10-24T11:13:48.000Z</time>
      </trkpt>
      <trkpt lat="48.70819" lon="1.75209">
        <ele>173.60000610352</ele>
        <time>2014-10-24T11:13:54.000Z</time>
      </trkpt>
      <trkpt lat="48.70815" lon="1.75216">
        <ele>173.60000610352</ele>
        <time>2014-10-24T11:13:58.000Z</time>
      </trkpt>
      <trkpt lat="48.70813" lon="1.75223">
        <ele>173.60000610352</ele>
        <time>2014-10-24T11:14:03.000Z</time>
      </trkpt>
      <trkpt lat="48.70809" lon="1.7523">
        <ele>173.39999389648</ele>
        <time>2014-10-24T11:14:07.000Z</time>
      </trkpt>
      <trkpt lat="48.70807" lon="1.75236">
        <ele>173.39999389648</ele>
        <time>2014-10-24T11:14:11.000Z</time>
      </trkpt>
      <trkpt lat="48.70803" lon="1.75246">
        <ele>173.39999389648</ele>
        <time>2014-10-24T11:14:16.000Z</time>
      </trkpt>
      <trkpt lat="48.70802" lon="1.75248">
        <ele>173.39999389648</ele>
        <time>2014-10-24T11:14:17.000Z</time>
      </trkpt>
      <trkpt lat="48.70798" lon="1.75259">
        <ele>173.39999389648</ele>
        <time>2014-10-24T11:14:23.000Z</time>
      </trkpt>
      <trkpt lat="48.70794" lon="1.75268">
        <ele>173.19999694824</ele>
        <time>2014-10-24T11:14:28.000Z</time>
      </trkpt>
      <trkpt lat="48.70793" lon="1.7527">
        <ele>173.19999694824</ele>
        <time>2014-10-24T11:14:29.000Z</time>
      </trkpt>
      <trkpt lat="48.70792" lon="1.75272">
        <ele>173.19999694824</ele>
        <time>2014-10-24T11:14:33.000Z</time>
      </trkpt>
      <trkpt lat="48.70789" lon="1.7528">
        <ele>173</ele>
        <time>2014-10-24T11:14:40.000Z</time>
      </trkpt>
      <trkpt lat="48.70787" lon="1.75283">
        <ele>172.80000305176</ele>
        <time>2014-10-24T11:14:41.000Z</time>
      </trkpt>
      <trkpt lat="48.70782" lon="1.75292">
        <ele>172.60000610352</ele>
        <time>2014-10-24T11:14:47.000Z</time>
      </trkpt>
      <trkpt lat="48.7078" lon="1.75301">
        <ele>172.39999389648</ele>
        <time>2014-10-24T11:14:52.000Z</time>
      </trkpt>
      <trkpt lat="48.70779" lon="1.75306">
        <ele>172.39999389648</ele>
        <time>2014-10-24T11:14:55.000Z</time>
      </trkpt>
      <trkpt lat="48.70775" lon="1.75317">
        <ele>172.19999694824</ele>
        <time>2014-10-24T11:15:01.000Z</time>
      </trkpt>
      <trkpt lat="48.70771" lon="1.75326">
        <ele>172</ele>
        <time>2014-10-24T11:15:06.000Z</time>
      </trkpt>
      <trkpt lat="48.7077" lon="1.75328">
        <ele>172</ele>
        <time>2014-10-24T11:15:07.000Z</time>
      </trkpt>
      <trkpt lat="48.70768" lon="1.75333">
        <ele>172</ele>
        <time>2014-10-24T11:15:10.000Z</time>
      </trkpt>
      <trkpt lat="48.70763" lon="1.75344">
        <ele>172</ele>
        <time>2014-10-24T11:15:16.000Z</time>
      </trkpt>
      <trkpt lat="48.70759" lon="1.75351">
        <ele>171.80000305176</ele>
        <time>2014-10-24T11:15:20.000Z</time>
      </trkpt>
      <trkpt lat="48.70755" lon="1.75363">
        <ele>171.80000305176</ele>
        <time>2014-10-24T11:15:27.000Z</time>
      </trkpt>
      <trkpt lat="48.7075" lon="1.75377">
        <ele>171.80000305176</ele>
        <time>2014-10-24T11:15:34.000Z</time>
      </trkpt>
      <trkpt lat="48.70747" lon="1.75388">
        <ele>171.80000305176</ele>
        <time>2014-10-24T11:15:41.000Z</time>
      </trkpt>
      <trkpt lat="48.7074" lon="1.75402">
        <ele>171.60000610352</ele>
        <time>2014-10-24T11:15:49.000Z</time>
      </trkpt>
      <trkpt lat="48.70735" lon="1.75415">
        <ele>171.39999389648</ele>
        <time>2014-10-24T11:15:57.000Z</time>
      </trkpt>
      <trkpt lat="48.70732" lon="1.75422">
        <ele>171.39999389648</ele>
        <time>2014-10-24T11:16:01.000Z</time>
      </trkpt>
      <trkpt lat="48.70726" lon="1.75436">
        <ele>171</ele>
        <time>2014-10-24T11:16:10.000Z</time>
      </trkpt>
      <trkpt lat="48.7072" lon="1.75449">
        <ele>171.19999694824</ele>
        <time>2014-10-24T11:16:18.000Z</time>
      </trkpt>
      <trkpt lat="48.70716" lon="1.75458">
        <ele>171.60000610352</ele>
        <time>2014-10-24T11:16:24.000Z</time>
      </trkpt>
      <trkpt lat="48.7071" lon="1.75471">
        <ele>172</ele>
        <time>2014-10-24T11:16:32.000Z</time>
      </trkpt>
      <trkpt lat="48.70703" lon="1.75485">
        <ele>172.60000610352</ele>
        <time>2014-10-24T11:16:41.000Z</time>
      </trkpt>
      <trkpt lat="48.70703" lon="1.75485">
        <ele>172.60000610352</ele>
        <time>2014-10-24T11:16:43.000Z</time>
      </trkpt>
      <trkpt lat="48.70695" lon="1.75481">
        <ele>172.60000610352</ele>
        <time>2014-10-24T11:17:11.000Z</time>
      </trkpt>
      <trkpt lat="48.70696" lon="1.75481">
        <ele>172.60000610352</ele>
        <time>2014-10-24T11:17:14.000Z</time>
      </trkpt>
      <trkpt lat="48.70696" lon="1.75481">
        <ele>172.60000610352</ele>
        <time>2014-10-24T11:17:19.000Z</time>
      </trkpt>
      <trkpt lat="48.70694" lon="1.75478">
        <ele>172.60000610352</ele>
        <time>2014-10-24T11:17:23.000Z</time>
      </trkpt>
      <trkpt lat="48.70699" lon="1.7547">
        <ele>172.19999694824</ele>
        <time>2014-10-24T11:17:28.000Z</time>
      </trkpt>
      <trkpt lat="48.70705" lon="1.75461">
        <ele>172</ele>
        <time>2014-10-24T11:17:35.000Z</time>
      </trkpt>
      <trkpt lat="48.70708" lon="1.75455">
        <ele>171.80000305176</ele>
        <time>2014-10-24T11:17:40.000Z</time>
      </trkpt>
      <trkpt lat="48.70709" lon="1.75453">
        <ele>171.60000610352</ele>
        <time>2014-10-24T11:17:44.000Z</time>
      </trkpt>
    </trkseg>
  </trk>
</gpx>